Darstellungsparameter: Aktuell verwendete Einstellungen:
Skalierung der Graphiken ... ?
xyx+y,   Skalierungsfaktor:      Skalierung: Modus: x, Faktor: 1
Darstellungszeitraum ... ?
Vom - - bis: - -   Zeitraum: 16.01.2011 - 15.01.2021
Min/Max/Avg-Anzeige ... ?
Zeige MMA aktuell
Zeige MMA Monat
Zeige MMA alles
Zeige --A aktuell
Zeige --A Monat
Zeige --A alles
Keine MMA-Anzeige
MMA:
Average (ber die Originaldaten)
MMA-Basis: 23.02.2003 - 03.08.2020
Quicknavigation für Darstellung... ?
Tage:      1T, 2T, 3T, 5T -1T -2T -3T -5T +1T +2T +3T +5T
Wochen: 1W, 2W, 3W -1W -2W -3W +1W +2W +3W
Monate: 1M, 3M, 6M -1M -3M -6M +1M +3M +6M
Jahre:    1J, 3J, 5J, 10J -1J -3J -5J -10J +1J +3J +5J +10J
Nutze für die Darstellung ... ?
Originaldaten oder ...
Mittelwerte Minima Maxima auf...
Stundenbasis Tagesbasis Wochenbasis
Monatsbasis Jahresbasis      Datenbasis: Mittelwerte auf Stundenbasis
Darstellen als:
Statistik (Auto) Statistik J:M      Darstellung:
Zur Graphik,    zurück zur Übersicht aller Sensoren.
 
Tabellarische Datenbersicht: ?
 
Sensor: Nr:Datum:Temp:Abs-Feuchte:Windchill:Wind:
Aussen-T/F 1 16-01-2011 00:00:00 8.9 C 5.83 g/m*3 8.9 C 0 km/h
2 16-01-2011 01:00:00 8.24 C 5.69 g/m*3 8.24 C 0 km/h
3 16-01-2011 02:00:00 7.96 C 5.77 g/m*3 7.96 C 0 km/h
4 16-01-2011 03:00:00 8.14 C 5.71 g/m*3 8.14 C 0 km/h
5 16-01-2011 04:00:00 8.22 C 5.75 g/m*3 8.22 C 0 km/h
6 16-01-2011 05:00:00 7.16 C 5.98 g/m*3 7.16 C 0 km/h
7 16-01-2011 06:00:00 7.06 C 6.08 g/m*3 7.06 C 0 km/h
8 16-01-2011 07:00:00 7.88 C 6.07 g/m*3 7.88 C 0 km/h
9 16-01-2011 08:00:00 8.22 C 5.87 g/m*3 8.22 C 0 km/h
10 16-01-2011 09:00:00 8.04 C 5.9 g/m*3 8.04 C 0 km/h
11 16-01-2011 10:00:00 7.98 C 5.91 g/m*3 7.98 C 0 km/h
12 16-01-2011 11:00:00 8.36 C 5.99 g/m*3 8.36 C 0 km/h
13 16-01-2011 12:00:00 8.64 C 6.15 g/m*3 8.64 C 0 km/h
14 16-01-2011 13:00:00 8.82 C 6.19 g/m*3 8.82 C 0 km/h
15 16-01-2011 14:00:00 8.46 C 6.27 g/m*3 8.46 C 0 km/h
16 16-01-2011 15:00:00 9.92 C 6.23 g/m*3 9.92 C 0 km/h
17 16-01-2011 16:00:00 8.04 C 6.35 g/m*3 8.04 C 0 km/h
18 16-01-2011 17:00:00 5.92 C 6.14 g/m*3 5.92 C 0 km/h
19 16-01-2011 18:00:00 4.84 C 5.92 g/m*3 4.84 C 0 km/h
20 16-01-2011 19:00:00 4.22 C 5.77 g/m*3 4.22 C 0 km/h
21 16-01-2011 20:00:00 3.26 C 5.47 g/m*3 3.26 C 0 km/h
22 16-01-2011 21:00:00 2.4 C 5.2 g/m*3 2.4 C 0 km/h
23 16-01-2011 22:00:00 2.16 C 5.16 g/m*3 2.16 C 0 km/h
24 16-01-2011 23:00:00 1.36 C 4.89 g/m*3 1.36 C 0 km/h
25 17-01-2011 00:00:00 1.4 C 4.93 g/m*3 1.4 C 0 km/h
Sensor: Nr:Datum:Temp:Abs-Feuchte:Windchill:Wind:
Aussen-T/F 26 17-01-2011 01:00:00 1.18 C 4.88 g/m*3 1.18 C 0 km/h
27 17-01-2011 02:00:00 1.12 C 4.87 g/m*3 1.12 C 0 km/h
28 17-01-2011 03:00:00 1.04 C 4.87 g/m*3 1.04 C 0 km/h
29 17-01-2011 04:00:00 -0.04 C 4.49 g/m*3 -0.04 C 0 km/h
30 17-01-2011 05:00:00 0.08 C 4.55 g/m*3 0.08 C 0 km/h
31 17-01-2011 06:00:00 -0.62 C 4.32 g/m*3 -0.62 C 0 km/h
32 17-01-2011 07:00:00 -0.4 C 4.4 g/m*3 -0.4 C 0 km/h
33 17-01-2011 08:00:00 -0.66 C 4.32 g/m*3 -0.66 C 0 km/h
34 17-01-2011 09:00:00 0.72 C 4.79 g/m*3 0.72 C 0 km/h
35 17-01-2011 10:00:00 0.68 C 4.77 g/m*3 0.68 C 0 km/h
36 17-01-2011 11:00:00 2.14 C 5.26 g/m*3 2.14 C 0 km/h
37 17-01-2011 12:00:00 5.42 C 6.5 g/m*3 5.42 C 0 km/h
38 17-01-2011 13:00:00 6.06 C 6.54 g/m*3 6.06 C 0 km/h
39 17-01-2011 14:00:00 6.4 C 6.08 g/m*3 6.4 C 0 km/h
40 17-01-2011 15:00:00 6.18 C 5.9 g/m*3 6.18 C 0 km/h
41 17-01-2011 16:00:00 6.18 C 5.96 g/m*3 6.18 C 0 km/h
42 17-01-2011 17:00:00 6.2 C 5.82 g/m*3 6.2 C 0 km/h
43 17-01-2011 18:00:00 5.98 C 6.05 g/m*3 5.98 C 0 km/h
44 17-01-2011 19:00:00 6.22 C 6.1 g/m*3 6.22 C 0 km/h
45 17-01-2011 20:00:00 6.94 C 6.19 g/m*3 6.94 C 0 km/h
46 17-01-2011 21:00:00 8.04 C 6.23 g/m*3 8.04 C 0 km/h
47 17-01-2011 22:00:00 8.28 C 6.13 g/m*3 8.28 C 0 km/h
48 17-01-2011 23:00:00 8.56 C 6.24 g/m*3 8.56 C 0 km/h
49 18-01-2011 00:00:00 7.64 C 6.14 g/m*3 7.64 C 0 km/h
50 18-01-2011 01:00:00 6.84 C 6.13 g/m*3 6.84 C 0 km/h
Sensor: Nr:Datum:Temp:Abs-Feuchte:Windchill:Wind:
Aussen-T/F 51 18-01-2011 02:00:00 5.24 C 5.94 g/m*3 5.24 C 0 km/h
52 18-01-2011 03:00:00 7.1 C 6.1 g/m*3 7.1 C 0 km/h
53 18-01-2011 04:00:00 7.06 C 5.96 g/m*3 7.06 C 0 km/h
54 18-01-2011 05:00:00 7.68 C 5.94 g/m*3 7.68 C 0 km/h
55 18-01-2011 06:00:00 7.26 C 5.97 g/m*3 7.26 C 0 km/h
56 18-01-2011 07:00:00 7.14 C 6.04 g/m*3 7.14 C 0 km/h
57 18-01-2011 08:00:00 7.3 C 5.97 g/m*3 7.3 C 0 km/h
58 18-01-2011 09:00:00 8.44 C 6.04 g/m*3 8.44 C 0 km/h
59 18-01-2011 10:00:00 8.84 C 6.09 g/m*3 8.84 C 0 km/h
60 18-01-2011 11:00:00 8.74 C 6.05 g/m*3 8.74 C 0 km/h
61 18-01-2011 12:00:00 9.7 C 6.07 g/m*3 9.7 C 0 km/h
62 18-01-2011 13:00:00 9.7 C 6.05 g/m*3 9.7 C 0 km/h
63 18-01-2011 14:00:00 9.72 C 5.94 g/m*3 9.72 C 0 km/h
64 18-01-2011 15:00:00 9.42 C 5.67 g/m*3 9.42 C 0 km/h
65 18-01-2011 16:00:00 8.38 C 5.78 g/m*3 8.38 C 0 km/h
66 18-01-2011 17:00:00 6.54 C 6.42 g/m*3 6.54 C 0 km/h
67 18-01-2011 18:00:00 6.16 C 6.31 g/m*3 6.16 C 0 km/h
68 18-01-2011 19:00:00 5.86 C 6.26 g/m*3 5.86 C 0 km/h
69 18-01-2011 20:00:00 5.74 C 6.04 g/m*3 5.74 C 0 km/h
70 18-01-2011 21:00:00 5.1 C 5.62 g/m*3 5.1 C 0 km/h
71 18-01-2011 22:00:00 4.64 C 5.48 g/m*3 4.64 C 0 km/h
72 18-01-2011 23:00:00 4.68 C 5.47 g/m*3 4.68 C 0 km/h
73 19-01-2011 00:00:00 4.36 C 5.2 g/m*3 4.36 C 0 km/h
74 19-01-2011 01:00:00 3.88 C 4.77 g/m*3 3.88 C 0 km/h
75 19-01-2011 02:00:00 3.42 C 4.67 g/m*3 3.42 C 0 km/h
Sensor: Nr:Datum:Temp:Abs-Feuchte:Windchill:Wind:
Aussen-T/F 76 19-01-2011 03:00:00 2.92 C 4.8 g/m*3 2.92 C 0 km/h
77 19-01-2011 04:00:00 2.8 C 4.89 g/m*3 2.8 C 0 km/h
78 19-01-2011 05:00:00 2.56 C 4.99 g/m*3 2.56 C 0 km/h
79 19-01-2011 06:00:00 2.64 C 4.99 g/m*3 2.64 C 0 km/h
80 19-01-2011 07:00:00 2.8 C 4.85 g/m*3 2.8 C 0 km/h
81 19-01-2011 08:00:00 2.4 C 4.86 g/m*3 2.4 C 0 km/h
82 19-01-2011 09:00:00 2.7 C 4.81 g/m*3 2.7 C 0 km/h
83 19-01-2011 10:00:00 2.4 C 4.68 g/m*3 2.4 C 0 km/h
84 19-01-2011 11:00:00 3.64 C 4.84 g/m*3 3.64 C 0 km/h
85 19-01-2011 12:00:00 4.44 C 4.64 g/m*3 4.44 C 0 km/h
86 19-01-2011 13:00:00 4.94 C 4.35 g/m*3 4.94 C 0 km/h
87 19-01-2011 14:00:00 5.36 C 4.24 g/m*3 5.36 C 0 km/h
88 19-01-2011 15:00:00 4.94 C 4.13 g/m*3 4.94 C 0 km/h
89 19-01-2011 16:00:00 4.18 C 4.38 g/m*3 4.18 C 0 km/h
90 19-01-2011 17:00:00 3.34 C 4.54 g/m*3 3.34 C 0 km/h
91 19-01-2011 18:00:00 2.94 C 4.7 g/m*3 2.94 C 0 km/h
92 19-01-2011 19:00:00 3.2 C 4.46 g/m*3 3.2 C 0 km/h
93 19-01-2011 20:00:00 2.36 C 4.69 g/m*3 2.36 C 0 km/h
94 19-01-2011 21:00:00 2.5 C 4.78 g/m*3 2.5 C 0 km/h
95 19-01-2011 22:00:00 2.4 C 4.73 g/m*3 2.4 C 0 km/h
96 19-01-2011 23:00:00 2.28 C 4.69 g/m*3 2.28 C 0 km/h
97 20-01-2011 00:00:00 1.72 C 4.73 g/m*3 1.72 C 0 km/h
98 20-01-2011 01:00:00 1.82 C 4.87 g/m*3 1.82 C 0 km/h
99 20-01-2011 02:00:00 1.22 C 4.71 g/m*3 1.22 C 0 km/h
100 20-01-2011 03:00:00 1.34 C 4.82 g/m*3 1.34 C 0 km/h
Sensor: Nr:Datum:Temp:Abs-Feuchte:Windchill:Wind:
Aussen-T/F 101 20-01-2011 04:00:00 1.16 C 4.78 g/m*3 1.16 C 0 km/h
102 20-01-2011 05:00:00 1.36 C 4.87 g/m*3 1.36 C 0 km/h
103 20-01-2011 06:00:00 1.28 C 4.85 g/m*3 1.28 C 0 km/h
104 20-01-2011 07:00:00 1.02 C 4.73 g/m*3 1.02 C 0 km/h
105 20-01-2011 08:00:00 1.2 C 4.75 g/m*3 1.2 C 0 km/h
106 20-01-2011 09:00:00 1.44 C 4.7 g/m*3 1.44 C 0 km/h
107 20-01-2011 10:00:00 2.02 C 4.61 g/m*3 2.02 C 0 km/h
108 20-01-2011 11:00:00 2.72 C 4.53 g/m*3 2.72 C 0 km/h
109 20-01-2011 12:00:00 3.26 C 4.44 g/m*3 3.26 C 0 km/h
110 20-01-2011 13:00:00 3.88 C 4.35 g/m*3 3.88 C 0 km/h
111 20-01-2011 14:00:00 4.1 C 4.29 g/m*3 4.1 C 0 km/h
112 20-01-2011 15:00:00 3.26 C 4.1 g/m*3 3.26 C 0 km/h
113 20-01-2011 16:00:00 2.48 C 3.98 g/m*3 2.48 C 0 km/h
114 20-01-2011 17:00:00 1.98 C 3.95 g/m*3 1.98 C 0 km/h
115 20-01-2011 18:00:00 1.7 C 3.97 g/m*3 1.7 C 0 km/h
116 20-01-2011 19:00:00 1.3 C 3.89 g/m*3 1.3 C 0 km/h
117 20-01-2011 20:00:00 0.9 C 3.72 g/m*3 0.9 C 0 km/h
118 20-01-2011 21:00:00 -0.16 C 3.59 g/m*3 -0.16 C 0 km/h
119 20-01-2011 22:00:00 -0.28 C 3.55 g/m*3 -0.28 C 0 km/h
120 20-01-2011 23:00:00 0.08 C 3.64 g/m*3 0.08 C 0 km/h
121 21-01-2011 00:00:00 0.34 C 3.13 g/m*3 0.34 C 0 km/h
122 21-01-2011 01:00:00 0.18 C 3.08 g/m*3 0.18 C 0 km/h
123 21-01-2011 02:00:00 0.04 C 3.11 g/m*3 0.04 C 0 km/h
124 21-01-2011 03:00:00 -0.36 C 2.8 g/m*3 -0.36 C 0 km/h
125 21-01-2011 04:00:00 -0.38 C 2.67 g/m*3 -0.38 C 0 km/h
Sensor: Nr:Datum:Temp:Abs-Feuchte:Windchill:Wind:
Aussen-T/F 126 21-01-2011 05:00:00 -0.46 C 2.75 g/m*3 -0.46 C 0 km/h
127 21-01-2011 06:00:00 -0.74 C 2.81 g/m*3 -0.74 C 0 km/h
128 21-01-2011 07:00:00 -0.6 C 2.67 g/m*3 -0.6 C 0 km/h
129 21-01-2011 08:00:00 -0.5 C 2.69 g/m*3 -0.5 C 0 km/h
130 21-01-2011 09:00:00 -0.14 C 2.75 g/m*3 -0.14 C 0 km/h
131 21-01-2011 10:00:00 0.14 C 2.74 g/m*3 0.14 C 0 km/h
132 21-01-2011 11:00:00 0.02 C 2.82 g/m*3 0.02 C 0 km/h
133 21-01-2011 12:00:00 0.32 C 2.9 g/m*3 0.32 C 0 km/h
134 21-01-2011 13:00:00 1.06 C 2.95 g/m*3 1.06 C 0 km/h
135 21-01-2011 14:00:00 1.28 C 3.01 g/m*3 1.28 C 0 km/h
136 21-01-2011 15:00:00 1.02 C 3.01 g/m*3 1.02 C 0 km/h
137 21-01-2011 16:00:00 0.18 C 3.13 g/m*3 0.18 C 0 km/h
138 21-01-2011 17:00:00 -0.22 C 3.25 g/m*3 -0.22 C 0 km/h
139 21-01-2011 18:00:00 -0.14 C 3.26 g/m*3 -0.14 C 0 km/h
140 21-01-2011 19:00:00 -0.4 C 3.25 g/m*3 -0.4 C 0 km/h
141 21-01-2011 20:00:00 -0.42 C 3.4 g/m*3 -0.42 C 0 km/h
142 21-01-2011 21:00:00 -0.78 C 3.61 g/m*3 -0.78 C 0 km/h
143 21-01-2011 22:00:00 -0.58 C 3.7 g/m*3 -0.58 C 0 km/h
144 21-01-2011 23:00:00 -0.48 C 3.8 g/m*3 -0.48 C 0 km/h
145 22-01-2011 00:00:00 -0.4 C 3.86 g/m*3 -0.4 C 0 km/h
146 22-01-2011 01:00:00 -0.4 C 3.86 g/m*3 -0.4 C 0 km/h
147 22-01-2011 02:00:00 -0.4 C 3.86 g/m*3 -0.4 C 0 km/h
148 22-01-2011 03:00:00 -0.4 C 3.86 g/m*3 -0.4 C 0 km/h
149 22-01-2011 04:00:00 -0.4 C 3.86 g/m*3 -0.4 C 0 km/h
150 22-01-2011 05:00:00 -0.4 C 3.86 g/m*3 -0.4 C 0 km/h
Sensor: Nr:Datum:Temp:Abs-Feuchte:Windchill:Wind:
Aussen-T/F 151 22-01-2011 06:00:00 -0.4 C 3.86 g/m*3 -0.4 C 0 km/h
152 22-01-2011 07:00:00 -0.4 C 3.86 g/m*3 -0.4 C 0 km/h
153 22-01-2011 08:00:00 -0.32 C 3.89 g/m*3 -0.32 C 0 km/h
154 22-01-2011 09:00:00 0 C 3.97 g/m*3 0 C 0 km/h
155 22-01-2011 10:00:00 0.92 C 3.86 g/m*3 0.92 C 0 km/h
156 22-01-2011 11:00:00 1.4 C 3.72 g/m*3 1.4 C 0 km/h
157 22-01-2011 12:00:00 1.72 C 3.69 g/m*3 1.72 C 0 km/h
158 22-01-2011 13:00:00 1.72 C 3.73 g/m*3 1.72 C 0 km/h
159 22-01-2011 14:00:00 1.84 C 3.98 g/m*3 1.84 C 0 km/h
160 22-01-2011 15:00:00 1.56 C 3.92 g/m*3 1.56 C 0 km/h
161 22-01-2011 16:00:00 1.28 C 3.86 g/m*3 1.28 C 0 km/h
162 22-01-2011 17:00:00 0.72 C 3.9 g/m*3 0.72 C 0 km/h
163 22-01-2011 18:00:00 0.56 C 3.93 g/m*3 0.56 C 0 km/h
164 22-01-2011 19:00:00 0.34 C 4.05 g/m*3 0.34 C 0 km/h
165 22-01-2011 20:00:00 0.38 C 4.01 g/m*3 0.38 C 0 km/h
166 22-01-2011 21:00:00 0.32 C 4.03 g/m*3 0.32 C 0 km/h
167 22-01-2011 22:00:00 0.25 C 4.04 g/m*3 0.25 C 0 km/h
168 22-01-2011 23:00:00 0 C 3.97 g/m*3 0 C 0 km/h
169 23-01-2011 00:00:00 0.22 C 4.03 g/m*3 0.22 C 0 km/h
170 23-01-2011 01:00:00 0.22 C 4.03 g/m*3 0.22 C 0 km/h
171 23-01-2011 02:00:00 0.28 C 4.05 g/m*3 0.28 C 0 km/h
172 23-01-2011 03:00:00 0.44 C 4.05 g/m*3 0.44 C 0 km/h
173 23-01-2011 04:00:00 0.4 C 4.05 g/m*3 0.4 C 0 km/h
174 23-01-2011 05:00:00 0.22 C 4.21 g/m*3 0.22 C 0 km/h
175 23-01-2011 06:00:00 0.42 C 4.4 g/m*3 0.42 C 0 km/h
Sensor: Nr:Datum:Temp:Abs-Feuchte:Windchill:Wind:
Aussen-T/F 176 23-01-2011 07:00:00 0.66 C 4.51 g/m*3 0.66 C 0 km/h
177 23-01-2011 08:00:00 0.94 C 4.61 g/m*3 0.94 C 0 km/h
178 23-01-2011 09:00:00 1.46 C 4.71 g/m*3 1.46 C 0 km/h
179 23-01-2011 10:00:00 1.92 C 4.55 g/m*3 1.92 C 0 km/h
180 23-01-2011 11:00:00 2.02 C 4.54 g/m*3 2.02 C 0 km/h
181 23-01-2011 12:00:00 2.16 C 4.62 g/m*3 2.16 C 0 km/h
182 23-01-2011 13:00:00 2.22 C 4.76 g/m*3 2.22 C 0 km/h
183 23-01-2011 14:00:00 2.4 C 4.88 g/m*3 2.4 C 0 km/h
184 23-01-2011 15:00:00 2.3 C 4.9 g/m*3 2.3 C 0 km/h
185 23-01-2011 16:00:00 2.2 C 4.97 g/m*3 2.2 C 0 km/h
186 23-01-2011 17:00:00 2.16 C 5.03 g/m*3 2.16 C 0 km/h
187 23-01-2011 18:00:00 2.12 C 5.06 g/m*3 2.12 C 0 km/h
188 23-01-2011 19:00:00 2.18 C 5.12 g/m*3 2.18 C 0 km/h
189 23-01-2011 20:00:00 2.22 C 5.14 g/m*3 2.22 C 0 km/h
190 23-01-2011 21:00:00 2.24 C 5.2 g/m*3 2.24 C 0 km/h
191 23-01-2011 22:00:00 2.28 C 5.21 g/m*3 2.28 C 0 km/h
192 23-01-2011 23:00:00 2.36 C 5.24 g/m*3 2.36 C 0 km/h
193 24-01-2011 00:00:00 2.42 C 5.26 g/m*3 2.42 C 0 km/h
194 24-01-2011 01:00:00 2.58 C 5.35 g/m*3 2.58 C 0 km/h
195 24-01-2011 02:00:00 2.56 C 5.37 g/m*3 2.56 C 0 km/h
196 24-01-2011 03:00:00 2.02 C 5.13 g/m*3 2.02 C 0 km/h
197 24-01-2011 04:00:00 2.12 C 5.2 g/m*3 2.12 C 0 km/h
198 24-01-2011 05:00:00 2.48 C 5.34 g/m*3 2.48 C 0 km/h
199 24-01-2011 06:00:00 2.5 C 5.35 g/m*3 2.5 C 0 km/h
200 24-01-2011 07:00:00 2.78 C 5.33 g/m*3 2.78 C 0 km/h
Sensor: Nr:Datum:Temp:Abs-Feuchte:Windchill:Wind:
Aussen-T/F 201 24-01-2011 08:00:00 2.76 C 5.07 g/m*3 2.76 C 0 km/h
202 24-01-2011 09:00:00 2.92 C 4.75 g/m*3 2.92 C 0 km/h
203 24-01-2011 10:00:00 3.12 C 4.6 g/m*3 3.12 C 0 km/h
204 24-01-2011 11:00:00 3.46 C 4.57 g/m*3 3.46 C 0 km/h
205 24-01-2011 12:00:00 4.04 C 4.6 g/m*3 4.04 C 0 km/h
206 24-01-2011 13:00:00 4.36 C 4.7 g/m*3 4.36 C 0 km/h
207 24-01-2011 14:00:00 4.2 C 4.7 g/m*3 4.2 C 0 km/h
208 24-01-2011 15:00:00 3.98 C 4.79 g/m*3 3.98 C 0 km/h
209 24-01-2011 16:00:00 3.78 C 4.96 g/m*3 3.78 C 0 km/h
210 24-01-2011 17:00:00 3.6 C 4.96 g/m*3 3.6 C 0 km/h
211 24-01-2011 18:00:00 3.44 C 5.03 g/m*3 3.44 C 0 km/h
212 24-01-2011 19:00:00 3.18 C 5.1 g/m*3 3.18 C 0 km/h
213 24-01-2011 20:00:00 3.16 C 5.24 g/m*3 3.16 C 0 km/h
214 24-01-2011 21:00:00 3.08 C 5.24 g/m*3 3.08 C 0 km/h
215 24-01-2011 22:00:00 3.08 C 5.33 g/m*3 3.08 C 0 km/h
216 24-01-2011 23:00:00 2.82 C 5.29 g/m*3 2.82 C 0 km/h
217 25-01-2011 00:00:00 2.74 C 5.19 g/m*3 2.74 C 0 km/h
218 25-01-2011 01:00:00 2.66 C 4.76 g/m*3 2.66 C 0 km/h
219 25-01-2011 02:00:00 1.88 C 4.72 g/m*3 1.88 C 0 km/h
220 25-01-2011 03:00:00 1.98 C 4.66 g/m*3 1.98 C 0 km/h
221 25-01-2011 04:00:00 2.64 C 4.43 g/m*3 2.64 C 0 km/h
222 25-01-2011 05:00:00 3.12 C 4.29 g/m*3 3.12 C 0 km/h
223 25-01-2011 06:00:00 3.34 C 4.19 g/m*3 3.34 C 0 km/h
224 25-01-2011 07:00:00 2.98 C 4.18 g/m*3 2.98 C 0 km/h
225 25-01-2011 08:00:00 2.52 C 4.28 g/m*3 2.52 C 0 km/h
Sensor: Nr:Datum:Temp:Abs-Feuchte:Windchill:Wind:
Aussen-T/F 226 25-01-2011 09:00:00 2.92 C 4.27 g/m*3 2.92 C 0 km/h
227 25-01-2011 10:00:00 2.92 C 4.38 g/m*3 2.92 C 0 km/h
228 25-01-2011 11:00:00 2.96 C 4.58 g/m*3 2.96 C 0 km/h
229 25-01-2011 12:00:00 3.38 C 4.75 g/m*3 3.38 C 0 km/h
230 25-01-2011 13:00:00 3.94 C 4.67 g/m*3 3.94 C 0 km/h
231 25-01-2011 14:00:00 3.98 C 4.72 g/m*3 3.98 C 0 km/h
232 25-01-2011 15:00:00 2.3 C 4.72 g/m*3 2.3 C 0 km/h
233 25-01-2011 16:00:00 2.52 C 4.88 g/m*3 2.52 C 0 km/h
234 25-01-2011 17:00:00 2.42 C 4.77 g/m*3 2.42 C 0 km/h
235 25-01-2011 18:00:00 2.36 C 4.74 g/m*3 2.36 C 0 km/h
236 25-01-2011 19:00:00 1.5 C 4.62 g/m*3 1.5 C 0 km/h
237 25-01-2011 20:00:00 0.84 C 4.46 g/m*3 0.84 C 0 km/h
238 25-01-2011 21:00:00 1.08 C 4.47 g/m*3 1.08 C 0 km/h
239 25-01-2011 22:00:00 1.84 C 4.35 g/m*3 1.84 C 0 km/h
240 25-01-2011 23:00:00 1.14 C 4.32 g/m*3 1.14 C 0 km/h
241 26-01-2011 00:00:00 0.64 C 4.31 g/m*3 0.64 C 0 km/h
242 26-01-2011 01:00:00 -0.58 C 4.07 g/m*3 -0.58 C 0 km/h
243 26-01-2011 02:00:00 -0.62 C 4.13 g/m*3 -0.62 C 0 km/h
244 26-01-2011 03:00:00 -0.52 C 4.21 g/m*3 -0.52 C 0 km/h
245 26-01-2011 04:00:00 -0.46 C 4.24 g/m*3 -0.46 C 0 km/h
246 26-01-2011 05:00:00 -0.2 C 4.35 g/m*3 -0.2 C 0 km/h
247 26-01-2011 06:00:00 -0.16 C 4.36 g/m*3 -0.16 C 0 km/h
248 26-01-2011 07:00:00 -0.22 C 4.34 g/m*3 -0.22 C 0 km/h
249 26-01-2011 08:00:00 0.04 C 4.43 g/m*3 0.04 C 0 km/h
250 26-01-2011 09:00:00 0.66 C 4.65 g/m*3 0.66 C 0 km/h
Sensor: Nr:Datum:Temp:Abs-Feuchte:Windchill:Wind:
Aussen-T/F 251 26-01-2011 10:00:00 1.6 C 4.81 g/m*3 1.6 C 0 km/h
252 26-01-2011 11:00:00 2.48 C 4.55 g/m*3 2.48 C 0 km/h
253 26-01-2011 12:00:00 3.56 C 4.1 g/m*3 3.56 C 0 km/h
254 26-01-2011 13:00:00 3.24 C 4 g/m*3 3.24 C 0 km/h
255 26-01-2011 14:00:00 3.34 C 3.91 g/m*3 3.34 C 0 km/h
256 26-01-2011 15:00:00 3.32 C 3.84 g/m*3 3.32 C 0 km/h
257 26-01-2011 16:00:00 2.24 C 4.04 g/m*3 2.24 C 0 km/h
258 26-01-2011 17:00:00 0.76 C 4.28 g/m*3 0.76 C 0 km/h
259 26-01-2011 18:00:00 0.64 C 4.29 g/m*3 0.64 C 0 km/h
260 26-01-2011 19:00:00 0.44 C 4.24 g/m*3 0.44 C 0 km/h
261 26-01-2011 20:00:00 0.5 C 4.31 g/m*3 0.5 C 0 km/h
262 26-01-2011 21:00:00 0.52 C 4.26 g/m*3 0.52 C 0 km/h
263 26-01-2011 22:00:00 -0.16 C 4.01 g/m*3 -0.16 C 0 km/h
264 26-01-2011 23:00:00 -0.88 C 3.86 g/m*3 -0.88 C 0 km/h
265 27-01-2011 00:00:00 -1.24 C 3.81 g/m*3 -1.24 C 0 km/h
266 27-01-2011 01:00:00 -1.76 C 3.69 g/m*3 -1.76 C 0 km/h
267 27-01-2011 02:00:00 -2.52 C 3.5 g/m*3 -2.52 C 0 km/h
268 27-01-2011 03:00:00 -3.36 C 3.32 g/m*3 -3.36 C 0 km/h
269 27-01-2011 04:00:00 -2.2 C 3.68 g/m*3 -2.2 C 0 km/h
270 27-01-2011 05:00:00 -1.56 C 3.9 g/m*3 -1.56 C 0 km/h
271 27-01-2011 06:00:00 -1.38 C 3.96 g/m*3 -1.38 C 0 km/h
272 27-01-2011 07:00:00 -1.32 C 3.98 g/m*3 -1.32 C 0 km/h
273 27-01-2011 08:00:00 -1.18 C 4.04 g/m*3 -1.18 C 0 km/h
274 27-01-2011 09:00:00 -0.24 C 4.33 g/m*3 -0.24 C 0 km/h
275 27-01-2011 10:00:00 0.86 C 4.29 g/m*3 0.86 C 0 km/h
Sensor: Nr:Datum:Temp:Abs-Feuchte:Windchill:Wind:
Aussen-T/F 276 27-01-2011 11:00:00 1.86 C 3.63 g/m*3 1.86 C 0 km/h
277 27-01-2011 12:00:00 2.44 C 3.33 g/m*3 2.44 C 0 km/h
278 27-01-2011 13:00:00 2.64 C 3.1 g/m*3 2.64 C 0 km/h
279 27-01-2011 14:00:00 2.4 C 2.95 g/m*3 2.4 C 0 km/h
280 27-01-2011 15:00:00 1.88 C 2.81 g/m*3 1.88 C 0 km/h
281 27-01-2011 16:00:00 1.18 C 2.74 g/m*3 1.18 C 0 km/h
282 27-01-2011 17:00:00 0.26 C 2.75 g/m*3 0.26 C 0 km/h
283 27-01-2011 18:00:00 0 C 2.77 g/m*3 0 C 0 km/h
284 27-01-2011 19:00:00 -0.16 C 2.82 g/m*3 -0.16 C 0 km/h
285 27-01-2011 20:00:00 -0.34 C 2.86 g/m*3 -0.34 C 0 km/h
286 27-01-2011 21:00:00 -0.92 C 2.84 g/m*3 -0.92 C 0 km/h
287 27-01-2011 22:00:00 -1.2 C 2.84 g/m*3 -1.2 C 0 km/h
288 27-01-2011 23:00:00 -1 C 2.78 g/m*3 -1 C 0 km/h
289 28-01-2011 00:00:00 -1.34 C 2.76 g/m*3 -1.34 C 0 km/h
290 28-01-2011 01:00:00 -1.24 C 2.67 g/m*3 -1.24 C 0 km/h
291 28-01-2011 02:00:00 -1.42 C 2.69 g/m*3 -1.42 C 0 km/h
292 28-01-2011 03:00:00 -1.18 C 2.79 g/m*3 -1.18 C 0 km/h
293 28-01-2011 04:00:00 -1.04 C 2.82 g/m*3 -1.04 C 0 km/h
294 28-01-2011 05:00:00 -0.98 C 2.83 g/m*3 -0.98 C 0 km/h
295 28-01-2011 06:00:00 -0.98 C 2.77 g/m*3 -0.98 C 0 km/h
296 28-01-2011 07:00:00 -1.06 C 2.79 g/m*3 -1.06 C 0 km/h
297 28-01-2011 08:00:00 -2.1 C 2.72 g/m*3 -2.1 C 0 km/h
298 28-01-2011 09:00:00 -1.4 C 2.8 g/m*3 -1.4 C 0 km/h
299 28-01-2011 10:00:00 -0.6 C 2.69 g/m*3 -0.6 C 0 km/h
300 28-01-2011 11:00:00 0.14 C 2.7 g/m*3 0.14 C 0 km/h
Sensor: Nr:Datum:Temp:Abs-Feuchte:Windchill:Wind:
Aussen-T/F 301 28-01-2011 12:00:00 0.72 C 2.7 g/m*3 0.72 C 0 km/h
302 28-01-2011 13:00:00 0.96 C 2.72 g/m*3 0.96 C 0 km/h
303 28-01-2011 14:00:00 1.22 C 2.75 g/m*3 1.22 C 0 km/h
304 28-01-2011 15:00:00 1.26 C 2.8 g/m*3 1.26 C 0 km/h
305 28-01-2011 16:00:00 0.44 C 2.86 g/m*3 0.44 C 0 km/h
306 28-01-2011 17:00:00 -1.38 C 2.96 g/m*3 -1.38 C 0 km/h
307 28-01-2011 18:00:00 -2.44 C 3.09 g/m*3 -2.44 C 0 km/h
308 28-01-2011 19:00:00 -2.68 C 3.08 g/m*3 -2.68 C 0 km/h
309 28-01-2011 20:00:00 -3.52 C 3.01 g/m*3 -3.52 C 0 km/h
310 28-01-2011 21:00:00 -3.84 C 3.02 g/m*3 -3.84 C 0 km/h
311 28-01-2011 22:00:00 -4.18 C 3 g/m*3 -4.18 C 0 km/h
312 28-01-2011 23:00:00 -3.86 C 3.07 g/m*3 -3.86 C 0 km/h
313 29-01-2011 00:00:00 -4.68 C 2.87 g/m*3 -4.68 C 0 km/h
314 29-01-2011 01:00:00 -5.04 C 2.8 g/m*3 -5.04 C 0 km/h
315 29-01-2011 02:00:00 -5.52 C 2.71 g/m*3 -5.52 C 0 km/h
316 29-01-2011 03:00:00 -5.52 C 2.74 g/m*3 -5.52 C 0 km/h
317 29-01-2011 04:00:00 -5.48 C 2.74 g/m*3 -5.48 C 0 km/h
318 29-01-2011 05:00:00 -5.88 C 2.65 g/m*3 -5.88 C 0 km/h
319 29-01-2011 06:00:00 -6.52 C 2.5 g/m*3 -6.52 C 0 km/h
320 29-01-2011 07:00:00 -6.5 C 2.5 g/m*3 -6.5 C 0 km/h
321 29-01-2011 08:00:00 -6.28 C 2.55 g/m*3 -6.28 C 0 km/h
322 29-01-2011 09:00:00 -6.44 C 2.5 g/m*3 -6.44 C 0 km/h
323 29-01-2011 10:00:00 -5.78 C 2.62 g/m*3 -5.78 C 0 km/h
324 29-01-2011 11:00:00 -4.86 C 2.82 g/m*3 -4.86 C 0 km/h
325 29-01-2011 12:00:00 -4 C 2.99 g/m*3 -4 C 0 km/h
Sensor: Nr:Datum:Temp:Abs-Feuchte:Windchill:Wind:
Aussen-T/F 326 29-01-2011 13:00:00 -3.26 C 3.03 g/m*3 -3.26 C 0 km/h
327 29-01-2011 14:00:00 -2.42 C 3.09 g/m*3 -2.42 C 0 km/h
328 29-01-2011 15:00:00 -1.6 C 3.16 g/m*3 -1.6 C 0 km/h
329 29-01-2011 16:00:00 -2.3 C 2.9 g/m*3 -2.3 C 0 km/h
330 29-01-2011 17:00:00 -3.32 C 2.6 g/m*3 -3.32 C 0 km/h
331 29-01-2011 18:00:00 -4.22 C 2.51 g/m*3 -4.22 C 0 km/h
332 29-01-2011 19:00:00 -4.52 C 2.57 g/m*3 -4.52 C 0 km/h
333 29-01-2011 20:00:00 -5.08 C 2.55 g/m*3 -5.08 C 0 km/h
334 29-01-2011 21:00:00 -5.96 C 2.45 g/m*3 -5.96 C 0 km/h
335 29-01-2011 22:00:00 -6.2 C 2.43 g/m*3 -6.2 C 0 km/h
336 29-01-2011 23:00:00 -6.22 C 2.46 g/m*3 -6.22 C 0 km/h
337 30-01-2011 00:00:00 -6.72 C 2.39 g/m*3 -6.72 C 0 km/h
338 30-01-2011 01:00:00 -7.12 C 2.32 g/m*3 -7.12 C 0 km/h
339 30-01-2011 02:00:00 -7.7 C 2.18 g/m*3 -7.7 C 0 km/h
340 30-01-2011 03:00:00 -7.74 C 2.21 g/m*3 -7.74 C 0 km/h
341 30-01-2011 04:00:00 -7.78 C 2.21 g/m*3 -7.78 C 0 km/h
342 30-01-2011 05:00:00 -8.24 C 2.14 g/m*3 -8.24 C 0 km/h
343 30-01-2011 06:00:00 -8.72 C 2.06 g/m*3 -8.72 C 0 km/h
344 30-01-2011 07:00:00 -7.8 C 2.23 g/m*3 -7.8 C 0 km/h
345 30-01-2011 08:00:00 -8.86 C 2.01 g/m*3 -8.86 C 0 km/h
346 30-01-2011 09:00:00 -8.06 C 2.13 g/m*3 -8.06 C 0 km/h
347 30-01-2011 10:00:00 -6.54 C 2.43 g/m*3 -6.54 C 0 km/h
348 30-01-2011 11:00:00 -5.94 C 2.53 g/m*3 -5.94 C 0 km/h
349 30-01-2011 12:00:00 -5.36 C 2.68 g/m*3 -5.36 C 0 km/h
350 30-01-2011 13:00:00 -4.42 C 2.85 g/m*3 -4.42 C 0 km/h
Sensor: Nr:Datum:Temp:Abs-Feuchte:Windchill:Wind:
Aussen-T/F 351 30-01-2011 14:00:00 -3.38 C 3.01 g/m*3 -3.38 C 0 km/h
352 30-01-2011 15:00:00 -2.32 C 3.06 g/m*3 -2.32 C 0 km/h
353 30-01-2011 16:00:00 -2.98 C 2.95 g/m*3 -2.98 C 0 km/h
354 30-01-2011 17:00:00 -3.96 C 2.9 g/m*3 -3.96 C 0 km/h
355 30-01-2011 18:00:00 -4.44 C 2.83 g/m*3 -4.44 C 0 km/h
356 30-01-2011 19:00:00 -5.12 C 2.74 g/m*3 -5.12 C 0 km/h
357 30-01-2011 20:00:00 -5.16 C 2.76 g/m*3 -5.16 C 0 km/h
358 30-01-2011 21:00:00 -5.86 C 2.63 g/m*3 -5.86 C 0 km/h
359 30-01-2011 22:00:00 -7.14 C 2.38 g/m*3 -7.14 C 0 km/h
360 30-01-2011 23:00:00 -7.66 C 2.26 g/m*3 -7.66 C 0 km/h
361 31-01-2011 00:00:00 -7.5 C 2.29 g/m*3 -7.5 C 0 km/h
362 31-01-2011 01:00:00 -8.24 C 2.14 g/m*3 -8.24 C 0 km/h
363 31-01-2011 02:00:00 -8.58 C 2.05 g/m*3 -8.58 C 0 km/h
364 31-01-2011 03:00:00 -8.18 C 2.14 g/m*3 -8.18 C 0 km/h
365 31-01-2011 04:00:00 -9.08 C 1.97 g/m*3 -9.08 C 0 km/h
366 31-01-2011 05:00:00 -8.26 C 2.12 g/m*3 -8.26 C 0 km/h
367 31-01-2011 06:00:00 -7.14 C 2.37 g/m*3 -7.14 C 0 km/h
368 31-01-2011 07:00:00 -7.1 C 2.4 g/m*3 -7.1 C 0 km/h
369 31-01-2011 08:00:00 -6.98 C 2.44 g/m*3 -6.98 C 0 km/h
370 31-01-2011 09:00:00 -6.72 C 2.49 g/m*3 -6.72 C 0 km/h
371 31-01-2011 10:00:00 -5.96 C 2.62 g/m*3 -5.96 C 0 km/h
372 31-01-2011 11:00:00 -5.32 C 2.73 g/m*3 -5.32 C 0 km/h
373 31-01-2011 12:00:00 -4.68 C 2.84 g/m*3 -4.68 C 0 km/h
374 31-01-2011 13:00:00 -4.06 C 2.9 g/m*3 -4.06 C 0 km/h
375 31-01-2011 14:00:00 -3.72 C 2.87 g/m*3 -3.72 C 0 km/h
Sensor: Nr:Datum:Temp:Abs-Feuchte:Windchill:Wind:
Aussen-T/F 376 31-01-2011 15:00:00 -3.6 C 2.89 g/m*3 -3.6 C 0 km/h
377 31-01-2011 16:00:00 -3.98 C 2.86 g/m*3 -3.98 C 0 km/h
378 31-01-2011 17:00:00 -4.12 C 2.92 g/m*3 -4.12 C 0 km/h
379 31-01-2011 18:00:00 -3.9 C 3.01 g/m*3 -3.9 C 0 km/h
380 31-01-2011 19:00:00 -3.7 C 3.05 g/m*3 -3.7 C 0 km/h
381 31-01-2011 20:00:00 -3.96 C 2.94 g/m*3 -3.96 C 0 km/h
382 31-01-2011 21:00:00 -4.14 C 2.9 g/m*3 -4.14 C 0 km/h
383 31-01-2011 22:00:00 -4.32 C 2.86 g/m*3 -4.32 C 0 km/h
384 31-01-2011 23:00:00 -4.48 C 2.83 g/m*3 -4.48 C 0 km/h
385 01-02-2011 00:00:00 -4.44 C 2.84 g/m*3 -4.44 C 0 km/h
386 01-02-2011 01:00:00 -4.52 C 2.81 g/m*3 -4.52 C 0 km/h
387 01-02-2011 02:00:00 -4.74 C 2.71 g/m*3 -4.74 C 0 km/h
388 01-02-2011 03:00:00 -4.78 C 2.64 g/m*3 -4.78 C 0 km/h
389 01-02-2011 04:00:00 -4.9 C 2.61 g/m*3 -4.9 C 0 km/h
390 01-02-2011 05:00:00 -5.1 C 2.53 g/m*3 -5.1 C 0 km/h
391 01-02-2011 06:00:00 -5.2 C 2.51 g/m*3 -5.2 C 0 km/h
392 01-02-2011 07:00:00 -5.3 C 2.49 g/m*3 -5.3 C 0 km/h
393 01-02-2011 08:00:00 -5.2 C 2.52 g/m*3 -5.2 C 0 km/h
394 01-02-2011 09:00:00 -4.84 C 2.56 g/m*3 -4.84 C 0 km/h
395 01-02-2011 10:00:00 -4.5 C 2.56 g/m*3 -4.5 C 0 km/h
396 01-02-2011 11:00:00 -3.98 C 2.56 g/m*3 -3.98 C 0 km/h
397 01-02-2011 12:00:00 -3 C 2.62 g/m*3 -3 C 0 km/h
398 01-02-2011 13:00:00 -2.5 C 2.69 g/m*3 -2.5 C 0 km/h
399 01-02-2011 14:00:00 -2.4 C 2.74 g/m*3 -2.4 C 0 km/h
400 01-02-2011 15:00:00 -2.66 C 2.7 g/m*3 -2.66 C 0 km/h
Sensor: Nr:Datum:Temp:Abs-Feuchte:Windchill:Wind:
Aussen-T/F 401 01-02-2011 16:00:00 -3.62 C 2.62 g/m*3 -3.62 C 0 km/h
402 01-02-2011 17:00:00 -4.1 C 2.68 g/m*3 -4.1 C 0 km/h
403 01-02-2011 18:00:00 -3.6 C 2.77 g/m*3 -3.6 C 0 km/h
404 01-02-2011 19:00:00 -3.38 C 2.75 g/m*3 -3.38 C 0 km/h
405 01-02-2011 20:00:00 -3.3 C 2.76 g/m*3 -3.3 C 0 km/h
406 01-02-2011 21:00:00 -3.56 C 2.63 g/m*3 -3.56 C 0 km/h
407 01-02-2011 22:00:00 -3.6 C 2.61 g/m*3 -3.6 C 0 km/h
408 01-02-2011 23:00:00 -3.72 C 2.89 g/m*3 -3.72 C 0 km/h
409 02-02-2011 00:00:00 -3.84 C 3.02 g/m*3 -3.84 C 0 km/h
410 02-02-2011 01:00:00 -3.66 C 3.05 g/m*3 -3.66 C 0 km/h
411 02-02-2011 02:00:00 -3.38 C 3.02 g/m*3 -3.38 C 0 km/h
412 02-02-2011 03:00:00 -3.28 C 3.04 g/m*3 -3.28 C 0 km/h
413 02-02-2011 04:00:00 -3.12 C 3.09 g/m*3 -3.12 C 0 km/h
414 02-02-2011 05:00:00 -2.98 C 3.15 g/m*3 -2.98 C 0 km/h
415 02-02-2011 06:00:00 -2.84 C 3.18 g/m*3 -2.84 C 0 km/h
416 02-02-2011 07:00:00 -2.68 C 3.21 g/m*3 -2.68 C 0 km/h
417 02-02-2011 08:00:00 -2.28 C 3.3 g/m*3 -2.28 C 0 km/h
418 02-02-2011 09:00:00 -1.54 C 3.33 g/m*3 -1.54 C 0 km/h
419 02-02-2011 10:00:00 -0.94 C 3.33 g/m*3 -0.94 C 0 km/h
420 02-02-2011 11:00:00 -0.46 C 3.38 g/m*3 -0.46 C 0 km/h
421 02-02-2011 12:00:00 1.26 C 3.51 g/m*3 1.26 C 0 km/h
422 02-02-2011 13:00:00 1.94 C 3.65 g/m*3 1.94 C 0 km/h
423 02-02-2011 14:00:00 1.92 C 3.79 g/m*3 1.92 C 0 km/h
424 02-02-2011 15:00:00 1.42 C 3.79 g/m*3 1.42 C 0 km/h
425 02-02-2011 16:00:00 1.16 C 3.8 g/m*3 1.16 C 0 km/h
Sensor: Nr:Datum:Temp:Abs-Feuchte:Windchill:Wind:
Aussen-T/F 426 02-02-2011 17:00:00 0.64 C 3.84 g/m*3 0.64 C 0 km/h
427 02-02-2011 18:00:00 0.52 C 3.81 g/m*3 0.52 C 0 km/h
428 02-02-2011 19:00:00 0.32 C 3.81 g/m*3 0.32 C 0 km/h
429 02-02-2011 20:00:00 0.28 C 3.81 g/m*3 0.28 C 0 km/h
430 02-02-2011 21:00:00 0.26 C 3.8 g/m*3 0.26 C 0 km/h
431 02-02-2011 22:00:00 0.2 C 3.78 g/m*3 0.2 C 0 km/h
432 02-02-2011 23:00:00 0.32 C 3.81 g/m*3 0.32 C 0 km/h
433 03-02-2011 00:00:00 0.34 C 3.78 g/m*3 0.34 C 0 km/h
434 03-02-2011 01:00:00 0.48 C 3.82 g/m*3 0.48 C 0 km/h
435 03-02-2011 02:00:00 0.64 C 3.99 g/m*3 0.64 C 0 km/h
436 03-02-2011 03:00:00 0.44 C 4.2 g/m*3 0.44 C 0 km/h
437 03-02-2011 04:00:00 0.6 C 4.42 g/m*3 0.6 C 0 km/h
438 03-02-2011 05:00:00 0.9 C 4.56 g/m*3 0.9 C 0 km/h
439 03-02-2011 06:00:00 1.16 C 4.6 g/m*3 1.16 C 0 km/h
440 03-02-2011 07:00:00 1.4 C 4.66 g/m*3 1.4 C 0 km/h
441 03-02-2011 08:00:00 1.52 C 4.68 g/m*3 1.52 C 0 km/h
442 03-02-2011 09:00:00 1.88 C 4.67 g/m*3 1.88 C 0 km/h
443 03-02-2011 10:00:00 2.3 C 4.64 g/m*3 2.3 C 0 km/h
444 03-02-2011 11:00:00 2.82 C 4.64 g/m*3 2.82 C 0 km/h
445 03-02-2011 12:00:00 3.38 C 4.66 g/m*3 3.38 C 0 km/h
446 03-02-2011 13:00:00 3.52 C 4.68 g/m*3 3.52 C 0 km/h
447 03-02-2011 14:00:00 3.64 C 4.78 g/m*3 3.64 C 0 km/h
448 03-02-2011 15:00:00 3.42 C 4.76 g/m*3 3.42 C 0 km/h
449 03-02-2011 16:00:00 3.22 C 4.71 g/m*3 3.22 C 0 km/h
450 03-02-2011 17:00:00 2.76 C 4.68 g/m*3 2.76 C 0 km/h
Sensor: Nr:Datum:Temp:Abs-Feuchte:Windchill:Wind:
Aussen-T/F 451 03-02-2011 18:00:00 2.64 C 4.57 g/m*3 2.64 C 0 km/h
452 03-02-2011 19:00:00 1.8 C 4.46 g/m*3 1.8 C 0 km/h
453 03-02-2011 20:00:00 1.62 C 4.41 g/m*3 1.62 C 0 km/h
454 03-02-2011 21:00:00 1.68 C 4.35 g/m*3 1.68 C 0 km/h
455 03-02-2011 22:00:00 2.15 C 4.34 g/m*3 2.15 C 0 km/h
456 03-02-2011 23:00:00 2.4 C 4.43 g/m*3 2.4 C 0 km/h
457 04-02-2011 00:00:00 3.02 C 4.36 g/m*3 3.02 C 0 km/h
458 04-02-2011 01:00:00 3.12 C 4.32 g/m*3 3.12 C 0 km/h
459 04-02-2011 02:00:00 2.64 C 4.42 g/m*3 2.64 C 0 km/h
460 04-02-2011 03:00:00 2.68 C 4.39 g/m*3 2.68 C 0 km/h
461 04-02-2011 04:00:00 2.86 C 4.5 g/m*3 2.86 C 0 km/h
462 04-02-2011 05:00:00 3.34 C 4.77 g/m*3 3.34 C 0 km/h
463 04-02-2011 06:00:00 4.08 C 4.92 g/m*3 4.08 C 0 km/h
464 04-02-2011 07:00:00 4.66 C 5 g/m*3 4.66 C 0 km/h
465 04-02-2011 08:00:00 5.46 C 5.11 g/m*3 5.46 C 0 km/h
466 04-02-2011 09:00:00 6.12 C 5.05 g/m*3 6.12 C 0 km/h
467 04-02-2011 10:00:00 6.6 C 5.07 g/m*3 6.6 C 0 km/h
468 04-02-2011 11:00:00 7.26 C 5.09 g/m*3 7.26 C 0 km/h
469 04-02-2011 12:00:00 7.5 C 5.22 g/m*3 7.5 C 0 km/h
470 04-02-2011 13:00:00 7.46 C 5.3 g/m*3 7.46 C 0 km/h
471 04-02-2011 14:00:00 7.52 C 5.4 g/m*3 7.52 C 0 km/h
472 04-02-2011 15:00:00 7.82 C 5.48 g/m*3 7.82 C 0 km/h
473 04-02-2011 16:00:00 7.82 C 5.56 g/m*3 7.82 C 0 km/h
474 04-02-2011 17:00:00 7.8 C 5.6 g/m*3 7.8 C 0 km/h
475 04-02-2011 18:00:00 8.08 C 5.58 g/m*3 8.08 C 0 km/h
Sensor: Nr:Datum:Temp:Abs-Feuchte:Windchill:Wind:
Aussen-T/F 476 04-02-2011 19:00:00 8.32 C 5.65 g/m*3 8.32 C 0 km/h
477 04-02-2011 20:00:00 8.42 C 5.74 g/m*3 8.42 C 0 km/h
478 04-02-2011 21:00:00 8.44 C 5.73 g/m*3 8.44 C 0 km/h
479 04-02-2011 22:00:00 8.6 C 5.72 g/m*3 8.6 C 0 km/h
480 04-02-2011 23:00:00 8.84 C 5.72 g/m*3 8.84 C 0 km/h
481 05-02-2011 00:00:00 8.76 C 5.64 g/m*3 8.76 C 0 km/h
482 05-02-2011 01:00:00 8.56 C 5.69 g/m*3 8.56 C 0 km/h
483 05-02-2011 02:00:00 8.8 C 5.61 g/m*3 8.8 C 0 km/h
484 05-02-2011 03:00:00 9.1 C 5.45 g/m*3 9.1 C 0 km/h
485 05-02-2011 04:00:00 8.92 C 5.47 g/m*3 8.92 C 0 km/h
486 05-02-2011 05:00:00 8.72 C 5.49 g/m*3 8.72 C 0 km/h
487 05-02-2011 06:00:00 8.7 C 5.5 g/m*3 8.7 C 0 km/h
488 05-02-2011 07:00:00 8.96 C 5.5 g/m*3 8.96 C 0 km/h
489 05-02-2011 08:00:00 8.84 C 5.55 g/m*3 8.84 C 0 km/h
490 05-02-2011 09:00:00 9.2 C 5.46 g/m*3 9.2 C 0 km/h
491 05-02-2011 10:00:00 9.66 C 5.43 g/m*3 9.66 C 0 km/h
492 05-02-2011 11:00:00 10.04 C 5.37 g/m*3 10.04 C 0 km/h
493 05-02-2011 12:00:00 10.16 C 5.39 g/m*3 10.16 C 0 km/h
494 05-02-2011 13:00:00 10.22 C 5.41 g/m*3 10.22 C 0 km/h
495 05-02-2011 14:00:00 10.02 C 5.36 g/m*3 10.02 C 0 km/h
496 05-02-2011 15:00:00 9.74 C 5.36 g/m*3 9.74 C 0 km/h
497 05-02-2011 16:00:00 9.44 C 5.44 g/m*3 9.44 C 0 km/h
498 05-02-2011 17:00:00 9.16 C 5.54 g/m*3 9.16 C 0 km/h
499 05-02-2011 18:00:00 9.18 C 5.62 g/m*3 9.18 C 0 km/h
500 05-02-2011 19:00:00 9.1 C 5.61 g/m*3 9.1 C 0 km/h
Sensor: Nr:Datum:Temp:Abs-Feuchte:Windchill:Wind:
Aussen-T/F 501 05-02-2011 20:00:00 9.22 C 5.74 g/m*3 9.22 C 0 km/h
502 05-02-2011 21:00:00 9.18 C 5.8 g/m*3 9.18 C 0 km/h
503 05-02-2011 22:00:00 9.18 C 5.9 g/m*3 9.18 C 0 km/h
504 05-02-2011 23:00:00 9.34 C 5.91 g/m*3 9.34 C 0 km/h
505 06-02-2011 00:00:00 9.54 C 5.95 g/m*3 9.54 C 0 km/h
506 06-02-2011 01:00:00 9.52 C 6 g/m*3 9.52 C 0 km/h
507 06-02-2011 02:00:00 9.4 C 5.97 g/m*3 9.4 C 0 km/h
508 06-02-2011 03:00:00 9.44 C 5.88 g/m*3 9.44 C 0 km/h
509 06-02-2011 04:00:00 9.58 C 5.82 g/m*3 9.58 C 0 km/h
510 06-02-2011 05:00:00 9.5 C 5.63 g/m*3 9.5 C 0 km/h
511 06-02-2011 06:00:00 9.42 C 5.54 g/m*3 9.42 C 0 km/h
512 06-02-2011 07:00:00 9.3 C 5.43 g/m*3 9.3 C 0 km/h
513 06-02-2011 08:00:00 9.14 C 5.36 g/m*3 9.14 C 0 km/h
514 06-02-2011 09:00:00 9.22 C 5.33 g/m*3 9.22 C 0 km/h
515 06-02-2011 10:00:00 9.5 C 5.19 g/m*3 9.5 C 0 km/h
516 06-02-2011 11:00:00 9.72 C 5.11 g/m*3 9.72 C 0 km/h
517 06-02-2011 12:00:00 9.82 C 5.02 g/m*3 9.82 C 0 km/h
518 06-02-2011 13:00:00 9.86 C 4.86 g/m*3 9.86 C 0 km/h
519 06-02-2011 14:00:00 10.42 C 4.84 g/m*3 10.42 C 0 km/h
520 06-02-2011 15:00:00 9.7 C 4.72 g/m*3 9.7 C 0 km/h
521 06-02-2011 16:00:00 8.44 C 4.66 g/m*3 8.44 C 0 km/h
522 06-02-2011 17:00:00 7.5 C 4.72 g/m*3 7.5 C 0 km/h
523 06-02-2011 18:00:00 6.86 C 4.64 g/m*3 6.86 C 0 km/h
524 06-02-2011 19:00:00 6.88 C 4.61 g/m*3 6.88 C 0 km/h
525 06-02-2011 20:00:00 6.52 C 4.6 g/m*3 6.52 C 0 km/h
Sensor: Nr:Datum:Temp:Abs-Feuchte:Windchill:Wind:
Aussen-T/F 526 06-02-2011 21:00:00 6.14 C 4.63 g/m*3 6.14 C 0 km/h
527 06-02-2011 22:00:00 5.8 C 4.74 g/m*3 5.8 C 0 km/h
528 06-02-2011 23:00:00 5.66 C 4.74 g/m*3 5.66 C 0 km/h
529 07-02-2011 00:00:00 5.28 C 4.79 g/m*3 5.28 C 0 km/h
530 07-02-2011 01:00:00 5.48 C 4.7 g/m*3 5.48 C 0 km/h
531 07-02-2011 02:00:00 5.7 C 4.5 g/m*3 5.7 C 0 km/h
532 07-02-2011 03:00:00 5.56 C 4.44 g/m*3 5.56 C 0 km/h
533 07-02-2011 04:00:00 5.34 C 4.43 g/m*3 5.34 C 0 km/h
534 07-02-2011 05:00:00 5.12 C 4.37 g/m*3 5.12 C 0 km/h
535 07-02-2011 06:00:00 4.8 C 4.37 g/m*3 4.8 C 0 km/h
536 07-02-2011 07:00:00 4.48 C 4.31 g/m*3 4.48 C 0 km/h
537 07-02-2011 08:00:00 4.42 C 4.29 g/m*3 4.42 C 0 km/h
538 07-02-2011 09:00:00 3.92 C 4.29 g/m*3 3.92 C 0 km/h
539 07-02-2011 10:00:00 3.2 C 4.47 g/m*3 3.2 C 0 km/h
540 07-02-2011 11:00:00 4.52 C 4.62 g/m*3 4.52 C 0 km/h
541 07-02-2011 12:00:00 6.06 C 4.62 g/m*3 6.06 C 0 km/h
542 07-02-2011 13:00:00 7.18 C 4.78 g/m*3 7.18 C 0 km/h
543 07-02-2011 14:00:00 9.68 C 4.12 g/m*3 9.68 C 0 km/h
544 07-02-2011 15:00:00 11.94 C 2.78 g/m*3 11.94 C 0 km/h
545 07-02-2011 16:00:00 12.1 C 2.53 g/m*3 12.1 C 0 km/h
546 07-02-2011 17:00:00 8.82 C 3 g/m*3 8.82 C 0 km/h
547 07-02-2011 18:00:00 8.3 C 3.15 g/m*3 8.3 C 0 km/h
548 07-02-2011 19:00:00 7.06 C 3.38 g/m*3 7.06 C 0 km/h
549 07-02-2011 20:00:00 6.06 C 3.47 g/m*3 6.06 C 0 km/h
550 07-02-2011 21:00:00 6.06 C 3.67 g/m*3 6.06 C 0 km/h
Sensor: Nr:Datum:Temp:Abs-Feuchte:Windchill:Wind:
Aussen-T/F 551 07-02-2011 22:00:00 6.6 C 3.73 g/m*3 6.6 C 0 km/h
552 07-02-2011 23:00:00 7.86 C 3.59 g/m*3 7.86 C 0 km/h
553 08-02-2011 00:00:00 7.66 C 3.75 g/m*3 7.66 C 0 km/h
554 08-02-2011 01:00:00 7.8 C 4.34 g/m*3 7.8 C 0 km/h
555 08-02-2011 02:00:00 8.04 C 4.39 g/m*3 8.04 C 0 km/h
556 08-02-2011 03:00:00 7.96 C 4.55 g/m*3 7.96 C 0 km/h
557 08-02-2011 04:00:00 7.3 C 4.85 g/m*3 7.3 C 0 km/h
558 08-02-2011 05:00:00 7.46 C 5 g/m*3 7.46 C 0 km/h
559 08-02-2011 06:00:00 6.86 C 5.05 g/m*3 6.86 C 0 km/h
560 08-02-2011 07:00:00 6.04 C 5.37 g/m*3 6.04 C 0 km/h
561 08-02-2011 08:00:00 4.52 C 5.11 g/m*3 4.52 C 0 km/h
562 08-02-2011 09:00:00 4.2 C 5.05 g/m*3 4.2 C 0 km/h
563 08-02-2011 10:00:00 5.66 C 5.18 g/m*3 5.66 C 0 km/h
564 08-02-2011 11:00:00 7.28 C 4.96 g/m*3 7.28 C 0 km/h
565 08-02-2011 12:00:00 8.38 C 4.61 g/m*3 8.38 C 0 km/h
566 08-02-2011 13:00:00 9.5 C 4.42 g/m*3 9.5 C 0 km/h
567 08-02-2011 14:00:00 9.42 C 4.49 g/m*3 9.42 C 0 km/h
568 08-02-2011 15:00:00 9.24 C 4.4 g/m*3 9.24 C 0 km/h
569 08-02-2011 16:00:00 10.18 C 4.37 g/m*3 10.18 C 0 km/h
570 08-02-2011 17:00:00 4.78 C 4.42 g/m*3 4.78 C 0 km/h
571 08-02-2011 18:00:00 3 C 4.26 g/m*3 3 C 0 km/h
572 08-02-2011 19:00:00 1.48 C 4.16 g/m*3 1.48 C 0 km/h
573 08-02-2011 20:00:00 -0.02 C 3.97 g/m*3 -0.02 C 0 km/h
574 08-02-2011 21:00:00 -0.9 C 3.8 g/m*3 -0.9 C 0 km/h
575 08-02-2011 22:00:00 -1.78 C 3.61 g/m*3 -1.78 C 0 km/h
Sensor: Nr:Datum:Temp:Abs-Feuchte:Windchill:Wind:
Aussen-T/F 576 08-02-2011 23:00:00 -2.34 C 3.5 g/m*3 -2.34 C 0 km/h
577 09-02-2011 00:00:00 -2.74 C 3.43 g/m*3 -2.74 C 0 km/h
578 09-02-2011 01:00:00 -3.2 C 3.33 g/m*3 -3.2 C 0 km/h
579 09-02-2011 02:00:00 -3.38 C 3.31 g/m*3 -3.38 C 0 km/h
580 09-02-2011 03:00:00 -3.78 C 3.23 g/m*3 -3.78 C 0 km/h
581 09-02-2011 04:00:00 -4.04 C 3.18 g/m*3 -4.04 C 0 km/h
582 09-02-2011 05:00:00 -4.26 C 3.12 g/m*3 -4.26 C 0 km/h
583 09-02-2011 06:00:00 -4.06 C 3.17 g/m*3 -4.06 C 0 km/h
584 09-02-2011 07:00:00 -3.42 C 3.32 g/m*3 -3.42 C 0 km/h
585 09-02-2011 08:00:00 -3.2 C 3.41 g/m*3 -3.2 C 0 km/h
586 09-02-2011 09:00:00 -2.76 C 3.52 g/m*3 -2.76 C 0 km/h
587 09-02-2011 10:00:00 -2 C 3.71 g/m*3 -2 C 0 km/h
588 09-02-2011 11:00:00 -0.58 C 4.05 g/m*3 -0.58 C 0 km/h
589 09-02-2011 12:00:00 0.9 C 4.34 g/m*3 0.9 C 0 km/h
590 09-02-2011 13:00:00 2.48 C 4.5 g/m*3 2.48 C 0 km/h
591 09-02-2011 14:00:00 3.6 C 4.87 g/m*3 3.6 C 0 km/h
592 09-02-2011 15:00:00 5.22 C 4.87 g/m*3 5.22 C 0 km/h
593 09-02-2011 16:00:00 8.16 C 4.38 g/m*3 8.16 C 0 km/h
594 09-02-2011 17:00:00 3.66 C 4.41 g/m*3 3.66 C 0 km/h
595 09-02-2011 18:00:00 3.04 C 4.61 g/m*3 3.04 C 0 km/h
596 09-02-2011 19:00:00 2.4 C 4.61 g/m*3 2.4 C 0 km/h
597 09-02-2011 20:00:00 1.5 C 4.55 g/m*3 1.5 C 0 km/h
598 09-02-2011 21:00:00 0.92 C 4.51 g/m*3 0.92 C 0 km/h
599 09-02-2011 22:00:00 0.08 C 4.29 g/m*3 0.08 C 0 km/h
600 09-02-2011 23:00:00 -0.14 C 4.26 g/m*3 -0.14 C 0 km/h
Sensor: Nr:Datum:Temp:Abs-Feuchte:Windchill:Wind:
Aussen-T/F 601 10-02-2011 00:00:00 -0.28 C 4.24 g/m*3 -0.28 C 0 km/h
602 10-02-2011 01:00:00 -0.82 C 4.11 g/m*3 -0.82 C 0 km/h
603 10-02-2011 02:00:00 -1.22 C 4.01 g/m*3 -1.22 C 0 km/h
604 10-02-2011 03:00:00 -1.26 C 4 g/m*3 -1.26 C 0 km/h
605 10-02-2011 04:00:00 -0.22 C 4.34 g/m*3 -0.22 C 0 km/h
606 10-02-2011 05:00:00 0.56 C 4.63 g/m*3 0.56 C 0 km/h
607 10-02-2011 06:00:00 0.96 C 4.76 g/m*3 0.96 C 0 km/h
608 10-02-2011 07:00:00 1.1 C 4.81 g/m*3 1.1 C 0 km/h
609 10-02-2011 08:00:00 1.34 C 4.89 g/m*3 1.34 C 0 km/h
610 10-02-2011 09:00:00 1.64 C 4.88 g/m*3 1.64 C 0 km/h
611 10-02-2011 10:00:00 3.02 C 4.8 g/m*3 3.02 C 0 km/h
612 10-02-2011 11:00:00 4.78 C 4.54 g/m*3 4.78 C 0 km/h
613 10-02-2011 12:00:00 5.76 C 4.5 g/m*3 5.76 C 0 km/h
614 10-02-2011 13:00:00 6.26 C 4.46 g/m*3 6.26 C 0 km/h
615 10-02-2011 14:00:00 7.64 C 4.6 g/m*3 7.64 C 0 km/h
616 10-02-2011 15:00:00 7.72 C 4.81 g/m*3 7.72 C 0 km/h
617 10-02-2011 16:00:00 6.88 C 5.03 g/m*3 6.88 C 0 km/h
618 10-02-2011 17:00:00 6 C 5.4 g/m*3 6 C 0 km/h
619 10-02-2011 18:00:00 5.58 C 5.79 g/m*3 5.58 C 0 km/h
620 10-02-2011 19:00:00 5.72 C 5.89 g/m*3 5.72 C 0 km/h
621 10-02-2011 20:00:00 7.28 C 5.87 g/m*3 7.28 C 0 km/h
622 10-02-2011 21:00:00 8.32 C 6.03 g/m*3 8.32 C 0 km/h
623 10-02-2011 22:00:00 8.52 C 6.24 g/m*3 8.52 C 0 km/h
624 10-02-2011 23:00:00 9.34 C 6.29 g/m*3 9.34 C 0 km/h
625 11-02-2011 00:00:00 9.46 C 6.39 g/m*3 9.46 C 0 km/h
Sensor: Nr:Datum:Temp:Abs-Feuchte:Windchill:Wind:
Aussen-T/F 626 11-02-2011 01:00:00 9.44 C 6.53 g/m*3 9.44 C 0 km/h
627 11-02-2011 02:00:00 9.46 C 6.63 g/m*3 9.46 C 0 km/h
628 11-02-2011 03:00:00 9 C 6.82 g/m*3 9 C 0 km/h
629 11-02-2011 04:00:00 9.16 C 6.79 g/m*3 9.16 C 0 km/h
630 11-02-2011 05:00:00 9.3 C 6.69 g/m*3 9.3 C 0 km/h
631 11-02-2011 06:00:00 9.1 C 6.9 g/m*3 9.1 C 0 km/h
632 11-02-2011 07:00:00 9.14 C 6.94 g/m*3 9.14 C 0 km/h
633 11-02-2011 08:00:00 9.28 C 6.93 g/m*3 9.28 C 0 km/h
634 11-02-2011 09:00:00 9.92 C 6.88 g/m*3 9.92 C 0 km/h
635 11-02-2011 10:00:00 10.82 C 6.95 g/m*3 10.82 C 0 km/h
636 11-02-2011 11:00:00 11.28 C 6.99 g/m*3 11.28 C 0 km/h
637 11-02-2011 12:00:00 12.42 C 7.02 g/m*3 12.42 C 0 km/h
638 11-02-2011 13:00:00 11.28 C 7.27 g/m*3 11.28 C 0 km/h
639 11-02-2011 14:00:00 10.88 C 7.49 g/m*3 10.88 C 0 km/h
640 11-02-2011 15:00:00 11.12 C 7.52 g/m*3 11.12 C 0 km/h
641 11-02-2011 16:00:00 11.44 C 7.47 g/m*3 11.44 C 0 km/h
642 11-02-2011 17:00:00 11.24 C 7.36 g/m*3 11.24 C 0 km/h
643 11-02-2011 18:00:00 10.38 C 7.62 g/m*3 10.38 C 0 km/h
644 11-02-2011 19:00:00 10.52 C 7.57 g/m*3 10.52 C 0 km/h
645 11-02-2011 20:00:00 10.58 C 7.43 g/m*3 10.58 C 0 km/h
646 11-02-2011 21:00:00 10.72 C 7.28 g/m*3 10.72 C 0 km/h
647 11-02-2011 22:00:00 10.06 C 7.13 g/m*3 10.06 C 0 km/h
648 11-02-2011 23:00:00 9.74 C 7.23 g/m*3 9.74 C 0 km/h
649 12-02-2011 00:00:00 9.96 C 7.29 g/m*3 9.96 C 0 km/h
650 12-02-2011 01:00:00 9.02 C 7.5 g/m*3 9.02 C 0 km/h
Sensor: Nr:Datum:Temp:Abs-Feuchte:Windchill:Wind:
Aussen-T/F 651 12-02-2011 02:00:00 8.6 C 7.53 g/m*3 8.6 C 0 km/h
652 12-02-2011 03:00:00 8.28 C 7.46 g/m*3 8.28 C 0 km/h
653 12-02-2011 04:00:00 7.66 C 7.26 g/m*3 7.66 C 0 km/h
654 12-02-2011 05:00:00 7.6 C 7.27 g/m*3 7.6 C 0 km/h
655 12-02-2011 06:00:00 6.82 C 6.83 g/m*3 6.82 C 0 km/h
656 12-02-2011 07:00:00 5.72 C 5.77 g/m*3 5.72 C 0 km/h
657 12-02-2011 08:00:00 5.52 C 5.64 g/m*3 5.52 C 0 km/h
658 12-02-2011 09:00:00 6.1 C 5.65 g/m*3 6.1 C 0 km/h
659 12-02-2011 10:00:00 7.32 C 5.71 g/m*3 7.32 C 0 km/h
660 12-02-2011 11:00:00 8.3 C 5.83 g/m*3 8.3 C 0 km/h
661 12-02-2011 12:00:00 9.1 C 5.91 g/m*3 9.1 C 0 km/h
662 12-02-2011 13:00:00 7.96 C 6 g/m*3 7.96 C 0 km/h
663 12-02-2011 14:00:00 8.04 C 6.08 g/m*3 8.04 C 0 km/h
664 12-02-2011 15:00:00 8.56 C 5.93 g/m*3 8.56 C 0 km/h
665 12-02-2011 16:00:00 7.48 C 5.84 g/m*3 7.48 C 0 km/h
666 12-02-2011 17:00:00 6.3 C 5.79 g/m*3 6.3 C 0 km/h
667 12-02-2011 18:00:00 4.26 C 5.47 g/m*3 4.26 C 0 km/h
668 12-02-2011 19:00:00 3.64 C 5.47 g/m*3 3.64 C 0 km/h
669 12-02-2011 20:00:00 4.42 C 5.86 g/m*3 4.42 C 0 km/h
670 12-02-2011 21:00:00 4.68 C 5.99 g/m*3 4.68 C 0 km/h
671 12-02-2011 22:00:00 4.72 C 6.03 g/m*3 4.72 C 0 km/h
672 12-02-2011 23:00:00 5.06 C 6.15 g/m*3 5.06 C 0 km/h
673 13-02-2011 00:00:00 5.24 C 6.17 g/m*3 5.24 C 0 km/h
674 13-02-2011 01:00:00 5.06 C 6.11 g/m*3 5.06 C 0 km/h
675 13-02-2011 02:00:00 4.74 C 6.08 g/m*3 4.74 C 0 km/h
Sensor: Nr:Datum:Temp:Abs-Feuchte:Windchill:Wind:
Aussen-T/F 676 13-02-2011 03:00:00 4.92 C 6.15 g/m*3 4.92 C 0 km/h
677 13-02-2011 04:00:00 4.92 C 6.18 g/m*3 4.92 C 0 km/h
678 13-02-2011 05:00:00 4.24 C 5.94 g/m*3 4.24 C 0 km/h
679 13-02-2011 06:00:00 3.88 C 5.8 g/m*3 3.88 C 0 km/h
680 13-02-2011 07:00:00 2.66 C 5.36 g/m*3 2.66 C 0 km/h
681 13-02-2011 08:00:00 1.74 C 5.06 g/m*3 1.74 C 0 km/h
682 13-02-2011 09:00:00 2.76 C 5.41 g/m*3 2.76 C 0 km/h
683 13-02-2011 10:00:00 4.74 C 5.97 g/m*3 4.74 C 0 km/h
684 13-02-2011 11:00:00 6.14 C 5.79 g/m*3 6.14 C 0 km/h
685 13-02-2011 12:00:00 7.56 C 5.64 g/m*3 7.56 C 0 km/h
686 13-02-2011 13:00:00 7.56 C 5.13 g/m*3 7.56 C 0 km/h
687 13-02-2011 14:00:00 8.78 C 5.11 g/m*3 8.78 C 0 km/h
688 13-02-2011 15:00:00 8.9 C 4.92 g/m*3 8.9 C 0 km/h
689 13-02-2011 16:00:00 8.16 C 5.03 g/m*3 8.16 C 0 km/h
690 13-02-2011 17:00:00 5.96 C 5.47 g/m*3 5.96 C 0 km/h
691 13-02-2011 18:00:00 4.48 C 5.44 g/m*3 4.48 C 0 km/h
692 13-02-2011 19:00:00 4.36 C 5.55 g/m*3 4.36 C 0 km/h
693 13-02-2011 20:00:00 4.28 C 5.54 g/m*3 4.28 C 0 km/h
694 13-02-2011 21:00:00 4.22 C 5.55 g/m*3 4.22 C 0 km/h
695 13-02-2011 22:00:00 4.06 C 5.52 g/m*3 4.06 C 0 km/h
696 13-02-2011 23:00:00 3.86 C 5.53 g/m*3 3.86 C 0 km/h
697 14-02-2011 00:00:00 3.36 C 5.4 g/m*3 3.36 C 0 km/h
698 14-02-2011 01:00:00 2.96 C 5.3 g/m*3 2.96 C 0 km/h
699 14-02-2011 02:00:00 2.62 C 5.22 g/m*3 2.62 C 0 km/h
700 14-02-2011 03:00:00 2.26 C 5.15 g/m*3 2.26 C 0 km/h
Sensor: Nr:Datum:Temp:Abs-Feuchte:Windchill:Wind:
Aussen-T/F 701 14-02-2011 04:00:00 1.74 C 4.97 g/m*3 1.74 C 0 km/h
702 14-02-2011 05:00:00 1.86 C 5.04 g/m*3 1.86 C 0 km/h
703 14-02-2011 06:00:00 1.6 C 4.97 g/m*3 1.6 C 0 km/h
704 14-02-2011 07:00:00 0.96 C 4.76 g/m*3 0.96 C 0 km/h
705 14-02-2011 08:00:00 1.28 C 4.88 g/m*3 1.28 C 0 km/h
706 14-02-2011 09:00:00 3.22 C 5.55 g/m*3 3.22 C 0 km/h
707 14-02-2011 10:00:00 4.8 C 5.93 g/m*3 4.8 C 0 km/h
708 14-02-2011 11:00:00 6.92 C 5.81 g/m*3 6.92 C 0 km/h
709 14-02-2011 12:00:00 8.52 C 5.47 g/m*3 8.52 C 0 km/h
710 14-02-2011 13:00:00 10.08 C 5.46 g/m*3 10.08 C 0 km/h
711 14-02-2011 14:00:00 9.92 C 5.35 g/m*3 9.92 C 0 km/h
712 14-02-2011 15:00:00 10.34 C 5.51 g/m*3 10.34 C 0 km/h
713 14-02-2011 16:00:00 8.8 C 5.59 g/m*3 8.8 C 0 km/h
714 14-02-2011 17:00:00 6.46 C 5.83 g/m*3 6.46 C 0 km/h
715 14-02-2011 18:00:00 6.32 C 6.12 g/m*3 6.32 C 0 km/h
716 14-02-2011 19:00:00 6.48 C 6.23 g/m*3 6.48 C 0 km/h
717 14-02-2011 20:00:00 6.36 C 6.39 g/m*3 6.36 C 0 km/h
718 14-02-2011 21:00:00 6.26 C 6.35 g/m*3 6.26 C 0 km/h
719 14-02-2011 22:00:00 6.12 C 6.25 g/m*3 6.12 C 0 km/h
720 14-02-2011 23:00:00 5.92 C 6.21 g/m*3 5.92 C 0 km/h
721 15-02-2011 00:00:00 5.92 C 6.3 g/m*3 5.92 C 0 km/h
722 15-02-2011 01:00:00 5.88 C 6.39 g/m*3 5.88 C 0 km/h
723 15-02-2011 02:00:00 5.56 C 6.35 g/m*3 5.56 C 0 km/h
724 15-02-2011 03:00:00 4.62 C 5.96 g/m*3 4.62 C 0 km/h
725 15-02-2011 04:00:00 4.5 C 5.93 g/m*3 4.5 C 0 km/h
Sensor: Nr:Datum:Temp:Abs-Feuchte:Windchill:Wind:
Aussen-T/F 726 15-02-2011 05:00:00 4.28 C 5.86 g/m*3 4.28 C 0 km/h
727 15-02-2011 06:00:00 4.24 C 5.88 g/m*3 4.24 C 0 km/h
728 15-02-2011 07:00:00 3.74 C 5.7 g/m*3 3.74 C 0 km/h
729 15-02-2011 08:00:00 3.84 C 5.75 g/m*3 3.84 C 0 km/h
730 15-02-2011 09:00:00 4.6 C 5.97 g/m*3 4.6 C 0 km/h
731 15-02-2011 10:00:00 5.66 C 6.05 g/m*3 5.66 C 0 km/h
732 15-02-2011 11:00:00 6.98 C 5.74 g/m*3 6.98 C 0 km/h
733 15-02-2011 12:00:00 7.64 C 5.49 g/m*3 7.64 C 0 km/h
734 15-02-2011 13:00:00 7.38 C 5.4 g/m*3 7.38 C 0 km/h
735 15-02-2011 14:00:00 6.72 C 5.39 g/m*3 6.72 C 0 km/h
736 15-02-2011 15:00:00 6.32 C 5.37 g/m*3 6.32 C 0 km/h
737 15-02-2011 16:00:00 5.48 C 5.4 g/m*3 5.48 C 0 km/h
738 15-02-2011 17:00:00 4.98 C 5.29 g/m*3 4.98 C 0 km/h
739 15-02-2011 18:00:00 4.62 C 5.26 g/m*3 4.62 C 0 km/h
740 15-02-2011 19:00:00 4.18 C 5.19 g/m*3 4.18 C 0 km/h
741 15-02-2011 20:00:00 3.42 C 5.25 g/m*3 3.42 C 0 km/h
742 15-02-2011 21:00:00 4.24 C 5.57 g/m*3 4.24 C 0 km/h
743 15-02-2011 22:00:00 4.25 C 5.46 g/m*3 4.25 C 0 km/h
744 15-02-2011 23:00:00 4.36 C 5.65 g/m*3 4.36 C 0 km/h
745 16-02-2011 00:00:00 4.78 C 5.69 g/m*3 4.78 C 0 km/h
746 16-02-2011 01:00:00 3.52 C 5.33 g/m*3 3.52 C 0 km/h
747 16-02-2011 02:00:00 4.22 C 5.74 g/m*3 4.22 C 0 km/h
748 16-02-2011 03:00:00 4.42 C 5.82 g/m*3 4.42 C 0 km/h
749 16-02-2011 04:00:00 3.78 C 5.51 g/m*3 3.78 C 0 km/h
750 16-02-2011 05:00:00 2.58 C 5.16 g/m*3 2.58 C 0 km/h
Sensor: Nr:Datum:Temp:Abs-Feuchte:Windchill:Wind:
Aussen-T/F 751 16-02-2011 06:00:00 3.74 C 5.61 g/m*3 3.74 C 0 km/h
752 16-02-2011 07:00:00 4.1 C 5.56 g/m*3 4.1 C 0 km/h
753 16-02-2011 08:00:00 4.2 C 5.49 g/m*3 4.2 C 0 km/h
754 16-02-2011 09:00:00 5.44 C 5.69 g/m*3 5.44 C 0 km/h
755 16-02-2011 10:00:00 6.98 C 5.43 g/m*3 6.98 C 0 km/h
756 16-02-2011 11:00:00 7.66 C 5.37 g/m*3 7.66 C 0 km/h
757 16-02-2011 12:00:00 7.92 C 5.33 g/m*3 7.92 C 0 km/h
758 16-02-2011 13:00:00 9.06 C 5.29 g/m*3 9.06 C 0 km/h
759 16-02-2011 14:00:00 9.04 C 5.29 g/m*3 9.04 C 0 km/h
760 16-02-2011 15:00:00 9.02 C 5.37 g/m*3 9.02 C 0 km/h
761 16-02-2011 16:00:00 10.1 C 5.35 g/m*3 10.1 C 0 km/h
762 16-02-2011 17:00:00 6.42 C 5.46 g/m*3 6.42 C 0 km/h
763 16-02-2011 18:00:00 3.88 C 5.3 g/m*3 3.88 C 0 km/h
764 16-02-2011 19:00:00 2.9 C 5.16 g/m*3 2.9 C 0 km/h
765 16-02-2011 20:00:00 2.04 C 4.94 g/m*3 2.04 C 0 km/h
766 16-02-2011 21:00:00 1.5 C 4.82 g/m*3 1.5 C 0 km/h
767 16-02-2011 22:00:00 0.66 C 4.6 g/m*3 0.66 C 0 km/h
768 16-02-2011 23:00:00 -0.26 C 4.33 g/m*3 -0.26 C 0 km/h
769 17-02-2011 00:00:00 -0.94 C 4.09 g/m*3 -0.94 C 0 km/h
770 17-02-2011 01:00:00 -0.72 C 4.19 g/m*3 -0.72 C 0 km/h
771 17-02-2011 02:00:00 -0.44 C 4.29 g/m*3 -0.44 C 0 km/h
772 17-02-2011 03:00:00 -0.24 C 4.38 g/m*3 -0.24 C 0 km/h
773 17-02-2011 04:00:00 0.12 C 4.5 g/m*3 0.12 C 0 km/h
774 17-02-2011 05:00:00 0.52 C 4.67 g/m*3 0.52 C 0 km/h
775 17-02-2011 06:00:00 0.94 C 4.81 g/m*3 0.94 C 0 km/h
Sensor: Nr:Datum:Temp:Abs-Feuchte:Windchill:Wind:
Aussen-T/F 776 17-02-2011 07:00:00 1.22 C 4.9 g/m*3 1.22 C 0 km/h
777 17-02-2011 08:00:00 1.52 C 5 g/m*3 1.52 C 0 km/h
778 17-02-2011 09:00:00 2.32 C 5.26 g/m*3 2.32 C 0 km/h
779 17-02-2011 10:00:00 3.78 C 5.15 g/m*3 3.78 C 0 km/h
780 17-02-2011 11:00:00 4 C 4.23 g/m*3 4 C 0 km/h
781 17-02-2011 12:00:00 6.12 C 3.95 g/m*3 6.12 C 0 km/h
782 17-02-2011 13:00:00 6.42 C 3.76 g/m*3 6.42 C 0 km/h
783 17-02-2011 14:00:00 5.5 C 3.86 g/m*3 5.5 C 0 km/h
784 17-02-2011 15:00:00 5.8 C 3.8 g/m*3 5.8 C 0 km/h
785 17-02-2011 16:00:00 4.16 C 3.78 g/m*3 4.16 C 0 km/h
786 17-02-2011 17:00:00 2.78 C 3.7 g/m*3 2.78 C 0 km/h
787 17-02-2011 18:00:00 0.96 C 3.72 g/m*3 0.96 C 0 km/h
788 17-02-2011 19:00:00 -0.5 C 3.68 g/m*3 -0.5 C 0 km/h
789 17-02-2011 20:00:00 0.2 C 4.05 g/m*3 0.2 C 0 km/h
790 17-02-2011 21:00:00 0.94 C 4.02 g/m*3 0.94 C 0 km/h
791 17-02-2011 22:00:00 1.3 C 3.83 g/m*3 1.3 C 0 km/h
792 17-02-2011 23:00:00 1.36 C 3.81 g/m*3 1.36 C 0 km/h
793 18-02-2011 00:00:00 1.28 C 3.83 g/m*3 1.28 C 0 km/h
794 18-02-2011 01:00:00 1.22 C 3.8 g/m*3 1.22 C 0 km/h
795 18-02-2011 02:00:00 1.22 C 3.89 g/m*3 1.22 C 0 km/h
796 18-02-2011 03:00:00 1.26 C 3.87 g/m*3 1.26 C 0 km/h
797 18-02-2011 04:00:00 1.3 C 3.84 g/m*3 1.3 C 0 km/h
798 18-02-2011 05:00:00 1.18 C 3.83 g/m*3 1.18 C 0 km/h
799 18-02-2011 06:00:00 1.18 C 3.9 g/m*3 1.18 C 0 km/h
800 18-02-2011 07:00:00 1.24 C 3.93 g/m*3 1.24 C 0 km/h
Sensor: Nr:Datum:Temp:Abs-Feuchte:Windchill:Wind:
Aussen-T/F 801 18-02-2011 08:00:00 1.52 C 3.99 g/m*3 1.52 C 0 km/h
802 18-02-2011 09:00:00 2.12 C 3.96 g/m*3 2.12 C 0 km/h
803 18-02-2011 10:00:00 2.52 C 3.95 g/m*3 2.52 C 0 km/h
804 18-02-2011 11:00:00 2.92 C 4 g/m*3 2.92 C 0 km/h
805 18-02-2011 12:00:00 3.18 C 4.03 g/m*3 3.18 C 0 km/h
806 18-02-2011 13:00:00 3.38 C 4.1 g/m*3 3.38 C 0 km/h
807 18-02-2011 14:00:00 3.56 C 4.15 g/m*3 3.56 C 0 km/h
808 18-02-2011 15:00:00 3.66 C 4.15 g/m*3 3.66 C 0 km/h
809 18-02-2011 16:00:00 3.36 C 4.17 g/m*3 3.36 C 0 km/h
810 18-02-2011 17:00:00 2.9 C 4.28 g/m*3 2.9 C 0 km/h
811 18-02-2011 18:00:00 2.72 C 4.38 g/m*3 2.72 C 0 km/h
812 18-02-2011 19:00:00 2.64 C 4.43 g/m*3 2.64 C 0 km/h
813 18-02-2011 20:00:00 2.48 C 4.44 g/m*3 2.48 C 0 km/h
814 18-02-2011 21:00:00 2.38 C 4.5 g/m*3 2.38 C 0 km/h
815 18-02-2011 22:00:00 2.24 C 4.48 g/m*3 2.24 C 0 km/h
816 18-02-2011 23:00:00 2.22 C 4.56 g/m*3 2.22 C 0 km/h
817 19-02-2011 00:00:00 2.16 C 4.57 g/m*3 2.16 C 0 km/h
818 19-02-2011 01:00:00 2.08 C 4.58 g/m*3 2.08 C 0 km/h
819 19-02-2011 02:00:00 1.98 C 4.56 g/m*3 1.98 C 0 km/h
820 19-02-2011 03:00:00 1.94 C 4.59 g/m*3 1.94 C 0 km/h
821 19-02-2011 04:00:00 1.86 C 4.62 g/m*3 1.86 C 0 km/h
822 19-02-2011 05:00:00 1.88 C 4.54 g/m*3 1.88 C 0 km/h
823 19-02-2011 06:00:00 1.8 C 4.39 g/m*3 1.8 C 0 km/h
824 19-02-2011 07:00:00 1.68 C 4.36 g/m*3 1.68 C 0 km/h
825 19-02-2011 08:00:00 1.78 C 4.28 g/m*3 1.78 C 0 km/h
Sensor: Nr:Datum:Temp:Abs-Feuchte:Windchill:Wind:
Aussen-T/F 826 19-02-2011 09:00:00 2.08 C 4.11 g/m*3 2.08 C 0 km/h
827 19-02-2011 10:00:00 2.82 C 4.15 g/m*3 2.82 C 0 km/h
828 19-02-2011 11:00:00 3.82 C 4.05 g/m*3 3.82 C 0 km/h
829 19-02-2011 12:00:00 4.94 C 3.98 g/m*3 4.94 C 0 km/h
830 19-02-2011 13:00:00 5.14 C 4.06 g/m*3 5.14 C 0 km/h
831 19-02-2011 14:00:00 4.74 C 4.01 g/m*3 4.74 C 0 km/h
832 19-02-2011 15:00:00 4.66 C 4.07 g/m*3 4.66 C 0 km/h
833 19-02-2011 16:00:00 4.4 C 4.14 g/m*3 4.4 C 0 km/h
834 19-02-2011 17:00:00 3.74 C 4.27 g/m*3 3.74 C 0 km/h
835 19-02-2011 18:00:00 3.02 C 4.31 g/m*3 3.02 C 0 km/h
836 19-02-2011 19:00:00 2.9 C 4.37 g/m*3 2.9 C 0 km/h
837 19-02-2011 20:00:00 2.14 C 4.23 g/m*3 2.14 C 0 km/h
838 19-02-2011 21:00:00 2.36 C 4.4 g/m*3 2.36 C 0 km/h
839 19-02-2011 22:00:00 2.16 C 4.16 g/m*3 2.16 C 0 km/h
840 19-02-2011 23:00:00 1.8 C 4.12 g/m*3 1.8 C 0 km/h
841 20-02-2011 00:00:00 1.58 C 3.92 g/m*3 1.58 C 0 km/h
842 20-02-2011 01:00:00 0.9 C 3.79 g/m*3 0.9 C 0 km/h
843 20-02-2011 02:00:00 0.56 C 3.82 g/m*3 0.56 C 0 km/h
844 20-02-2011 03:00:00 0.7 C 3.7 g/m*3 0.7 C 0 km/h
845 20-02-2011 04:00:00 0.52 C 3.62 g/m*3 0.52 C 0 km/h
846 20-02-2011 05:00:00 0.34 C 3.56 g/m*3 0.34 C 0 km/h
847 20-02-2011 06:00:00 0.36 C 3.53 g/m*3 0.36 C 0 km/h
848 20-02-2011 07:00:00 0.42 C 3.47 g/m*3 0.42 C 0 km/h
849 20-02-2011 08:00:00 0.54 C 3.38 g/m*3 0.54 C 0 km/h
850 20-02-2011 09:00:00 1.1 C 3.31 g/m*3 1.1 C 0 km/h
Sensor: Nr:Datum:Temp:Abs-Feuchte:Windchill:Wind:
Aussen-T/F 851 20-02-2011 10:00:00 1.62 C 3.21 g/m*3 1.62 C 0 km/h
852 20-02-2011 11:00:00 2.14 C 3.15 g/m*3 2.14 C 0 km/h
853 20-02-2011 12:00:00 2.42 C 3.1 g/m*3 2.42 C 0 km/h
854 20-02-2011 13:00:00 2.22 C 3.05 g/m*3 2.22 C 0 km/h
855 20-02-2011 14:00:00 2.14 C 2.98 g/m*3 2.14 C 0 km/h
856 20-02-2011 15:00:00 2.48 C 2.88 g/m*3 2.48 C 0 km/h
857 20-02-2011 16:00:00 1.34 C 2.89 g/m*3 1.34 C 0 km/h
858 20-02-2011 17:00:00 0.6 C 2.91 g/m*3 0.6 C 0 km/h
859 20-02-2011 18:00:00 0 C 2.81 g/m*3 0 C 0 km/h
860 20-02-2011 19:00:00 -0.32 C 2.75 g/m*3 -0.32 C 0 km/h
861 20-02-2011 20:00:00 -0.78 C 2.63 g/m*3 -0.78 C 0 km/h
862 20-02-2011 21:00:00 -1.04 C 2.55 g/m*3 -1.04 C 0 km/h
863 20-02-2011 22:00:00 -1.4 C 2.51 g/m*3 -1.4 C 0 km/h
864 20-02-2011 23:00:00 -1.64 C 2.46 g/m*3 -1.64 C 0 km/h
865 21-02-2011 00:00:00 -1.84 C 2.4 g/m*3 -1.84 C 0 km/h
866 21-02-2011 01:00:00 -2.02 C 2.35 g/m*3 -2.02 C 0 km/h
867 21-02-2011 02:00:00 -2.24 C 2.32 g/m*3 -2.24 C 0 km/h
868 21-02-2011 03:00:00 -2.4 C 2.28 g/m*3 -2.4 C 0 km/h
869 21-02-2011 04:00:00 -2.64 C 2.21 g/m*3 -2.64 C 0 km/h
870 21-02-2011 05:00:00 -2.72 C 2.2 g/m*3 -2.72 C 0 km/h
871 21-02-2011 06:00:00 -2.92 C 2.17 g/m*3 -2.92 C 0 km/h
872 21-02-2011 07:00:00 -3.22 C 2.11 g/m*3 -3.22 C 0 km/h
873 21-02-2011 08:00:00 -3.32 C 2.07 g/m*3 -3.32 C 0 km/h
874 21-02-2011 09:00:00 -2.92 C 2.07 g/m*3 -2.92 C 0 km/h
875 21-02-2011 10:00:00 -2.04 C 2.08 g/m*3 -2.04 C 0 km/h
Sensor: Nr:Datum:Temp:Abs-Feuchte:Windchill:Wind:
Aussen-T/F 876 21-02-2011 11:00:00 -1.52 C 2.04 g/m*3 -1.52 C 0 km/h
877 21-02-2011 12:00:00 -1.14 C 2.05 g/m*3 -1.14 C 0 km/h
878 21-02-2011 13:00:00 -0.88 C 2.12 g/m*3 -0.88 C 0 km/h
879 21-02-2011 14:00:00 -0.46 C 2.17 g/m*3 -0.46 C 0 km/h
880 21-02-2011 15:00:00 -0.16 C 2.22 g/m*3 -0.16 C 0 km/h
881 21-02-2011 16:00:00 -0.64 C 2.25 g/m*3 -0.64 C 0 km/h
882 21-02-2011 17:00:00 -1 C 2.29 g/m*3 -1 C 0 km/h
883 21-02-2011 18:00:00 -1.16 C 2.3 g/m*3 -1.16 C 0 km/h
884 21-02-2011 19:00:00 -1.14 C 2.28 g/m*3 -1.14 C 0 km/h
885 21-02-2011 20:00:00 -1.12 C 2.3 g/m*3 -1.12 C 0 km/h
886 21-02-2011 21:00:00 -1.3 C 2.29 g/m*3 -1.3 C 0 km/h
887 21-02-2011 22:00:00 -1.72 C 2.14 g/m*3 -1.72 C 0 km/h
888 21-02-2011 23:00:00 -2.98 C 2.09 g/m*3 -2.98 C 0 km/h
889 22-02-2011 00:00:00 -3.56 C 2.11 g/m*3 -3.56 C 0 km/h
890 22-02-2011 01:00:00 -3.18 C 2.06 g/m*3 -3.18 C 0 km/h
891 22-02-2011 02:00:00 -3.34 C 2.02 g/m*3 -3.34 C 0 km/h
892 22-02-2011 03:00:00 -4.02 C 1.96 g/m*3 -4.02 C 0 km/h
893 22-02-2011 04:00:00 -4.96 C 1.89 g/m*3 -4.96 C 0 km/h
894 22-02-2011 05:00:00 -6.06 C 1.85 g/m*3 -6.06 C 0 km/h
895 22-02-2011 06:00:00 -7.78 C 1.83 g/m*3 -7.78 C 0 km/h
896 22-02-2011 07:00:00 -8.32 C 1.86 g/m*3 -8.32 C 0 km/h
897 22-02-2011 08:00:00 -7.72 C 1.89 g/m*3 -7.72 C 0 km/h
898 22-02-2011 09:00:00 -6.96 C 1.86 g/m*3 -6.96 C 0 km/h
899 22-02-2011 10:00:00 -5.72 C 1.87 g/m*3 -5.72 C 0 km/h
900 22-02-2011 11:00:00 -3.54 C 1.84 g/m*3 -3.54 C 0 km/h
Sensor: Nr:Datum:Temp:Abs-Feuchte:Windchill:Wind:
Aussen-T/F 901 22-02-2011 12:00:00 -0.04 C 1.9 g/m*3 -0.04 C 0 km/h
902 22-02-2011 13:00:00 1.94 C 1.59 g/m*3 1.94 C 0 km/h
903 22-02-2011 14:00:00 1.62 C 1.84 g/m*3 1.62 C 0 km/h
904 22-02-2011 15:00:00 3.48 C 1.62 g/m*3 3.48 C 0 km/h
905 22-02-2011 16:00:00 5.9 C 1.44 g/m*3 5.9 C 0 km/h
906 22-02-2011 17:00:00 1.3 C 1.74 g/m*3 1.3 C 0 km/h
907 22-02-2011 18:00:00 -3.76 C 2.08 g/m*3 -3.76 C 0 km/h
908 22-02-2011 19:00:00 -4.52 C 2.11 g/m*3 -4.52 C 0 km/h
909 22-02-2011 20:00:00 -5.14 C 2.1 g/m*3 -5.14 C 0 km/h
910 22-02-2011 21:00:00 -5.36 C 2.07 g/m*3 -5.36 C 0 km/h
911 22-02-2011 22:00:00 -5.56 C 2.04 g/m*3 -5.56 C 0 km/h
912 22-02-2011 23:00:00 -6.1 C 1.91 g/m*3 -6.1 C 0 km/h
913 23-02-2011 00:00:00 -6.7 C 1.91 g/m*3 -6.7 C 0 km/h
914 23-02-2011 01:00:00 -7.2 C 1.89 g/m*3 -7.2 C 0 km/h
915 23-02-2011 02:00:00 -7.9 C 1.81 g/m*3 -7.9 C 0 km/h
916 23-02-2011 03:00:00 -8.14 C 1.84 g/m*3 -8.14 C 0 km/h
917 23-02-2011 04:00:00 -8.76 C 1.82 g/m*3 -8.76 C 0 km/h
918 23-02-2011 05:00:00 -8.8 C 1.87 g/m*3 -8.8 C 0 km/h
919 23-02-2011 06:00:00 -9.36 C 1.78 g/m*3 -9.36 C 0 km/h
920 23-02-2011 07:00:00 -9.18 C 1.83 g/m*3 -9.18 C 0 km/h
921 23-02-2011 08:00:00 -7.5 C 2.12 g/m*3 -7.5 C 0 km/h
922 23-02-2011 09:00:00 -4.84 C 2.31 g/m*3 -4.84 C 0 km/h
923 23-02-2011 10:00:00 -2.28 C 2.3 g/m*3 -2.28 C 0 km/h
924 23-02-2011 11:00:00 -0.3 C 1.97 g/m*3 -0.3 C 0 km/h
925 23-02-2011 12:00:00 1.72 C 1.54 g/m*3 1.72 C 0 km/h
Sensor: Nr:Datum:Temp:Abs-Feuchte:Windchill:Wind:
Aussen-T/F 926 23-02-2011 13:00:00 3.66 C 1.24 g/m*3 3.66 C 0 km/h
927 23-02-2011 14:00:00 3.96 C 1.27 g/m*3 3.96 C 0 km/h
928 23-02-2011 15:00:00 3.74 C 1.25 g/m*3 3.74 C 0 km/h
929 23-02-2011 16:00:00 3 C 1.19 g/m*3 3 C 0 km/h
930 23-02-2011 17:00:00 1.26 C 1.65 g/m*3 1.26 C 0 km/h
931 23-02-2011 18:00:00 -0.3 C 2.17 g/m*3 -0.3 C 0 km/h
932 23-02-2011 19:00:00 0.26 C 2.09 g/m*3 0.26 C 0 km/h
933 23-02-2011 20:00:00 0.08 C 2.09 g/m*3 0.08 C 0 km/h
934 23-02-2011 21:00:00 -0.06 C 2.25 g/m*3 -0.06 C 0 km/h
935 23-02-2011 22:00:00 -0.08 C 2.32 g/m*3 -0.08 C 0 km/h
936 23-02-2011 23:00:00 -0.26 C 2.51 g/m*3 -0.26 C 0 km/h
937 24-02-2011 00:00:00 -0.44 C 2.58 g/m*3 -0.44 C 0 km/h
938 24-02-2011 01:00:00 -0.74 C 2.68 g/m*3 -0.74 C 0 km/h
939 24-02-2011 02:00:00 -0.48 C 2.61 g/m*3 -0.48 C 0 km/h
940 24-02-2011 03:00:00 -0.12 C 2.72 g/m*3 -0.12 C 0 km/h
941 24-02-2011 04:00:00 0.12 C 2.88 g/m*3 0.12 C 0 km/h
942 24-02-2011 05:00:00 -0.84 C 3.4 g/m*3 -0.84 C 0 km/h
943 24-02-2011 06:00:00 -0.88 C 3.58 g/m*3 -0.88 C 0 km/h
944 24-02-2011 07:00:00 -0.76 C 3.66 g/m*3 -0.76 C 0 km/h
945 24-02-2011 08:00:00 -0.4 C 3.87 g/m*3 -0.4 C 0 km/h
946 24-02-2011 09:00:00 0.12 C 4.01 g/m*3 0.12 C 0 km/h
947 24-02-2011 10:00:00 0.76 C 4.15 g/m*3 0.76 C 0 km/h
948 24-02-2011 11:00:00 1.58 C 4.19 g/m*3 1.58 C 0 km/h
949 24-02-2011 12:00:00 2.66 C 4.29 g/m*3 2.66 C 0 km/h
950 24-02-2011 13:00:00 3.38 C 4.17 g/m*3 3.38 C 0 km/h
Sensor: Nr:Datum:Temp:Abs-Feuchte:Windchill:Wind:
Aussen-T/F 951 24-02-2011 14:00:00 2.62 C 4.3 g/m*3 2.62 C 0 km/h
952 24-02-2011 15:00:00 3.18 C 4.33 g/m*3 3.18 C 0 km/h
953 24-02-2011 16:00:00 2.52 C 4.34 g/m*3 2.52 C 0 km/h
954 24-02-2011 17:00:00 1.64 C 4.45 g/m*3 1.64 C 0 km/h
955 24-02-2011 18:00:00 1.28 C 4.52 g/m*3 1.28 C 0 km/h
956 24-02-2011 19:00:00 1.26 C 4.61 g/m*3 1.26 C 0 km/h
957 24-02-2011 20:00:00 1.28 C 4.66 g/m*3 1.28 C 0 km/h
958 24-02-2011 21:00:00 1.32 C 4.7 g/m*3 1.32 C 0 km/h
959 24-02-2011 22:00:00 1.4 C 4.75 g/m*3 1.4 C 0 km/h
960 24-02-2011 23:00:00 1.4 C 4.75 g/m*3 1.4 C 0 km/h
961 25-02-2011 00:00:00 1.44 C 4.76 g/m*3 1.44 C 0 km/h
962 25-02-2011 01:00:00 1.44 C 4.79 g/m*3 1.44 C 0 km/h
963 25-02-2011 02:00:00 1.42 C 4.81 g/m*3 1.42 C 0 km/h
964 25-02-2011 03:00:00 1.5 C 4.83 g/m*3 1.5 C 0 km/h
965 25-02-2011 04:00:00 1.48 C 4.83 g/m*3 1.48 C 0 km/h
966 25-02-2011 05:00:00 1.64 C 4.93 g/m*3 1.64 C 0 km/h
967 25-02-2011 06:00:00 1.7 C 4.95 g/m*3 1.7 C 0 km/h
968 25-02-2011 07:00:00 1.82 C 5 g/m*3 1.82 C 0 km/h
969 25-02-2011 08:00:00 2.2 C 5.1 g/m*3 2.2 C 0 km/h
970 25-02-2011 09:00:00 2.92 C 5.31 g/m*3 2.92 C 0 km/h
971 25-02-2011 10:00:00 3.68 C 5.38 g/m*3 3.68 C 0 km/h
972 25-02-2011 11:00:00 4.56 C 5.35 g/m*3 4.56 C 0 km/h
973 25-02-2011 12:00:00 5.32 C 5.16 g/m*3 5.32 C 0 km/h
974 25-02-2011 13:00:00 6.12 C 5.22 g/m*3 6.12 C 0 km/h
975 25-02-2011 14:00:00 6.06 C 5.2 g/m*3 6.06 C 0 km/h
Sensor: Nr:Datum:Temp:Abs-Feuchte:Windchill:Wind:
Aussen-T/F 976 25-02-2011 15:00:00 6.14 C 5.24 g/m*3 6.14 C 0 km/h
977 25-02-2011 16:00:00 5.38 C 5.39 g/m*3 5.38 C 0 km/h
978 25-02-2011 17:00:00 4.66 C 5.31 g/m*3 4.66 C 0 km/h
979 25-02-2011 18:00:00 4.22 C 5.28 g/m*3 4.22 C 0 km/h
980 25-02-2011 19:00:00 3.94 C 5.26 g/m*3 3.94 C 0 km/h
981 25-02-2011 20:00:00 3.82 C 5.3 g/m*3 3.82 C 0 km/h
982 25-02-2011 21:00:00 3.64 C 5.3 g/m*3 3.64 C 0 km/h
983 25-02-2011 22:00:00 3.78 C 5.4 g/m*3 3.78 C 0 km/h
984 25-02-2011 23:00:00 3.8 C 5.38 g/m*3 3.8 C 0 km/h
985 26-02-2011 00:00:00 3.6 C 5.34 g/m*3 3.6 C 0 km/h
986 26-02-2011 01:00:00 3.52 C 5.36 g/m*3 3.52 C 0 km/h
987 26-02-2011 02:00:00 3.5 C 5.35 g/m*3 3.5 C 0 km/h
988 26-02-2011 03:00:00 3.42 C 5.26 g/m*3 3.42 C 0 km/h
989 26-02-2011 04:00:00 3.38 C 5.25 g/m*3 3.38 C 0 km/h
990 26-02-2011 05:00:00 3.74 C 5.22 g/m*3 3.74 C 0 km/h
991 26-02-2011 06:00:00 3.62 C 4.87 g/m*3 3.62 C 0 km/h
992 26-02-2011 07:00:00 2.9 C 4.96 g/m*3 2.9 C 0 km/h
993 26-02-2011 08:00:00 3.94 C 4.89 g/m*3 3.94 C 0 km/h
994 26-02-2011 09:00:00 4.1 C 4.67 g/m*3 4.1 C 0 km/h
995 26-02-2011 10:00:00 4.8 C 4.61 g/m*3 4.8 C 0 km/h
996 26-02-2011 11:00:00 5.88 C 4.45 g/m*3 5.88 C 0 km/h
997 26-02-2011 12:00:00 7.6 C 4.5 g/m*3 7.6 C 0 km/h
998 26-02-2011 13:00:00 8.4 C 4.55 g/m*3 8.4 C 0 km/h
999 26-02-2011 14:00:00 8.76 C 4.62 g/m*3 8.76 C 0 km/h
1000 26-02-2011 15:00:00 7.98 C 4.71 g/m*3 7.98 C 0 km/h
Sensor: Nr:Datum:Temp:Abs-Feuchte:Windchill:Wind:
Aussen-T/F 1001 26-02-2011 16:00:00 7.14 C 4.83 g/m*3 7.14 C 0 km/h
1002 26-02-2011 17:00:00 6.4 C 5.08 g/m*3 6.4 C 0 km/h
1003 26-02-2011 18:00:00 5.56 C 5.39 g/m*3 5.56 C 0 km/h
1004 26-02-2011 19:00:00 4.96 C 5.73 g/m*3 4.96 C 0 km/h
1005 26-02-2011 20:00:00 4.74 C 5.78 g/m*3 4.74 C 0 km/h
1006 26-02-2011 21:00:00 4.6 C 5.82 g/m*3 4.6 C 0 km/h
1007 26-02-2011 22:00:00 4.48 C 5.83 g/m*3 4.48 C 0 km/h
1008 26-02-2011 23:00:00 4.7 C 5.94 g/m*3 4.7 C 0 km/h
1009 27-02-2011 00:00:00 4.68 C 5.99 g/m*3 4.68 C 0 km/h
1010 27-02-2011 01:00:00 4.54 C 5.97 g/m*3 4.54 C 0 km/h
1011 27-02-2011 02:00:00 4.66 C 6.05 g/m*3 4.66 C 0 km/h
1012 27-02-2011 03:00:00 4.78 C 6.03 g/m*3 4.78 C 0 km/h
1013 27-02-2011 04:00:00 4.62 C 5.96 g/m*3 4.62 C 0 km/h
1014 27-02-2011 05:00:00 4.46 C 5.9 g/m*3 4.46 C 0 km/h
1015 27-02-2011 06:00:00 4.3 C 5.84 g/m*3 4.3 C 0 km/h
1016 27-02-2011 07:00:00 4.3 C 5.86 g/m*3 4.3 C 0 km/h
1017 27-02-2011 08:00:00 4.62 C 5.78 g/m*3 4.62 C 0 km/h
1018 27-02-2011 09:00:00 5.42 C 5.6 g/m*3 5.42 C 0 km/h
1019 27-02-2011 10:00:00 6.32 C 5.53 g/m*3 6.32 C 0 km/h
1020 27-02-2011 11:00:00 7.24 C 5.04 g/m*3 7.24 C 0 km/h
1021 27-02-2011 12:00:00 7.54 C 4.59 g/m*3 7.54 C 0 km/h
1022 27-02-2011 13:00:00 7.5 C 4.45 g/m*3 7.5 C 0 km/h
1023 27-02-2011 14:00:00 7.4 C 4.36 g/m*3 7.4 C 0 km/h
1024 27-02-2011 15:00:00 7.3 C 4.35 g/m*3 7.3 C 0 km/h
1025 27-02-2011 16:00:00 6.78 C 4.46 g/m*3 6.78 C 0 km/h
Sensor: Nr:Datum:Temp:Abs-Feuchte:Windchill:Wind:
Aussen-T/F 1026 27-02-2011 17:00:00 6.52 C 4.28 g/m*3 6.52 C 0 km/h
1027 27-02-2011 18:00:00 5.78 C 4.36 g/m*3 5.78 C 0 km/h
1028 27-02-2011 19:00:00 5.2 C 4.63 g/m*3 5.2 C 0 km/h
1029 27-02-2011 20:00:00 4.5 C 4.75 g/m*3 4.5 C 0 km/h
1030 27-02-2011 21:00:00 4.7 C 4.36 g/m*3 4.7 C 0 km/h
1031 27-02-2011 22:00:00 4.25 C 4.36 g/m*3 4.25 C 0 km/h
1032 27-02-2011 23:00:00 3.8 C 4.25 g/m*3 3.8 C 0 km/h
1033 28-02-2011 00:00:00 3.14 C 4.31 g/m*3 3.14 C 0 km/h
1034 28-02-2011 01:00:00 2.12 C 4.37 g/m*3 2.12 C 0 km/h
1035 28-02-2011 02:00:00 1.16 C 4.38 g/m*3 1.16 C 0 km/h
1036 28-02-2011 03:00:00 1.82 C 4.61 g/m*3 1.82 C 0 km/h
1037 28-02-2011 04:00:00 2.26 C 4.52 g/m*3 2.26 C 0 km/h
1038 28-02-2011 05:00:00 2.68 C 4.47 g/m*3 2.68 C 0 km/h
1039 28-02-2011 06:00:00 2.74 C 4.51 g/m*3 2.74 C 0 km/h
1040 28-02-2011 07:00:00 2.6 C 4.57 g/m*3 2.6 C 0 km/h
1041 28-02-2011 08:00:00 3.24 C 4.59 g/m*3 3.24 C 0 km/h
1042 28-02-2011 09:00:00 4.22 C 4.52 g/m*3 4.22 C 0 km/h
1043 28-02-2011 10:00:00 4.14 C 4.63 g/m*3 4.14 C 0 km/h
1044 28-02-2011 11:00:00 7.46 C 4.22 g/m*3 7.46 C 0 km/h
1045 28-02-2011 12:00:00 8.46 C 3.93 g/m*3 8.46 C 0 km/h
1046 28-02-2011 13:00:00 9.02 C 3.8 g/m*3 9.02 C 0 km/h
1047 28-02-2011 14:00:00 10.34 C 3.86 g/m*3 10.34 C 0 km/h
1048 28-02-2011 15:00:00 10.34 C 3.82 g/m*3 10.34 C 0 km/h
1049 28-02-2011 16:00:00 11.96 C 3.72 g/m*3 11.96 C 0 km/h
1050 28-02-2011 17:00:00 7.84 C 3.86 g/m*3 7.84 C 0 km/h
Sensor: Nr:Datum:Temp:Abs-Feuchte:Windchill:Wind:
Aussen-T/F 1051 28-02-2011 18:00:00 5.12 C 4.21 g/m*3 5.12 C 0 km/h
1052 28-02-2011 19:00:00 2.82 C 4.39 g/m*3 2.82 C 0 km/h
1053 28-02-2011 20:00:00 1.8 C 4.48 g/m*3 1.8 C 0 km/h
1054 28-02-2011 21:00:00 1.32 C 4.52 g/m*3 1.32 C 0 km/h
1055 28-02-2011 22:00:00 1.04 C 4.5 g/m*3 1.04 C 0 km/h
1056 28-02-2011 23:00:00 0.92 C 4.52 g/m*3 0.92 C 0 km/h
1057 01-03-2011 00:00:00 0.54 C 4.43 g/m*3 0.54 C 0 km/h
1058 01-03-2011 01:00:00 -0.1 C 4.21 g/m*3 -0.1 C 0 km/h
1059 01-03-2011 02:00:00 -0.1 C 4.25 g/m*3 -0.1 C 0 km/h
1060 01-03-2011 03:00:00 -0.76 C 4.09 g/m*3 -0.76 C 0 km/h
1061 01-03-2011 04:00:00 -1.04 C 4.01 g/m*3 -1.04 C 0 km/h
1062 01-03-2011 05:00:00 0.34 C 4.5 g/m*3 0.34 C 0 km/h
1063 01-03-2011 06:00:00 0.52 C 4.57 g/m*3 0.52 C 0 km/h
1064 01-03-2011 07:00:00 0.62 C 4.64 g/m*3 0.62 C 0 km/h
1065 01-03-2011 08:00:00 1.08 C 4.76 g/m*3 1.08 C 0 km/h
1066 01-03-2011 09:00:00 1.84 C 4.94 g/m*3 1.84 C 0 km/h
1067 01-03-2011 10:00:00 2.44 C 4.76 g/m*3 2.44 C 0 km/h
1068 01-03-2011 11:00:00 4.54 C 4.84 g/m*3 4.54 C 0 km/h
1069 01-03-2011 12:00:00 7.7 C 4.93 g/m*3 7.7 C 0 km/h
1070 01-03-2011 13:00:00 9.98 C 4.65 g/m*3 9.98 C 0 km/h
1071 01-03-2011 14:00:00 10.64 C 4.76 g/m*3 10.64 C 0 km/h
1072 01-03-2011 15:00:00 12.7 C 4.63 g/m*3 12.7 C 0 km/h
1073 01-03-2011 16:00:00 15.02 C 3.36 g/m*3 15.02 C 0 km/h
1074 01-03-2011 17:00:00 11.82 C 3.52 g/m*3 11.82 C 0 km/h
1075 01-03-2011 18:00:00 6.96 C 3.97 g/m*3 6.96 C 0 km/h
Sensor: Nr:Datum:Temp:Abs-Feuchte:Windchill:Wind:
Aussen-T/F 1076 01-03-2011 19:00:00 5.64 C 4.18 g/m*3 5.64 C 0 km/h
1077 01-03-2011 20:00:00 4.34 C 4.11 g/m*3 4.34 C 0 km/h
1078 01-03-2011 21:00:00 2.82 C 4.01 g/m*3 2.82 C 0 km/h
1079 01-03-2011 22:00:00 3.12 C 3.76 g/m*3 3.12 C 0 km/h
1080 01-03-2011 23:00:00 2.82 C 3.49 g/m*3 2.82 C 0 km/h
1081 02-03-2011 00:00:00 1.34 C 3.55 g/m*3 1.34 C 0 km/h
1082 02-03-2011 01:00:00 0.68 C 3.57 g/m*3 0.68 C 0 km/h
1083 02-03-2011 02:00:00 -0.36 C 3.58 g/m*3 -0.36 C 0 km/h
1084 02-03-2011 03:00:00 -1 C 3.5 g/m*3 -1 C 0 km/h
1085 02-03-2011 04:00:00 -1.02 C 3.34 g/m*3 -1.02 C 0 km/h
1086 02-03-2011 05:00:00 -1.5 C 3.21 g/m*3 -1.5 C 0 km/h
1087 02-03-2011 06:00:00 -2.08 C 3.21 g/m*3 -2.08 C 0 km/h
1088 02-03-2011 07:00:00 -2.22 C 3.1 g/m*3 -2.22 C 0 km/h
1089 02-03-2011 08:00:00 -2 C 3.2 g/m*3 -2 C 0 km/h
1090 02-03-2011 09:00:00 -0.84 C 3.26 g/m*3 -0.84 C 0 km/h
1091 02-03-2011 10:00:00 1.44 C 3.26 g/m*3 1.44 C 0 km/h
1092 02-03-2011 11:00:00 5.68 C 2.66 g/m*3 5.68 C 0 km/h
1093 02-03-2011 12:00:00 9.78 C 1.87 g/m*3 9.78 C 0 km/h
1094 02-03-2011 13:00:00 11.64 C 2.08 g/m*3 11.64 C 0 km/h
1095 02-03-2011 14:00:00 10.84 C 1.98 g/m*3 10.84 C 0 km/h
1096 02-03-2011 15:00:00 11.68 C 2.09 g/m*3 11.68 C 0 km/h
1097 02-03-2011 16:00:00 13.18 C 2.29 g/m*3 13.18 C 0 km/h
1098 02-03-2011 17:00:00 10.36 C 1.92 g/m*3 10.36 C 0 km/h
1099 02-03-2011 18:00:00 4.78 C 2.2 g/m*3 4.78 C 0 km/h
1100 02-03-2011 19:00:00 2.5 C 2.64 g/m*3 2.5 C 0 km/h
Sensor: Nr:Datum:Temp:Abs-Feuchte:Windchill:Wind:
Aussen-T/F 1101 02-03-2011 20:00:00 2.9 C 2.44 g/m*3 2.9 C 0 km/h
1102 02-03-2011 21:00:00 2.84 C 2.34 g/m*3 2.84 C 0 km/h
1103 02-03-2011 22:00:00 2.44 C 2.34 g/m*3 2.44 C 0 km/h
1104 02-03-2011 23:00:00 0.78 C 2.6 g/m*3 0.78 C 0 km/h
1105 03-03-2011 00:00:00 -0.84 C 2.68 g/m*3 -0.84 C 0 km/h
1106 03-03-2011 01:00:00 -1.58 C 2.71 g/m*3 -1.58 C 0 km/h
1107 03-03-2011 02:00:00 -1.94 C 2.59 g/m*3 -1.94 C 0 km/h
1108 03-03-2011 03:00:00 -2.12 C 2.58 g/m*3 -2.12 C 0 km/h
1109 03-03-2011 04:00:00 -1.76 C 2.42 g/m*3 -1.76 C 0 km/h
1110 03-03-2011 05:00:00 -2.82 C 2.51 g/m*3 -2.82 C 0 km/h
1111 03-03-2011 06:00:00 -3.42 C 2.46 g/m*3 -3.42 C 0 km/h
1112 03-03-2011 07:00:00 -3.2 C 2.54 g/m*3 -3.2 C 0 km/h
1113 03-03-2011 08:00:00 -2.64 C 2.55 g/m*3 -2.64 C 0 km/h
1114 03-03-2011 09:00:00 -1.68 C 2.63 g/m*3 -1.68 C 0 km/h
1115 03-03-2011 10:00:00 0.84 C 2.72 g/m*3 0.84 C 0 km/h
1116 03-03-2011 11:00:00 4.24 C 2.13 g/m*3 4.24 C 0 km/h
1117 03-03-2011 12:00:00 6.94 C 1.85 g/m*3 6.94 C 0 km/h
1118 03-03-2011 13:00:00 8.44 C 1.7 g/m*3 8.44 C 0 km/h
1119 03-03-2011 14:00:00 8.7 C 1.73 g/m*3 8.7 C 0 km/h
1120 03-03-2011 15:00:00 9.52 C 1.82 g/m*3 9.52 C 0 km/h
1121 03-03-2011 16:00:00 10.76 C 1.97 g/m*3 10.76 C 0 km/h
1122 03-03-2011 17:00:00 8.1 C 1.83 g/m*3 8.1 C 0 km/h
1123 03-03-2011 18:00:00 3.18 C 2.47 g/m*3 3.18 C 0 km/h
1124 03-03-2011 19:00:00 1.08 C 2.82 g/m*3 1.08 C 0 km/h
1125 03-03-2011 20:00:00 0.5 C 2.94 g/m*3 0.5 C 0 km/h
Sensor: Nr:Datum:Temp:Abs-Feuchte:Windchill:Wind:
Aussen-T/F 1126 03-03-2011 21:00:00 -0.28 C 3.04 g/m*3 -0.28 C 0 km/h
1127 03-03-2011 22:00:00 -0.68 C 3.08 g/m*3 -0.68 C 0 km/h
1128 03-03-2011 23:00:00 -1.3 C 3.05 g/m*3 -1.3 C 0 km/h
1129 04-03-2011 00:00:00 -1.62 C 2.96 g/m*3 -1.62 C 0 km/h
1130 04-03-2011 01:00:00 -1.88 C 2.98 g/m*3 -1.88 C 0 km/h
1131 04-03-2011 02:00:00 -2.24 C 2.91 g/m*3 -2.24 C 0 km/h
1132 04-03-2011 03:00:00 -2.78 C 2.87 g/m*3 -2.78 C 0 km/h
1133 04-03-2011 04:00:00 -3.54 C 2.8 g/m*3 -3.54 C 0 km/h
1134 04-03-2011 05:00:00 -4.36 C 2.75 g/m*3 -4.36 C 0 km/h
1135 04-03-2011 06:00:00 -4.64 C 2.75 g/m*3 -4.64 C 0 km/h
1136 04-03-2011 07:00:00 -4.7 C 2.74 g/m*3 -4.7 C 0 km/h
1137 04-03-2011 08:00:00 -3.98 C 2.91 g/m*3 -3.98 C 0 km/h
1138 04-03-2011 09:00:00 -2.78 C 3.14 g/m*3 -2.78 C 0 km/h
1139 04-03-2011 10:00:00 -0.1 C 3.45 g/m*3 -0.1 C 0 km/h
1140 04-03-2011 11:00:00 3.6 C 3.16 g/m*3 3.6 C 0 km/h
1141 04-03-2011 12:00:00 7.46 C 3 g/m*3 7.46 C 0 km/h
1142 04-03-2011 13:00:00 10.32 C 2.76 g/m*3 10.32 C 0 km/h
1143 04-03-2011 14:00:00 9.66 C 2.94 g/m*3 9.66 C 0 km/h
1144 04-03-2011 15:00:00 11.96 C 3.02 g/m*3 11.96 C 0 km/h
1145 04-03-2011 16:00:00 15.74 C 2.87 g/m*3 15.74 C 0 km/h
1146 04-03-2011 17:00:00 10.92 C 3.39 g/m*3 10.92 C 0 km/h
1147 04-03-2011 18:00:00 5.38 C 3.67 g/m*3 5.38 C 0 km/h
1148 04-03-2011 19:00:00 4.46 C 3.57 g/m*3 4.46 C 0 km/h
1149 04-03-2011 20:00:00 2.72 C 3.83 g/m*3 2.72 C 0 km/h
1150 04-03-2011 21:00:00 1.82 C 3.88 g/m*3 1.82 C 0 km/h
Sensor: Nr:Datum:Temp:Abs-Feuchte:Windchill:Wind:
Aussen-T/F 1151 04-03-2011 22:00:00 1.02 C 3.88 g/m*3 1.02 C 0 km/h
1152 04-03-2011 23:00:00 -0.06 C 3.84 g/m*3 -0.06 C 0 km/h
1153 05-03-2011 00:00:00 -1.04 C 3.74 g/m*3 -1.04 C 0 km/h
1154 05-03-2011 01:00:00 -1.88 C 3.61 g/m*3 -1.88 C 0 km/h
1155 05-03-2011 02:00:00 -3.04 C 3.33 g/m*3 -3.04 C 0 km/h
1156 05-03-2011 03:00:00 -3.58 C 3.22 g/m*3 -3.58 C 0 km/h
1157 05-03-2011 04:00:00 -3.74 C 3.22 g/m*3 -3.74 C 0 km/h
1158 05-03-2011 05:00:00 -3.84 C 3.22 g/m*3 -3.84 C 0 km/h
1159 05-03-2011 06:00:00 -2.78 C 3.48 g/m*3 -2.78 C 0 km/h
1160 05-03-2011 07:00:00 -2.4 C 3.59 g/m*3 -2.4 C 0 km/h
1161 05-03-2011 08:00:00 -1.56 C 3.79 g/m*3 -1.56 C 0 km/h
1162 05-03-2011 09:00:00 -0.54 C 3.92 g/m*3 -0.54 C 0 km/h
1163 05-03-2011 10:00:00 1.56 C 4.09 g/m*3 1.56 C 0 km/h
1164 05-03-2011 11:00:00 2.82 C 3.79 g/m*3 2.82 C 0 km/h
1165 05-03-2011 12:00:00 4.48 C 3.72 g/m*3 4.48 C 0 km/h
1166 05-03-2011 13:00:00 5.68 C 3.44 g/m*3 5.68 C 0 km/h
1167 05-03-2011 14:00:00 4 C 3.34 g/m*3 4 C 0 km/h
1168 05-03-2011 15:00:00 3.98 C 3.37 g/m*3 3.98 C 0 km/h
1169 05-03-2011 16:00:00 3.38 C 3.39 g/m*3 3.38 C 0 km/h
1170 05-03-2011 17:00:00 2.62 C 3.57 g/m*3 2.62 C 0 km/h
1171 05-03-2011 18:00:00 1.36 C 3.83 g/m*3 1.36 C 0 km/h
1172 05-03-2011 19:00:00 1.14 C 4.07 g/m*3 1.14 C 0 km/h
1173 05-03-2011 20:00:00 1.48 C 4.14 g/m*3 1.48 C 0 km/h
1174 05-03-2011 21:00:00 -0.5 C 3.8 g/m*3 -0.5 C 0 km/h
1175 05-03-2011 22:00:00 -1.22 C 3.73 g/m*3 -1.22 C 0 km/h
Sensor: Nr:Datum:Temp:Abs-Feuchte:Windchill:Wind:
Aussen-T/F 1176 05-03-2011 23:00:00 -1.62 C 3.67 g/m*3 -1.62 C 0 km/h
1177 06-03-2011 00:00:00 -1.62 C 3.74 g/m*3 -1.62 C 0 km/h
1178 06-03-2011 01:00:00 -1.94 C 3.69 g/m*3 -1.94 C 0 km/h
1179 06-03-2011 02:00:00 -0.48 C 4.15 g/m*3 -0.48 C 0 km/h
1180 06-03-2011 03:00:00 -0.02 C 4.23 g/m*3 -0.02 C 0 km/h
1181 06-03-2011 04:00:00 -0.08 C 3.97 g/m*3 -0.08 C 0 km/h
1182 06-03-2011 05:00:00 -1.52 C 3.31 g/m*3 -1.52 C 0 km/h
1183 06-03-2011 06:00:00 -2.82 C 3.22 g/m*3 -2.82 C 0 km/h
1184 06-03-2011 07:00:00 -1.94 C 3.38 g/m*3 -1.94 C 0 km/h
1185 06-03-2011 08:00:00 -0.34 C 3.48 g/m*3 -0.34 C 0 km/h
1186 06-03-2011 09:00:00 1.24 C 3.13 g/m*3 1.24 C 0 km/h
1187 06-03-2011 10:00:00 2.14 C 2.82 g/m*3 2.14 C 0 km/h
1188 06-03-2011 11:00:00 3.76 C 2.69 g/m*3 3.76 C 0 km/h
1189 06-03-2011 12:00:00 5.26 C 2.6 g/m*3 5.26 C 0 km/h
1190 06-03-2011 13:00:00 5.92 C 2.43 g/m*3 5.92 C 0 km/h
1191 06-03-2011 14:00:00 6.66 C 2.3 g/m*3 6.66 C 0 km/h
1192 06-03-2011 15:00:00 9.1 C 2.16 g/m*3 9.1 C 0 km/h
1193 06-03-2011 16:00:00 12.66 C 2.22 g/m*3 12.66 C 0 km/h
1194 06-03-2011 17:00:00 8.86 C 2.36 g/m*3 8.86 C 0 km/h
1195 06-03-2011 18:00:00 2.02 C 2.92 g/m*3 2.02 C 0 km/h
1196 06-03-2011 19:00:00 0.04 C 3.02 g/m*3 0.04 C 0 km/h
1197 06-03-2011 20:00:00 -0.52 C 3.02 g/m*3 -0.52 C 0 km/h
1198 06-03-2011 21:00:00 -1.1 C 2.95 g/m*3 -1.1 C 0 km/h
1199 06-03-2011 22:00:00 -1.6 C 2.88 g/m*3 -1.6 C 0 km/h
1200 06-03-2011 23:00:00 -2.1 C 2.75 g/m*3 -2.1 C 0 km/h
Sensor: Nr:Datum:Temp:Abs-Feuchte:Windchill:Wind:
Aussen-T/F 1201 07-03-2011 00:00:00 -2.42 C 2.7 g/m*3 -2.42 C 0 km/h
1202 07-03-2011 01:00:00 -3.02 C 2.69 g/m*3 -3.02 C 0 km/h
1203 07-03-2011 02:00:00 -3.62 C 2.62 g/m*3 -3.62 C 0 km/h
1204 07-03-2011 03:00:00 -4.18 C 2.56 g/m*3 -4.18 C 0 km/h
1205 07-03-2011 04:00:00 -4.64 C 2.51 g/m*3 -4.64 C 0 km/h
1206 07-03-2011 05:00:00 -4.64 C 2.5 g/m*3 -4.64 C 0 km/h
1207 07-03-2011 06:00:00 -4.6 C 2.44 g/m*3 -4.6 C 0 km/h
1208 07-03-2011 07:00:00 -4.62 C 2.39 g/m*3 -4.62 C 0 km/h
1209 07-03-2011 08:00:00 -3.76 C 2.34 g/m*3 -3.76 C 0 km/h
1210 07-03-2011 09:00:00 -2.92 C 2.38 g/m*3 -2.92 C 0 km/h
1211 07-03-2011 10:00:00 1.04 C 2.09 g/m*3 1.04 C 0 km/h
1212 07-03-2011 11:00:00 4.28 C 1.3 g/m*3 4.28 C 0 km/h
1213 07-03-2011 12:00:00 7.74 C 1.63 g/m*3 7.74 C 0 km/h
1214 07-03-2011 13:00:00 8.3 C 1.69 g/m*3 8.3 C 0 km/h
1215 07-03-2011 14:00:00 8.36 C 1.69 g/m*3 8.36 C 0 km/h
1216 07-03-2011 15:00:00 11 C 2 g/m*3 11 C 0 km/h
1217 07-03-2011 16:00:00 13.64 C 2.36 g/m*3 13.64 C 0 km/h
1218 07-03-2011 17:00:00 10.42 C 1.93 g/m*3 10.42 C 0 km/h
1219 07-03-2011 18:00:00 2.44 C 1.96 g/m*3 2.44 C 0 km/h
1220 07-03-2011 19:00:00 0.4 C 2.18 g/m*3 0.4 C 0 km/h
1221 07-03-2011 20:00:00 -0.44 C 2.15 g/m*3 -0.44 C 0 km/h
1222 07-03-2011 21:00:00 -0.38 C 2.14 g/m*3 -0.38 C 0 km/h
1223 07-03-2011 22:00:00 -1.28 C 2.12 g/m*3 -1.28 C 0 km/h
1224 07-03-2011 23:00:00 -1.74 C 2.14 g/m*3 -1.74 C 0 km/h
1225 08-03-2011 00:00:00 -3.42 C 2.09 g/m*3 -3.42 C 0 km/h
Sensor: Nr:Datum:Temp:Abs-Feuchte:Windchill:Wind:
Aussen-T/F 1226 08-03-2011 01:00:00 -4.4 C 2.1 g/m*3 -4.4 C 0 km/h
1227 08-03-2011 02:00:00 -5.04 C 2.01 g/m*3 -5.04 C 0 km/h
1228 08-03-2011 03:00:00 -5.9 C 2 g/m*3 -5.9 C 0 km/h
1229 08-03-2011 04:00:00 -6.24 C 2.07 g/m*3 -6.24 C 0 km/h
1230 08-03-2011 05:00:00 -5.76 C 2.04 g/m*3 -5.76 C 0 km/h
1231 08-03-2011 06:00:00 -6.36 C 1.97 g/m*3 -6.36 C 0 km/h
1232 08-03-2011 07:00:00 -5.98 C 2.1 g/m*3 -5.98 C 0 km/h
1233 08-03-2011 08:00:00 -5.08 C 2.2 g/m*3 -5.08 C 0 km/h
1234 08-03-2011 09:00:00 -3.56 C 2.34 g/m*3 -3.56 C 0 km/h
1235 08-03-2011 10:00:00 0.34 C 2.46 g/m*3 0.34 C 0 km/h
1236 08-03-2011 11:00:00 4.5 C 2.34 g/m*3 4.5 C 0 km/h
1237 08-03-2011 12:00:00 9.08 C 2.04 g/m*3 9.08 C 0 km/h
1238 08-03-2011 13:00:00 10.82 C 2 g/m*3 10.82 C 0 km/h
1239 08-03-2011 14:00:00 12.28 C 2.34 g/m*3 12.28 C 0 km/h
1240 08-03-2011 15:00:00 13.96 C 2.5 g/m*3 13.96 C 0 km/h
1241 08-03-2011 16:00:00 15.04 C 2.57 g/m*3 15.04 C 0 km/h
1242 08-03-2011 17:00:00 11.96 C 3.08 g/m*3 11.96 C 0 km/h
1243 08-03-2011 18:00:00 7.16 C 3.55 g/m*3 7.16 C 0 km/h
1244 08-03-2011 19:00:00 5.48 C 3.83 g/m*3 5.48 C 0 km/h
1245 08-03-2011 20:00:00 3.3 C 4.3 g/m*3 3.3 C 0 km/h
1246 08-03-2011 21:00:00 1.9 C 4.24 g/m*3 1.9 C 0 km/h
1247 08-03-2011 22:00:00 1.36 C 4.33 g/m*3 1.36 C 0 km/h
1248 08-03-2011 23:00:00 0.78 C 4.27 g/m*3 0.78 C 0 km/h
1249 09-03-2011 00:00:00 -0.46 C 4 g/m*3 -0.46 C 0 km/h
1250 09-03-2011 01:00:00 -0.68 C 4.02 g/m*3 -0.68 C 0 km/h
Sensor: Nr:Datum:Temp:Abs-Feuchte:Windchill:Wind:
Aussen-T/F 1251 09-03-2011 02:00:00 0.74 C 4.53 g/m*3 0.74 C 0 km/h
1252 09-03-2011 03:00:00 2.78 C 4.98 g/m*3 2.78 C 0 km/h
1253 09-03-2011 04:00:00 3.26 C 4.47 g/m*3 3.26 C 0 km/h
1254 09-03-2011 05:00:00 2.44 C 4.37 g/m*3 2.44 C 0 km/h
1255 09-03-2011 06:00:00 2.36 C 4.45 g/m*3 2.36 C 0 km/h
1256 09-03-2011 07:00:00 3 C 4.44 g/m*3 3 C 0 km/h
1257 09-03-2011 08:00:00 3.76 C 4.43 g/m*3 3.76 C 0 km/h
1258 09-03-2011 09:00:00 7.96 C 4.24 g/m*3 7.96 C 0 km/h
1259 09-03-2011 10:00:00 9.2 C 4.14 g/m*3 9.2 C 0 km/h
1260 09-03-2011 11:00:00 10.02 C 4.53 g/m*3 10.02 C 0 km/h
1261 09-03-2011 12:00:00 9.98 C 4.62 g/m*3 9.98 C 0 km/h
1262 09-03-2011 13:00:00 11.38 C 4.47 g/m*3 11.38 C 0 km/h
1263 09-03-2011 14:00:00 11.8 C 4.04 g/m*3 11.8 C 0 km/h
1264 09-03-2011 15:00:00 11.32 C 3.72 g/m*3 11.32 C 0 km/h
1265 09-03-2011 16:00:00 10.8 C 3.8 g/m*3 10.8 C 0 km/h
1266 09-03-2011 17:00:00 10.12 C 4.34 g/m*3 10.12 C 0 km/h
1267 09-03-2011 18:00:00 9.28 C 4.67 g/m*3 9.28 C 0 km/h
1268 09-03-2011 19:00:00 8.76 C 4.79 g/m*3 8.76 C 0 km/h
1269 09-03-2011 20:00:00 8.08 C 4.89 g/m*3 8.08 C 0 km/h
1270 09-03-2011 21:00:00 7.66 C 4.88 g/m*3 7.66 C 0 km/h
1271 09-03-2011 22:00:00 6.64 C 5.03 g/m*3 6.64 C 0 km/h
1272 09-03-2011 23:00:00 5.4 C 5.08 g/m*3 5.4 C 0 km/h
1273 10-03-2011 00:00:00 5.56 C 4.85 g/m*3 5.56 C 0 km/h
1274 10-03-2011 01:00:00 5.28 C 4.85 g/m*3 5.28 C 0 km/h
1275 10-03-2011 02:00:00 4.42 C 4.81 g/m*3 4.42 C 0 km/h
Sensor: Nr:Datum:Temp:Abs-Feuchte:Windchill:Wind:
Aussen-T/F 1276 10-03-2011 03:00:00 5.16 C 4.61 g/m*3 5.16 C 0 km/h
1277 10-03-2011 04:00:00 4.62 C 4.64 g/m*3 4.62 C 0 km/h
1278 10-03-2011 05:00:00 4.94 C 4.6 g/m*3 4.94 C 0 km/h
1279 10-03-2011 06:00:00 4.6 C 4.72 g/m*3 4.6 C 0 km/h
1280 10-03-2011 07:00:00 4.66 C 4.69 g/m*3 4.66 C 0 km/h
1281 10-03-2011 08:00:00 5.88 C 4.59 g/m*3 5.88 C 0 km/h
1282 10-03-2011 09:00:00 6.94 C 4.43 g/m*3 6.94 C 0 km/h
1283 10-03-2011 10:00:00 8.06 C 4.3 g/m*3 8.06 C 0 km/h
1284 10-03-2011 11:00:00 8.92 C 4.26 g/m*3 8.92 C 0 km/h
1285 10-03-2011 12:00:00 9.68 C 4.18 g/m*3 9.68 C 0 km/h
1286 10-03-2011 13:00:00 9.9 C 3.88 g/m*3 9.9 C 0 km/h
1287 10-03-2011 14:00:00 9.22 C 4.01 g/m*3 9.22 C 0 km/h
1288 10-03-2011 15:00:00 8.52 C 4.05 g/m*3 8.52 C 0 km/h
1289 10-03-2011 16:00:00 8.3 C 4.18 g/m*3 8.3 C 0 km/h
1290 10-03-2011 17:00:00 8.18 C 4.3 g/m*3 8.18 C 0 km/h
1291 10-03-2011 18:00:00 8.4 C 4.41 g/m*3 8.4 C 0 km/h
1292 10-03-2011 19:00:00 8.84 C 4.45 g/m*3 8.84 C 0 km/h
1293 10-03-2011 20:00:00 8.86 C 4.54 g/m*3 8.86 C 0 km/h
1294 10-03-2011 21:00:00 8.54 C 4.79 g/m*3 8.54 C 0 km/h
1295 10-03-2011 22:00:00 8.78 C 4.83 g/m*3 8.78 C 0 km/h
1296 10-03-2011 23:00:00 8.94 C 4.81 g/m*3 8.94 C 0 km/h
1297 11-03-2011 00:00:00 8.82 C 4.92 g/m*3 8.82 C 0 km/h
1298 11-03-2011 01:00:00 8.68 C 4.98 g/m*3 8.68 C 0 km/h
1299 11-03-2011 02:00:00 8.6 C 5.05 g/m*3 8.6 C 0 km/h
1300 11-03-2011 03:00:00 8.48 C 5.15 g/m*3 8.48 C 0 km/h
Sensor: Nr:Datum:Temp:Abs-Feuchte:Windchill:Wind:
Aussen-T/F 1301 11-03-2011 04:00:00 8.22 C 5.3 g/m*3 8.22 C 0 km/h
1302 11-03-2011 05:00:00 8.4 C 5.21 g/m*3 8.4 C 0 km/h
1303 11-03-2011 06:00:00 8.18 C 5.24 g/m*3 8.18 C 0 km/h
1304 11-03-2011 07:00:00 8.64 C 5.1 g/m*3 8.64 C 0 km/h
1305 11-03-2011 08:00:00 8.84 C 5.11 g/m*3 8.84 C 0 km/h
1306 11-03-2011 09:00:00 9.34 C 4.96 g/m*3 9.34 C 0 km/h
1307 11-03-2011 10:00:00 10.46 C 4.8 g/m*3 10.46 C 0 km/h
1308 11-03-2011 11:00:00 10.92 C 4.52 g/m*3 10.92 C 0 km/h
1309 11-03-2011 12:00:00 11.24 C 4.15 g/m*3 11.24 C 0 km/h
1310 11-03-2011 13:00:00 11.5 C 3.88 g/m*3 11.5 C 0 km/h
1311 11-03-2011 14:00:00 11.14 C 3.92 g/m*3 11.14 C 0 km/h
1312 11-03-2011 15:00:00 11.14 C 3.86 g/m*3 11.14 C 0 km/h
1313 11-03-2011 16:00:00 11.12 C 3.77 g/m*3 11.12 C 0 km/h
1314 11-03-2011 17:00:00 10.8 C 3.64 g/m*3 10.8 C 0 km/h
1315 11-03-2011 18:00:00 9.64 C 3.78 g/m*3 9.64 C 0 km/h
1316 11-03-2011 19:00:00 8.2 C 4.34 g/m*3 8.2 C 0 km/h
1317 11-03-2011 20:00:00 6.82 C 4.35 g/m*3 6.82 C 0 km/h
1318 11-03-2011 21:00:00 4.88 C 4.49 g/m*3 4.88 C 0 km/h
1319 11-03-2011 22:00:00 3.5 C 4.57 g/m*3 3.5 C 0 km/h
1320 11-03-2011 23:00:00 2.24 C 4.47 g/m*3 2.24 C 0 km/h
1321 12-03-2011 00:00:00 0.92 C 4.27 g/m*3 0.92 C 0 km/h
1322 12-03-2011 01:00:00 0.22 C 4.16 g/m*3 0.22 C 0 km/h
1323 12-03-2011 02:00:00 -0.32 C 4.09 g/m*3 -0.32 C 0 km/h
1324 12-03-2011 03:00:00 -0.74 C 4.01 g/m*3 -0.74 C 0 km/h
1325 12-03-2011 04:00:00 -1.24 C 3.9 g/m*3 -1.24 C 0 km/h
Sensor: Nr:Datum:Temp:Abs-Feuchte:Windchill:Wind:
Aussen-T/F 1326 12-03-2011 05:00:00 -1.62 C 3.81 g/m*3 -1.62 C 0 km/h
1327 12-03-2011 06:00:00 -1.96 C 3.73 g/m*3 -1.96 C 0 km/h
1328 12-03-2011 07:00:00 -2 C 3.75 g/m*3 -2 C 0 km/h
1329 12-03-2011 08:00:00 -0.32 C 4.26 g/m*3 -0.32 C 0 km/h
1330 12-03-2011 09:00:00 1.76 C 4.83 g/m*3 1.76 C 0 km/h
1331 12-03-2011 10:00:00 5.72 C 5.3 g/m*3 5.72 C 0 km/h
1332 12-03-2011 11:00:00 10.74 C 4.88 g/m*3 10.74 C 0 km/h
1333 12-03-2011 12:00:00 14.6 C 4.45 g/m*3 14.6 C 0 km/h
1334 12-03-2011 13:00:00 16.16 C 4.46 g/m*3 16.16 C 0 km/h
1335 12-03-2011 14:00:00 16.58 C 4.32 g/m*3 16.58 C 0 km/h
1336 12-03-2011 15:00:00 16.3 C 4.38 g/m*3 16.3 C 0 km/h
1337 12-03-2011 16:00:00 18.02 C 4.37 g/m*3 18.02 C 0 km/h
1338 12-03-2011 17:00:00 14.98 C 4.87 g/m*3 14.98 C 0 km/h
1339 12-03-2011 18:00:00 10.98 C 5.2 g/m*3 10.98 C 0 km/h
1340 12-03-2011 19:00:00 10.88 C 4.63 g/m*3 10.88 C 0 km/h
1341 12-03-2011 20:00:00 11.34 C 4.29 g/m*3 11.34 C 0 km/h
1342 12-03-2011 21:00:00 12.22 C 4.3 g/m*3 12.22 C 0 km/h
1343 12-03-2011 22:00:00 12.1 C 4.55 g/m*3 12.1 C 0 km/h
1344 12-03-2011 23:00:00 11.14 C 4.79 g/m*3 11.14 C 0 km/h
1345 13-03-2011 00:00:00 10.1 C 5.48 g/m*3 10.1 C 0 km/h
1346 13-03-2011 01:00:00 10.22 C 5.62 g/m*3 10.22 C 0 km/h
1347 13-03-2011 02:00:00 10.6 C 5.8 g/m*3 10.6 C 0 km/h
1348 13-03-2011 03:00:00 9.98 C 5.86 g/m*3 9.98 C 0 km/h
1349 13-03-2011 04:00:00 9.06 C 6.21 g/m*3 9.06 C 0 km/h
1350 13-03-2011 05:00:00 7.9 C 6.9 g/m*3 7.9 C 0 km/h
Sensor: Nr:Datum:Temp:Abs-Feuchte:Windchill:Wind:
Aussen-T/F 1351 13-03-2011 06:00:00 7.7 C 6.96 g/m*3 7.7 C 0 km/h
1352 13-03-2011 07:00:00 7.82 C 6.9 g/m*3 7.82 C 0 km/h
1353 13-03-2011 08:00:00 8.72 C 6.89 g/m*3 8.72 C 0 km/h
1354 13-03-2011 09:00:00 10.86 C 6.55 g/m*3 10.86 C 0 km/h
1355 13-03-2011 10:00:00 12.64 C 6.1 g/m*3 12.64 C 0 km/h
1356 13-03-2011 11:00:00 14.34 C 5.76 g/m*3 14.34 C 0 km/h
1357 13-03-2011 12:00:00 14.74 C 5.53 g/m*3 14.74 C 0 km/h
1358 13-03-2011 13:00:00 14.7 C 5.34 g/m*3 14.7 C 0 km/h
1359 13-03-2011 14:00:00 15.12 C 5.4 g/m*3 15.12 C 0 km/h
1360 13-03-2011 15:00:00 15.36 C 5.32 g/m*3 15.36 C 0 km/h
1361 13-03-2011 16:00:00 14.5 C 5.47 g/m*3 14.5 C 0 km/h
1362 13-03-2011 17:00:00 12.9 C 6.04 g/m*3 12.9 C 0 km/h
1363 13-03-2011 18:00:00 11.52 C 6.33 g/m*3 11.52 C 0 km/h
1364 13-03-2011 19:00:00 10.76 C 6.65 g/m*3 10.76 C 0 km/h
1365 13-03-2011 20:00:00 9.62 C 7.69 g/m*3 9.62 C 0 km/h
1366 13-03-2011 21:00:00 9.22 C 7.74 g/m*3 9.22 C 0 km/h
1367 13-03-2011 22:00:00 8.86 C 7.72 g/m*3 8.86 C 0 km/h
1368 13-03-2011 23:00:00 8.66 C 7.68 g/m*3 8.66 C 0 km/h
1369 14-03-2011 00:00:00 8.6 C 7.66 g/m*3 8.6 C 0 km/h
1370 14-03-2011 01:00:00 8.56 C 7.71 g/m*3 8.56 C 0 km/h
1371 14-03-2011 02:00:00 8.48 C 7.67 g/m*3 8.48 C 0 km/h
1372 14-03-2011 03:00:00 8.22 C 7.55 g/m*3 8.22 C 0 km/h
1373 14-03-2011 04:00:00 8.34 C 7.61 g/m*3 8.34 C 0 km/h
1374 14-03-2011 05:00:00 8.34 C 7.67 g/m*3 8.34 C 0 km/h
1375 14-03-2011 06:00:00 7.8 C 7.43 g/m*3 7.8 C 0 km/h
Sensor: Nr:Datum:Temp:Abs-Feuchte:Windchill:Wind:
Aussen-T/F 1376 14-03-2011 07:00:00 8.04 C 7.59 g/m*3 8.04 C 0 km/h
1377 14-03-2011 08:00:00 8.6 C 7.82 g/m*3 8.6 C 0 km/h
1378 14-03-2011 09:00:00 9.34 C 8.14 g/m*3 9.34 C 0 km/h
1379 14-03-2011 10:00:00 11.32 C 7.97 g/m*3 11.32 C 0 km/h
1380 14-03-2011 11:00:00 12.72 C 7.27 g/m*3 12.72 C 0 km/h
1381 14-03-2011 12:00:00 13.12 C 7.04 g/m*3 13.12 C 0 km/h
1382 14-03-2011 13:00:00 14.26 C 6.74 g/m*3 14.26 C 0 km/h
1383 14-03-2011 14:00:00 14 C 6.59 g/m*3 14 C 0 km/h
1384 14-03-2011 15:00:00 13.68 C 6.5 g/m*3 13.68 C 0 km/h
1385 14-03-2011 16:00:00 15.14 C 6.05 g/m*3 15.14 C 0 km/h
1386 14-03-2011 17:00:00 13.08 C 6.38 g/m*3 13.08 C 0 km/h
1387 14-03-2011 18:00:00 11.2 C 6.95 g/m*3 11.2 C 0 km/h
1388 14-03-2011 19:00:00 10.04 C 7.03 g/m*3 10.04 C 0 km/h
1389 14-03-2011 20:00:00 8.4 C 6.94 g/m*3 8.4 C 0 km/h
1390 14-03-2011 21:00:00 7.98 C 6.92 g/m*3 7.98 C 0 km/h
1391 14-03-2011 22:00:00 7.26 C 6.86 g/m*3 7.26 C 0 km/h
1392 14-03-2011 23:00:00 5.86 C 6.37 g/m*3 5.86 C 0 km/h
1393 15-03-2011 00:00:00 5.2 C 6.17 g/m*3 5.2 C 0 km/h
1394 15-03-2011 01:00:00 4.88 C 6.13 g/m*3 4.88 C 0 km/h
1395 15-03-2011 02:00:00 5.96 C 6.59 g/m*3 5.96 C 0 km/h
1396 15-03-2011 03:00:00 5.7 C 6.55 g/m*3 5.7 C 0 km/h
1397 15-03-2011 04:00:00 5.78 C 6.57 g/m*3 5.78 C 0 km/h
1398 15-03-2011 05:00:00 5.3 C 6.38 g/m*3 5.3 C 0 km/h
1399 15-03-2011 06:00:00 4.58 C 6.08 g/m*3 4.58 C 0 km/h
1400 15-03-2011 07:00:00 5 C 6.25 g/m*3 5 C 0 km/h
Sensor: Nr:Datum:Temp:Abs-Feuchte:Windchill:Wind:
Aussen-T/F 1401 15-03-2011 08:00:00 5.34 C 6.39 g/m*3 5.34 C 0 km/h
1402 15-03-2011 09:00:00 6.6 C 6.9 g/m*3 6.6 C 0 km/h
1403 15-03-2011 10:00:00 9.5 C 7.97 g/m*3 9.5 C 0 km/h
1404 15-03-2011 11:00:00 13.04 C 7.34 g/m*3 13.04 C 0 km/h
1405 15-03-2011 12:00:00 17.82 C 5.99 g/m*3 17.82 C 0 km/h
1406 15-03-2011 13:00:00 19.16 C 5.72 g/m*3 19.16 C 0 km/h
1407 15-03-2011 14:00:00 18.9 C 5.48 g/m*3 18.9 C 0 km/h
1408 15-03-2011 15:00:00 21.06 C 5.18 g/m*3 21.06 C 0 km/h
1409 15-03-2011 16:00:00 20.7 C 4.93 g/m*3 20.7 C 0 km/h
1410 15-03-2011 17:00:00 18.1 C 5.47 g/m*3 18.1 C 0 km/h
1411 15-03-2011 18:00:00 13.78 C 6.16 g/m*3 13.78 C 0 km/h
1412 15-03-2011 19:00:00 12.1 C 6.39 g/m*3 12.1 C 0 km/h
1413 15-03-2011 20:00:00 11.02 C 6.47 g/m*3 11.02 C 0 km/h
1414 15-03-2011 21:00:00 9.78 C 6.58 g/m*3 9.78 C 0 km/h
1415 15-03-2011 22:00:00 9.24 C 6.46 g/m*3 9.24 C 0 km/h
1416 15-03-2011 23:00:00 9.2 C 6.16 g/m*3 9.2 C 0 km/h
1417 16-03-2011 00:00:00 8.6 C 6.14 g/m*3 8.6 C 0 km/h
1418 16-03-2011 01:00:00 6.88 C 6.09 g/m*3 6.88 C 0 km/h
1419 16-03-2011 02:00:00 6.64 C 6.27 g/m*3 6.64 C 0 km/h
1420 16-03-2011 03:00:00 6.86 C 6.17 g/m*3 6.86 C 0 km/h
1421 16-03-2011 04:00:00 7.2 C 6 g/m*3 7.2 C 0 km/h
1422 16-03-2011 05:00:00 7.04 C 5.86 g/m*3 7.04 C 0 km/h
1423 16-03-2011 06:00:00 7.14 C 5.96 g/m*3 7.14 C 0 km/h
1424 16-03-2011 07:00:00 7.78 C 5.98 g/m*3 7.78 C 0 km/h
1425 16-03-2011 08:00:00 9.1 C 5.87 g/m*3 9.1 C 0 km/h
Sensor: Nr:Datum:Temp:Abs-Feuchte:Windchill:Wind:
Aussen-T/F 1426 16-03-2011 09:00:00 9.88 C 5.74 g/m*3 9.88 C 0 km/h
1427 16-03-2011 10:00:00 10.28 C 5.62 g/m*3 10.28 C 0 km/h
1428 16-03-2011 11:00:00 11.34 C 5.5 g/m*3 11.34 C 0 km/h
1429 16-03-2011 12:00:00 11.2 C 5.45 g/m*3 11.2 C 0 km/h
1430 16-03-2011 13:00:00 11.58 C 5.48 g/m*3 11.58 C 0 km/h
1431 16-03-2011 14:00:00 11.58 C 5.48 g/m*3 11.58 C 0 km/h
1432 16-03-2011 15:00:00 10.76 C 5.5 g/m*3 10.76 C 0 km/h
1433 16-03-2011 16:00:00 10.06 C 5.41 g/m*3 10.06 C 0 km/h
1434 16-03-2011 17:00:00 9.52 C 5.47 g/m*3 9.52 C 0 km/h
1435 16-03-2011 18:00:00 8.68 C 5.44 g/m*3 8.68 C 0 km/h
1436 16-03-2011 19:00:00 8.16 C 5.4 g/m*3 8.16 C 0 km/h
1437 16-03-2011 20:00:00 7.9 C 5.4 g/m*3 7.9 C 0 km/h
1438 16-03-2011 21:00:00 7.4 C 5.34 g/m*3 7.4 C 0 km/h
1439 16-03-2011 22:00:00 7.12 C 5.36 g/m*3 7.12 C 0 km/h
1440 16-03-2011 23:00:00 6.96 C 5.46 g/m*3 6.96 C 0 km/h
1441 17-03-2011 00:00:00 6.84 C 5.52 g/m*3 6.84 C 0 km/h
1442 17-03-2011 01:00:00 6.8 C 5.52 g/m*3 6.8 C 0 km/h
1443 17-03-2011 02:00:00 6.78 C 5.59 g/m*3 6.78 C 0 km/h
1444 17-03-2011 03:00:00 6.76 C 5.64 g/m*3 6.76 C 0 km/h
1445 17-03-2011 04:00:00 6.78 C 5.65 g/m*3 6.78 C 0 km/h
1446 17-03-2011 05:00:00 6.76 C 5.69 g/m*3 6.76 C 0 km/h
1447 17-03-2011 06:00:00 6.78 C 5.7 g/m*3 6.78 C 0 km/h
1448 17-03-2011 07:00:00 6.44 C 5.78 g/m*3 6.44 C 0 km/h
1449 17-03-2011 08:00:00 6.32 C 5.65 g/m*3 6.32 C 0 km/h
1450 17-03-2011 09:00:00 5.94 C 5.71 g/m*3 5.94 C 0 km/h
Sensor: Nr:Datum:Temp:Abs-Feuchte:Windchill:Wind:
Aussen-T/F 1451 17-03-2011 10:00:00 5.84 C 5.99 g/m*3 5.84 C 0 km/h
1452 17-03-2011 11:00:00 5.98 C 5.96 g/m*3 5.98 C 0 km/h
1453 17-03-2011 12:00:00 6.12 C 5.98 g/m*3 6.12 C 0 km/h
1454 17-03-2011 13:00:00 6.1 C 6.01 g/m*3 6.1 C 0 km/h
1455 17-03-2011 14:00:00 5.94 C 6.04 g/m*3 5.94 C 0 km/h
1456 17-03-2011 15:00:00 5.92 C 6.09 g/m*3 5.92 C 0 km/h
1457 17-03-2011 16:00:00 6 C 6.01 g/m*3 6 C 0 km/h
1458 17-03-2011 17:00:00 5.94 C 6.03 g/m*3 5.94 C 0 km/h
1459 17-03-2011 18:00:00 5.98 C 6.1 g/m*3 5.98 C 0 km/h
1460 17-03-2011 19:00:00 6.22 C 6.11 g/m*3 6.22 C 0 km/h
1461 17-03-2011 20:00:00 6.32 C 6.12 g/m*3 6.32 C 0 km/h
1462 17-03-2011 21:00:00 6.32 C 6.06 g/m*3 6.32 C 0 km/h
1463 17-03-2011 22:00:00 6.22 C 5.94 g/m*3 6.22 C 0 km/h
1464 17-03-2011 23:00:00 5.98 C 5.83 g/m*3 5.98 C 0 km/h
1465 18-03-2011 00:00:00 5.98 C 5.62 g/m*3 5.98 C 0 km/h
1466 18-03-2011 01:00:00 5.7 C 5.62 g/m*3 5.7 C 0 km/h
1467 18-03-2011 02:00:00 5.44 C 5.71 g/m*3 5.44 C 0 km/h
1468 18-03-2011 03:00:00 5.12 C 5.79 g/m*3 5.12 C 0 km/h
1469 18-03-2011 04:00:00 5.16 C 5.69 g/m*3 5.16 C 0 km/h
1470 18-03-2011 05:00:00 5.04 C 5.64 g/m*3 5.04 C 0 km/h
1471 18-03-2011 06:00:00 4.84 C 5.54 g/m*3 4.84 C 0 km/h
1472 18-03-2011 07:00:00 4.82 C 5.36 g/m*3 4.82 C 0 km/h
1473 18-03-2011 08:00:00 5.2 C 5.04 g/m*3 5.2 C 0 km/h
1474 18-03-2011 09:00:00 5.72 C 4.79 g/m*3 5.72 C 0 km/h
1475 18-03-2011 10:00:00 6.3 C 4.53 g/m*3 6.3 C 0 km/h
Sensor: Nr:Datum:Temp:Abs-Feuchte:Windchill:Wind:
Aussen-T/F 1476 18-03-2011 11:00:00 6.78 C 4.75 g/m*3 6.78 C 0 km/h
1477 18-03-2011 12:00:00 7.5 C 4.67 g/m*3 7.5 C 0 km/h
1478 18-03-2011 13:00:00 8.76 C 4.58 g/m*3 8.76 C 0 km/h
1479 18-03-2011 14:00:00 8.78 C 4.52 g/m*3 8.78 C 0 km/h
1480 18-03-2011 15:00:00 8.9 C 4.49 g/m*3 8.9 C 0 km/h
1481 18-03-2011 16:00:00 8.74 C 4.49 g/m*3 8.74 C 0 km/h
1482 18-03-2011 17:00:00 7.94 C 4.83 g/m*3 7.94 C 0 km/h
1483 18-03-2011 18:00:00 7.34 C 5.1 g/m*3 7.34 C 0 km/h
1484 18-03-2011 19:00:00 6.86 C 5.22 g/m*3 6.86 C 0 km/h
1485 18-03-2011 20:00:00 6.4 C 5.31 g/m*3 6.4 C 0 km/h
1486 18-03-2011 21:00:00 6.2 C 5.34 g/m*3 6.2 C 0 km/h
1487 18-03-2011 22:00:00 5.44 C 5.76 g/m*3 5.44 C 0 km/h
1488 18-03-2011 23:00:00 5.08 C 5.97 g/m*3 5.08 C 0 km/h
1489 19-03-2011 00:00:00 4.72 C 5.98 g/m*3 4.72 C 0 km/h
1490 19-03-2011 01:00:00 4.52 C 5.95 g/m*3 4.52 C 0 km/h
1491 19-03-2011 02:00:00 4.38 C 5.93 g/m*3 4.38 C 0 km/h
1492 19-03-2011 03:00:00 4.48 C 5.97 g/m*3 4.48 C 0 km/h
1493 19-03-2011 04:00:00 4.68 C 6.11 g/m*3 4.68 C 0 km/h
1494 19-03-2011 05:00:00 4.68 C 6.12 g/m*3 4.68 C 0 km/h
1495 19-03-2011 06:00:00 4.54 C 6.06 g/m*3 4.54 C 0 km/h
1496 19-03-2011 07:00:00 4.38 C 6 g/m*3 4.38 C 0 km/h
1497 19-03-2011 08:00:00 4.74 C 6.05 g/m*3 4.74 C 0 km/h
1498 19-03-2011 09:00:00 5.78 C 5.74 g/m*3 5.78 C 0 km/h
1499 19-03-2011 10:00:00 6.8 C 5.29 g/m*3 6.8 C 0 km/h
1500 19-03-2011 11:00:00 7.36 C 4.95 g/m*3 7.36 C 0 km/h
Sensor: Nr:Datum:Temp:Abs-Feuchte:Windchill:Wind:
Aussen-T/F 1501 19-03-2011 12:00:00 11.32 C 3.55 g/m*3 11.32 C 0 km/h
1502 19-03-2011 13:00:00 12.08 C 2.93 g/m*3 12.08 C 0 km/h
1503 19-03-2011 14:00:00 12.6 C 2.61 g/m*3 12.6 C 0 km/h
1504 19-03-2011 15:00:00 16 C 2.72 g/m*3 16 C 0 km/h
1505 19-03-2011 16:00:00 17.46 C 2.97 g/m*3 17.46 C 0 km/h
1506 19-03-2011 17:00:00 15.38 C 2.62 g/m*3 15.38 C 0 km/h
1507 19-03-2011 18:00:00 8.5 C 3.33 g/m*3 8.5 C 0 km/h
1508 19-03-2011 19:00:00 3.86 C 3.46 g/m*3 3.86 C 0 km/h
1509 19-03-2011 20:00:00 2.58 C 3.68 g/m*3 2.58 C 0 km/h
1510 19-03-2011 21:00:00 0.88 C 3.68 g/m*3 0.88 C 0 km/h
1511 19-03-2011 22:00:00 -0.76 C 3.58 g/m*3 -0.76 C 0 km/h
1512 19-03-2011 23:00:00 -1.84 C 3.38 g/m*3 -1.84 C 0 km/h
1513 20-03-2011 00:00:00 -2.44 C 3.35 g/m*3 -2.44 C 0 km/h
1514 20-03-2011 01:00:00 -2.86 C 3.32 g/m*3 -2.86 C 0 km/h
1515 20-03-2011 02:00:00 -3.3 C 3.27 g/m*3 -3.3 C 0 km/h
1516 20-03-2011 03:00:00 -3.62 C 3.23 g/m*3 -3.62 C 0 km/h
1517 20-03-2011 04:00:00 -3.86 C 3.19 g/m*3 -3.86 C 0 km/h
1518 20-03-2011 05:00:00 -3.78 C 3.25 g/m*3 -3.78 C 0 km/h
1519 20-03-2011 06:00:00 -3.72 C 3.3 g/m*3 -3.72 C 0 km/h
1520 20-03-2011 07:00:00 -3.76 C 3.3 g/m*3 -3.76 C 0 km/h
1521 20-03-2011 08:00:00 -2.52 C 3.63 g/m*3 -2.52 C 0 km/h
1522 20-03-2011 09:00:00 -0.6 C 4.13 g/m*3 -0.6 C 0 km/h
1523 20-03-2011 10:00:00 2.66 C 4.37 g/m*3 2.66 C 0 km/h
1524 20-03-2011 11:00:00 5.52 C 3.8 g/m*3 5.52 C 0 km/h
1525 20-03-2011 12:00:00 11.74 C 2.66 g/m*3 11.74 C 0 km/h
Sensor: Nr:Datum:Temp:Abs-Feuchte:Windchill:Wind:
Aussen-T/F 1526 20-03-2011 13:00:00 12.58 C 2.21 g/m*3 12.58 C 0 km/h
1527 20-03-2011 14:00:00 13.02 C 2.27 g/m*3 13.02 C 0 km/h
1528 20-03-2011 15:00:00 17.44 C 2.97 g/m*3 17.44 C 0 km/h
1529 20-03-2011 16:00:00 18.98 C 3.26 g/m*3 18.98 C 0 km/h
1530 20-03-2011 17:00:00 15.94 C 2.72 g/m*3 15.94 C 0 km/h
1531 20-03-2011 18:00:00 7.92 C 3.54 g/m*3 7.92 C 0 km/h
1532 20-03-2011 19:00:00 4.36 C 3.65 g/m*3 4.36 C 0 km/h
1533 20-03-2011 20:00:00 2.64 C 3.49 g/m*3 2.64 C 0 km/h
1534 20-03-2011 21:00:00 0.76 C 3.35 g/m*3 0.76 C 0 km/h
1535 20-03-2011 22:00:00 -0.44 C 3.25 g/m*3 -0.44 C 0 km/h
1536 20-03-2011 23:00:00 -1.26 C 3.18 g/m*3 -1.26 C 0 km/h
1537 21-03-2011 00:00:00 -1.64 C 3.21 g/m*3 -1.64 C 0 km/h
1538 21-03-2011 01:00:00 -2.5 C 3.15 g/m*3 -2.5 C 0 km/h
1539 21-03-2011 02:00:00 -2.62 C 3.28 g/m*3 -2.62 C 0 km/h
1540 21-03-2011 03:00:00 -3.08 C 3.25 g/m*3 -3.08 C 0 km/h
1541 21-03-2011 04:00:00 -3.5 C 3.2 g/m*3 -3.5 C 0 km/h
1542 21-03-2011 05:00:00 -3.86 C 3.15 g/m*3 -3.86 C 0 km/h
1543 21-03-2011 06:00:00 -3.94 C 3.16 g/m*3 -3.94 C 0 km/h
1544 21-03-2011 07:00:00 -3.22 C 3.36 g/m*3 -3.22 C 0 km/h
1545 21-03-2011 08:00:00 -2.12 C 3.63 g/m*3 -2.12 C 0 km/h
1546 21-03-2011 09:00:00 -0.64 C 3.87 g/m*3 -0.64 C 0 km/h
1547 21-03-2011 10:00:00 2.56 C 4.22 g/m*3 2.56 C 0 km/h
1548 21-03-2011 11:00:00 7.38 C 3.72 g/m*3 7.38 C 0 km/h
1549 21-03-2011 12:00:00 13.6 C 3.18 g/m*3 13.6 C 0 km/h
1550 21-03-2011 13:00:00 14.34 C 2.46 g/m*3 14.34 C 0 km/h
Sensor: Nr:Datum:Temp:Abs-Feuchte:Windchill:Wind:
Aussen-T/F 1551 21-03-2011 14:00:00 16.04 C 2.73 g/m*3 16.04 C 0 km/h
1552 21-03-2011 15:00:00 19.7 C 3.4 g/m*3 19.7 C 0 km/h
1553 21-03-2011 16:00:00 19.98 C 3.45 g/m*3 19.98 C 0 km/h
1554 21-03-2011 17:00:00 17.66 C 3.07 g/m*3 17.66 C 0 km/h
1555 21-03-2011 18:00:00 10.58 C 3.65 g/m*3 10.58 C 0 km/h
1556 21-03-2011 19:00:00 6.66 C 3.97 g/m*3 6.66 C 0 km/h
1557 21-03-2011 20:00:00 5.06 C 4.09 g/m*3 5.06 C 0 km/h
1558 21-03-2011 21:00:00 3.14 C 4.05 g/m*3 3.14 C 0 km/h
1559 21-03-2011 22:00:00 1.74 C 3.94 g/m*3 1.74 C 0 km/h
1560 21-03-2011 23:00:00 0.6 C 3.89 g/m*3 0.6 C 0 km/h
1561 22-03-2011 00:00:00 -0.16 C 3.78 g/m*3 -0.16 C 0 km/h
1562 22-03-2011 01:00:00 -0.86 C 3.75 g/m*3 -0.86 C 0 km/h
1563 22-03-2011 02:00:00 -1.36 C 3.72 g/m*3 -1.36 C 0 km/h
1564 22-03-2011 03:00:00 -1.86 C 3.62 g/m*3 -1.86 C 0 km/h
1565 22-03-2011 04:00:00 -2.24 C 3.55 g/m*3 -2.24 C 0 km/h
1566 22-03-2011 05:00:00 -2.56 C 3.53 g/m*3 -2.56 C 0 km/h
1567 22-03-2011 06:00:00 -2.22 C 3.67 g/m*3 -2.22 C 0 km/h
1568 22-03-2011 07:00:00 -2.12 C 3.72 g/m*3 -2.12 C 0 km/h
1569 22-03-2011 08:00:00 -0.94 C 4.08 g/m*3 -0.94 C 0 km/h
1570 22-03-2011 09:00:00 0.8 C 4.59 g/m*3 0.8 C 0 km/h
1571 22-03-2011 10:00:00 4.84 C 4.81 g/m*3 4.84 C 0 km/h
1572 22-03-2011 11:00:00 8.82 C 4.18 g/m*3 8.82 C 0 km/h
1573 22-03-2011 12:00:00 15.66 C 3.52 g/m*3 15.66 C 0 km/h
1574 22-03-2011 13:00:00 16.9 C 2.88 g/m*3 16.9 C 0 km/h
1575 22-03-2011 14:00:00 18.88 C 3.24 g/m*3 18.88 C 0 km/h
Sensor: Nr:Datum:Temp:Abs-Feuchte:Windchill:Wind:
Aussen-T/F 1576 22-03-2011 15:00:00 22.26 C 3.94 g/m*3 22.26 C 0 km/h
1577 22-03-2011 16:00:00 21.74 C 3.82 g/m*3 21.74 C 0 km/h
1578 22-03-2011 17:00:00 19.04 C 3.27 g/m*3 19.04 C 0 km/h
1579 22-03-2011 18:00:00 13.28 C 3.21 g/m*3 13.28 C 0 km/h
1580 22-03-2011 19:00:00 9.68 C 3.89 g/m*3 9.68 C 0 km/h
1581 22-03-2011 20:00:00 9.14 C 4.11 g/m*3 9.14 C 0 km/h
1582 22-03-2011 21:00:00 7.5 C 4.63 g/m*3 7.5 C 0 km/h
1583 22-03-2011 22:00:00 5.88 C 4.82 g/m*3 5.88 C 0 km/h
1584 22-03-2011 23:00:00 3.9 C 4.8 g/m*3 3.9 C 0 km/h
1585 23-03-2011 00:00:00 2.68 C 4.67 g/m*3 2.68 C 0 km/h
1586 23-03-2011 01:00:00 2.22 C 4.72 g/m*3 2.22 C 0 km/h
1587 23-03-2011 02:00:00 1.7 C 4.69 g/m*3 1.7 C 0 km/h
1588 23-03-2011 03:00:00 0.58 C 4.39 g/m*3 0.58 C 0 km/h
1589 23-03-2011 04:00:00 0.3 C 4.38 g/m*3 0.3 C 0 km/h
1590 23-03-2011 05:00:00 0.06 C 4.37 g/m*3 0.06 C 0 km/h
1591 23-03-2011 06:00:00 -0.1 C 4.37 g/m*3 -0.1 C 0 km/h
1592 23-03-2011 07:00:00 0.54 C 4.61 g/m*3 0.54 C 0 km/h
1593 23-03-2011 08:00:00 2.04 C 5.04 g/m*3 2.04 C 0 km/h
1594 23-03-2011 09:00:00 4.54 C 5.6 g/m*3 4.54 C 0 km/h
1595 23-03-2011 10:00:00 8.02 C 5.53 g/m*3 8.02 C 0 km/h
1596 23-03-2011 11:00:00 11.9 C 5.4 g/m*3 11.9 C 0 km/h
1597 23-03-2011 12:00:00 16.98 C 4.97 g/m*3 16.98 C 0 km/h
1598 23-03-2011 13:00:00 17.72 C 4.44 g/m*3 17.72 C 0 km/h
1599 23-03-2011 14:00:00 20.16 C 4.29 g/m*3 20.16 C 0 km/h
1600 23-03-2011 15:00:00 22.58 C 4.05 g/m*3 22.58 C 0 km/h
Sensor: Nr:Datum:Temp:Abs-Feuchte:Windchill:Wind:
Aussen-T/F 1601 23-03-2011 16:00:00 22.24 C 4.29 g/m*3 22.24 C 0 km/h
1602 23-03-2011 17:00:00 19.14 C 4.86 g/m*3 19.14 C 0 km/h
1603 23-03-2011 18:00:00 13.36 C 5.68 g/m*3 13.36 C 0 km/h
1604 23-03-2011 19:00:00 10.72 C 5.92 g/m*3 10.72 C 0 km/h
1605 23-03-2011 20:00:00 9.6 C 5.99 g/m*3 9.6 C 0 km/h
1606 23-03-2011 21:00:00 8.08 C 6 g/m*3 8.08 C 0 km/h
1607 23-03-2011 22:00:00 6.22 C 5.86 g/m*3 6.22 C 0 km/h
1608 23-03-2011 23:00:00 4.96 C 5.72 g/m*3 4.96 C 0 km/h
1609 24-03-2011 00:00:00 4.26 C 5.54 g/m*3 4.26 C 0 km/h
1610 24-03-2011 01:00:00 3.4 C 5.35 g/m*3 3.4 C 0 km/h
1611 24-03-2011 02:00:00 2.94 C 5.23 g/m*3 2.94 C 0 km/h
1612 24-03-2011 03:00:00 2.56 C 5.18 g/m*3 2.56 C 0 km/h
1613 24-03-2011 04:00:00 2.26 C 5.1 g/m*3 2.26 C 0 km/h
1614 24-03-2011 05:00:00 1.84 C 4.99 g/m*3 1.84 C 0 km/h
1615 24-03-2011 06:00:00 1.4 C 4.91 g/m*3 1.4 C 0 km/h
1616 24-03-2011 07:00:00 1.56 C 4.96 g/m*3 1.56 C 0 km/h
1617 24-03-2011 08:00:00 2.8 C 5.4 g/m*3 2.8 C 0 km/h
1618 24-03-2011 09:00:00 4.98 C 6.18 g/m*3 4.98 C 0 km/h
1619 24-03-2011 10:00:00 8.06 C 6.67 g/m*3 8.06 C 0 km/h
1620 24-03-2011 11:00:00 12.1 C 5.1 g/m*3 12.1 C 0 km/h
1621 24-03-2011 12:00:00 17.36 C 3.99 g/m*3 17.36 C 0 km/h
1622 24-03-2011 13:00:00 18.78 C 3.31 g/m*3 18.78 C 0 km/h
1623 24-03-2011 14:00:00 21.26 C 3.72 g/m*3 21.26 C 0 km/h
1624 24-03-2011 15:00:00 24.54 C 4.49 g/m*3 24.54 C 0 km/h
1625 24-03-2011 16:00:00 22.62 C 4.02 g/m*3 22.62 C 0 km/h
Sensor: Nr:Datum:Temp:Abs-Feuchte:Windchill:Wind:
Aussen-T/F 1626 24-03-2011 17:00:00 20.12 C 3.65 g/m*3 20.12 C 0 km/h
1627 24-03-2011 18:00:00 13.84 C 3.65 g/m*3 13.84 C 0 km/h
1628 24-03-2011 19:00:00 9.84 C 4.15 g/m*3 9.84 C 0 km/h
1629 24-03-2011 20:00:00 8 C 4.43 g/m*3 8 C 0 km/h
1630 24-03-2011 21:00:00 6.08 C 4.01 g/m*3 6.08 C 0 km/h
1631 24-03-2011 22:00:00 4.72 C 4 g/m*3 4.72 C 0 km/h
1632 24-03-2011 23:00:00 4.14 C 3.95 g/m*3 4.14 C 0 km/h
1633 25-03-2011 00:00:00 3.32 C 3.99 g/m*3 3.32 C 0 km/h
1634 25-03-2011 01:00:00 1.92 C 3.98 g/m*3 1.92 C 0 km/h
1635 25-03-2011 02:00:00 2.02 C 4.12 g/m*3 2.02 C 0 km/h
1636 25-03-2011 03:00:00 1.04 C 4.07 g/m*3 1.04 C 0 km/h
1637 25-03-2011 04:00:00 0.7 C 4.12 g/m*3 0.7 C 0 km/h
1638 25-03-2011 05:00:00 0.08 C 4.04 g/m*3 0.08 C 0 km/h
1639 25-03-2011 06:00:00 0.12 C 4.17 g/m*3 0.12 C 0 km/h
1640 25-03-2011 07:00:00 1 C 4.42 g/m*3 1 C 0 km/h
1641 25-03-2011 08:00:00 3.58 C 4.62 g/m*3 3.58 C 0 km/h
1642 25-03-2011 09:00:00 6.64 C 4.36 g/m*3 6.64 C 0 km/h
1643 25-03-2011 10:00:00 10.02 C 4.18 g/m*3 10.02 C 0 km/h
1644 25-03-2011 11:00:00 13.34 C 4.22 g/m*3 13.34 C 0 km/h
1645 25-03-2011 12:00:00 18.02 C 3.91 g/m*3 18.02 C 0 km/h
1646 25-03-2011 13:00:00 20.04 C 4.16 g/m*3 20.04 C 0 km/h
1647 25-03-2011 14:00:00 22.9 C 4.37 g/m*3 22.9 C 0 km/h
1648 25-03-2011 15:00:00 24.52 C 4.48 g/m*3 24.52 C 0 km/h
1649 25-03-2011 16:00:00 22.02 C 4.27 g/m*3 22.02 C 0 km/h
1650 25-03-2011 17:00:00 18.94 C 4.9 g/m*3 18.94 C 0 km/h
Sensor: Nr:Datum:Temp:Abs-Feuchte:Windchill:Wind:
Aussen-T/F 1651 25-03-2011 18:00:00 14.78 C 5.36 g/m*3 14.78 C 0 km/h
1652 25-03-2011 19:00:00 11.5 C 5.6 g/m*3 11.5 C 0 km/h
1653 25-03-2011 20:00:00 10.06 C 5.85 g/m*3 10.06 C 0 km/h
1654 25-03-2011 21:00:00 9.08 C 5.72 g/m*3 9.08 C 0 km/h
1655 25-03-2011 22:00:00 8.55 C 5.78 g/m*3 8.55 C 0 km/h
1656 25-03-2011 23:00:00 7.38 C 5.75 g/m*3 7.38 C 0 km/h
1657 26-03-2011 00:00:00 5.56 C 5.58 g/m*3 5.56 C 0 km/h
1658 26-03-2011 01:00:00 5.24 C 5.8 g/m*3 5.24 C 0 km/h
1659 26-03-2011 02:00:00 4.62 C 5.59 g/m*3 4.62 C 0 km/h
1660 26-03-2011 03:00:00 3.94 C 5.52 g/m*3 3.94 C 0 km/h
1661 26-03-2011 04:00:00 4.44 C 5.75 g/m*3 4.44 C 0 km/h
1662 26-03-2011 05:00:00 4.86 C 5.6 g/m*3 4.86 C 0 km/h
1663 26-03-2011 06:00:00 4.86 C 5.51 g/m*3 4.86 C 0 km/h
1664 26-03-2011 07:00:00 5.64 C 5.54 g/m*3 5.64 C 0 km/h
1665 26-03-2011 08:00:00 6.32 C 5.66 g/m*3 6.32 C 0 km/h
1666 26-03-2011 09:00:00 8.88 C 5.32 g/m*3 8.88 C 0 km/h
1667 26-03-2011 10:00:00 9.16 C 4.6 g/m*3 9.16 C 0 km/h
1668 26-03-2011 11:00:00 10.56 C 3.91 g/m*3 10.56 C 0 km/h
1669 26-03-2011 12:00:00 12.56 C 3.42 g/m*3 12.56 C 0 km/h
1670 26-03-2011 13:00:00 13.34 C 3.24 g/m*3 13.34 C 0 km/h
1671 26-03-2011 14:00:00 14.58 C 3.1 g/m*3 14.58 C 0 km/h
1672 26-03-2011 15:00:00 15.32 C 2.95 g/m*3 15.32 C 0 km/h
1673 26-03-2011 16:00:00 12.66 C 3.46 g/m*3 12.66 C 0 km/h
1674 26-03-2011 17:00:00 11.1 C 3.87 g/m*3 11.1 C 0 km/h
1675 26-03-2011 18:00:00 9.4 C 4.12 g/m*3 9.4 C 0 km/h
Sensor: Nr:Datum:Temp:Abs-Feuchte:Windchill:Wind:
Aussen-T/F 1676 26-03-2011 19:00:00 8 C 4.45 g/m*3 8 C 0 km/h
1677 26-03-2011 20:00:00 6.74 C 4.54 g/m*3 6.74 C 0 km/h
1678 26-03-2011 21:00:00 6.12 C 4.73 g/m*3 6.12 C 0 km/h
1679 26-03-2011 22:00:00 5.64 C 4.83 g/m*3 5.64 C 0 km/h
1680 26-03-2011 23:00:00 5.32 C 4.84 g/m*3 5.32 C 0 km/h
1681 27-03-2011 00:00:00 5.06 C 4.91 g/m*3 5.06 C 0 km/h
1682 27-03-2011 01:00:00 4.98 C 4.94 g/m*3 4.98 C 0 km/h
1683 27-03-2011 02:00:00 4.82 C 4.87 g/m*3 4.82 C 0 km/h
1684 27-03-2011 04:00:00 4.88 C 4.81 g/m*3 4.88 C 0 km/h
1685 27-03-2011 05:00:00 4.68 C 4.86 g/m*3 4.68 C 0 km/h
1686 27-03-2011 06:00:00 4.4 C 4.75 g/m*3 4.4 C 0 km/h
1687 27-03-2011 07:00:00 4.4 C 4.78 g/m*3 4.4 C 0 km/h
1688 27-03-2011 08:00:00 5.56 C 4.78 g/m*3 5.56 C 0 km/h
1689 27-03-2011 09:00:00 7.16 C 4.62 g/m*3 7.16 C 0 km/h
1690 27-03-2011 10:00:00 8.34 C 4.48 g/m*3 8.34 C 0 km/h
1691 27-03-2011 11:00:00 10.02 C 4.42 g/m*3 10.02 C 0 km/h
1692 27-03-2011 12:00:00 11.32 C 4.39 g/m*3 11.32 C 0 km/h
1693 27-03-2011 13:00:00 14.1 C 4.59 g/m*3 14.1 C 0 km/h
1694 27-03-2011 14:00:00 15.86 C 4.16 g/m*3 15.86 C 0 km/h
1695 27-03-2011 15:00:00 18.86 C 3.78 g/m*3 18.86 C 0 km/h
1696 27-03-2011 16:00:00 19.96 C 3.45 g/m*3 19.96 C 0 km/h
1697 27-03-2011 17:00:00 17.8 C 3.52 g/m*3 17.8 C 0 km/h
1698 27-03-2011 18:00:00 15.46 C 3.98 g/m*3 15.46 C 0 km/h
1699 27-03-2011 19:00:00 12.36 C 4.69 g/m*3 12.36 C 0 km/h
1700 27-03-2011 20:00:00 9.06 C 4.81 g/m*3 9.06 C 0 km/h
Sensor: Nr:Datum:Temp:Abs-Feuchte:Windchill:Wind:
Aussen-T/F 1701 27-03-2011 21:00:00 7.78 C 4.96 g/m*3 7.78 C 0 km/h
1702 27-03-2011 22:00:00 7.74 C 4.99 g/m*3 7.74 C 0 km/h
1703 27-03-2011 23:00:00 6.7 C 5.11 g/m*3 6.7 C 0 km/h
1704 28-03-2011 00:00:00 5.46 C 5.13 g/m*3 5.46 C 0 km/h
1705 28-03-2011 01:00:00 4 C 5 g/m*3 4 C 0 km/h
1706 28-03-2011 02:00:00 2.8 C 4.89 g/m*3 2.8 C 0 km/h
1707 28-03-2011 03:00:00 2.14 C 4.81 g/m*3 2.14 C 0 km/h
1708 28-03-2011 04:00:00 2.68 C 5.1 g/m*3 2.68 C 0 km/h
1709 28-03-2011 05:00:00 1.84 C 4.85 g/m*3 1.84 C 0 km/h
1710 28-03-2011 06:00:00 1.14 C 4.67 g/m*3 1.14 C 0 km/h
1711 28-03-2011 07:00:00 0.62 C 4.58 g/m*3 0.62 C 0 km/h
1712 28-03-2011 08:00:00 1.14 C 4.77 g/m*3 1.14 C 0 km/h
1713 28-03-2011 09:00:00 2.42 C 5.15 g/m*3 2.42 C 0 km/h
1714 28-03-2011 10:00:00 4.66 C 5.49 g/m*3 4.66 C 0 km/h
1715 28-03-2011 11:00:00 8.6 C 4.35 g/m*3 8.6 C 0 km/h
1716 28-03-2011 12:00:00 11.28 C 3.44 g/m*3 11.28 C 0 km/h
1717 28-03-2011 13:00:00 13.88 C 3.07 g/m*3 13.88 C 0 km/h
1718 28-03-2011 14:00:00 14.58 C 2.5 g/m*3 14.58 C 0 km/h
1719 28-03-2011 15:00:00 17.22 C 2.93 g/m*3 17.22 C 0 km/h
1720 28-03-2011 16:00:00 18.94 C 3.25 g/m*3 18.94 C 0 km/h
1721 28-03-2011 17:00:00 17.94 C 3.06 g/m*3 17.94 C 0 km/h
1722 28-03-2011 18:00:00 16.12 C 2.74 g/m*3 16.12 C 0 km/h
1723 28-03-2011 19:00:00 12.38 C 2.88 g/m*3 12.38 C 0 km/h
1724 28-03-2011 20:00:00 9.38 C 3.22 g/m*3 9.38 C 0 km/h
1725 28-03-2011 21:00:00 6.9 C 3.68 g/m*3 6.9 C 0 km/h
Sensor: Nr:Datum:Temp:Abs-Feuchte:Windchill:Wind:
Aussen-T/F 1726 28-03-2011 22:00:00 5.7 C 3.8 g/m*3 5.7 C 0 km/h
1727 28-03-2011 23:00:00 3.52 C 3.97 g/m*3 3.52 C 0 km/h
1728 29-03-2011 00:00:00 1.3 C 3.86 g/m*3 1.3 C 0 km/h
1729 29-03-2011 01:00:00 0.46 C 3.81 g/m*3 0.46 C 0 km/h
1730 29-03-2011 02:00:00 -0.34 C 3.7 g/m*3 -0.34 C 0 km/h
1731 29-03-2011 03:00:00 -0.84 C 3.72 g/m*3 -0.84 C 0 km/h
1732 29-03-2011 04:00:00 -1.46 C 3.67 g/m*3 -1.46 C 0 km/h
1733 29-03-2011 05:00:00 -2 C 3.58 g/m*3 -2 C 0 km/h
1734 29-03-2011 06:00:00 -2 C 3.66 g/m*3 -2 C 0 km/h
1735 29-03-2011 07:00:00 -2.22 C 3.64 g/m*3 -2.22 C 0 km/h
1736 29-03-2011 08:00:00 -1.64 C 3.8 g/m*3 -1.64 C 0 km/h
1737 29-03-2011 09:00:00 -0.24 C 4.21 g/m*3 -0.24 C 0 km/h
1738 29-03-2011 10:00:00 2.38 C 4.69 g/m*3 2.38 C 0 km/h
1739 29-03-2011 11:00:00 6.68 C 4.34 g/m*3 6.68 C 0 km/h
1740 29-03-2011 12:00:00 10.4 C 4.12 g/m*3 10.4 C 0 km/h
1741 29-03-2011 13:00:00 16.1 C 3.73 g/m*3 16.1 C 0 km/h
1742 29-03-2011 14:00:00 18.2 C 3.17 g/m*3 18.2 C 0 km/h
1743 29-03-2011 15:00:00 20.6 C 3.58 g/m*3 20.6 C 0 km/h
1744 29-03-2011 16:00:00 23.64 C 4.26 g/m*3 23.64 C 0 km/h
1745 29-03-2011 17:00:00 21.6 C 3.79 g/m*3 21.6 C 0 km/h
1746 29-03-2011 18:00:00 20.18 C 3.49 g/m*3 20.18 C 0 km/h
1747 29-03-2011 19:00:00 14.96 C 4.3 g/m*3 14.96 C 0 km/h
1748 29-03-2011 20:00:00 10.66 C 4.68 g/m*3 10.66 C 0 km/h
1749 29-03-2011 21:00:00 8.56 C 4.78 g/m*3 8.56 C 0 km/h
1750 29-03-2011 22:00:00 7.52 C 4.78 g/m*3 7.52 C 0 km/h
Sensor: Nr:Datum:Temp:Abs-Feuchte:Windchill:Wind:
Aussen-T/F 1751 29-03-2011 23:00:00 5.6 C 4.71 g/m*3 5.6 C 0 km/h
1752 30-03-2011 00:00:00 4.12 C 4.54 g/m*3 4.12 C 0 km/h
1753 30-03-2011 01:00:00 3.08 C 4.57 g/m*3 3.08 C 0 km/h
1754 30-03-2011 02:00:00 3.06 C 4.79 g/m*3 3.06 C 0 km/h
1755 30-03-2011 03:00:00 1.82 C 4.53 g/m*3 1.82 C 0 km/h
1756 30-03-2011 04:00:00 1.02 C 4.42 g/m*3 1.02 C 0 km/h
1757 30-03-2011 05:00:00 0.64 C 4.44 g/m*3 0.64 C 0 km/h
1758 30-03-2011 06:00:00 0.14 C 4.32 g/m*3 0.14 C 0 km/h
1759 30-03-2011 07:00:00 0.62 C 4.53 g/m*3 0.62 C 0 km/h
1760 30-03-2011 08:00:00 2.94 C 5.09 g/m*3 2.94 C 0 km/h
1761 30-03-2011 09:00:00 5.08 C 4.66 g/m*3 5.08 C 0 km/h
1762 30-03-2011 10:00:00 8.5 C 4.78 g/m*3 8.5 C 0 km/h
1763 30-03-2011 11:00:00 11.28 C 4.65 g/m*3 11.28 C 0 km/h
1764 30-03-2011 12:00:00 12.7 C 5.41 g/m*3 12.7 C 0 km/h
1765 30-03-2011 13:00:00 14.46 C 5.83 g/m*3 14.46 C 0 km/h
1766 30-03-2011 14:00:00 16.16 C 5.67 g/m*3 16.16 C 0 km/h
1767 30-03-2011 15:00:00 17.16 C 5.55 g/m*3 17.16 C 0 km/h
1768 30-03-2011 16:00:00 15.96 C 5.49 g/m*3 15.96 C 0 km/h
1769 30-03-2011 17:00:00 13.94 C 7.16 g/m*3 13.94 C 0 km/h
1770 30-03-2011 18:00:00 14.16 C 7.24 g/m*3 14.16 C 0 km/h
1771 30-03-2011 19:00:00 12.7 C 6.35 g/m*3 12.7 C 0 km/h
1772 30-03-2011 20:00:00 11.5 C 6.49 g/m*3 11.5 C 0 km/h
1773 30-03-2011 21:00:00 10.36 C 6.69 g/m*3 10.36 C 0 km/h
1774 30-03-2011 22:00:00 9.8 C 6.77 g/m*3 9.8 C 0 km/h
1775 30-03-2011 23:00:00 9.52 C 7 g/m*3 9.52 C 0 km/h
Sensor: Nr:Datum:Temp:Abs-Feuchte:Windchill:Wind:
Aussen-T/F 1776 31-03-2011 00:00:00 10.24 C 7.33 g/m*3 10.24 C 0 km/h
1777 31-03-2011 01:00:00 9.92 C 7.37 g/m*3 9.92 C 0 km/h
1778 31-03-2011 02:00:00 9.54 C 7.15 g/m*3 9.54 C 0 km/h
1779 31-03-2011 03:00:00 9.44 C 7.24 g/m*3 9.44 C 0 km/h
1780 31-03-2011 04:00:00 10.48 C 6.95 g/m*3 10.48 C 0 km/h
1781 31-03-2011 05:00:00 10.46 C 6.95 g/m*3 10.46 C 0 km/h
1782 31-03-2011 06:00:00 10.4 C 7.09 g/m*3 10.4 C 0 km/h
1783 31-03-2011 07:00:00 10.5 C 7.1 g/m*3 10.5 C 0 km/h
1784 31-03-2011 08:00:00 10.88 C 7.21 g/m*3 10.88 C 0 km/h
1785 31-03-2011 09:00:00 11.4 C 7.27 g/m*3 11.4 C 0 km/h
1786 31-03-2011 10:00:00 11.86 C 7.23 g/m*3 11.86 C 0 km/h
1787 31-03-2011 11:00:00 11.46 C 7.56 g/m*3 11.46 C 0 km/h
1788 31-03-2011 12:00:00 11.62 C 8.2 g/m*3 11.62 C 0 km/h
1789 31-03-2011 13:00:00 12.02 C 8.32 g/m*3 12.02 C 0 km/h
1790 31-03-2011 14:00:00 12.1 C 8.41 g/m*3 12.1 C 0 km/h
1791 31-03-2011 15:00:00 13.06 C 8.51 g/m*3 13.06 C 0 km/h
1792 31-03-2011 16:00:00 14.76 C 8.42 g/m*3 14.76 C 0 km/h
1793 31-03-2011 17:00:00 14.48 C 8.4 g/m*3 14.48 C 0 km/h
1794 31-03-2011 18:00:00 13.82 C 8.73 g/m*3 13.82 C 0 km/h
1795 31-03-2011 19:00:00 14.2 C 8.6 g/m*3 14.2 C 0 km/h
1796 31-03-2011 20:00:00 13.82 C 8.4 g/m*3 13.82 C 0 km/h
1797 31-03-2011 21:00:00 14.06 C 8.5 g/m*3 14.06 C 0 km/h
1798 31-03-2011 22:00:00 14.22 C 8.26 g/m*3 14.22 C 0 km/h
1799 31-03-2011 23:00:00 14.18 C 8.42 g/m*3 14.18 C 0 km/h
1800 01-04-2011 00:00:00 13.68 C 8.63 g/m*3 13.68 C 0 km/h
Sensor: Nr:Datum:Temp:Abs-Feuchte:Windchill:Wind:
Aussen-T/F 1801 01-04-2011 01:00:00 13.08 C 8.57 g/m*3 13.08 C 0 km/h
1802 01-04-2011 02:00:00 11.96 C 8.59 g/m*3 11.96 C 0 km/h
1803 01-04-2011 03:00:00 12.36 C 8.52 g/m*3 12.36 C 0 km/h
1804 01-04-2011 04:00:00 12.06 C 8.3 g/m*3 12.06 C 0 km/h
1805 01-04-2011 05:00:00 11.34 C 8.08 g/m*3 11.34 C 0 km/h
1806 01-04-2011 06:00:00 10.14 C 7.96 g/m*3 10.14 C 0 km/h
1807 01-04-2011 07:00:00 10.22 C 8.08 g/m*3 10.22 C 0 km/h
1808 01-04-2011 08:00:00 10.86 C 8.43 g/m*3 10.86 C 0 km/h
1809 01-04-2011 09:00:00 12.74 C 8.39 g/m*3 12.74 C 0 km/h
1810 01-04-2011 10:00:00 15.36 C 8 g/m*3 15.36 C 0 km/h
1811 01-04-2011 11:00:00 15.9 C 7.88 g/m*3 15.9 C 0 km/h
1812 01-04-2011 12:00:00 16.92 C 7.95 g/m*3 16.92 C 0 km/h
1813 01-04-2011 13:00:00 16.92 C 8.01 g/m*3 16.92 C 0 km/h
1814 01-04-2011 14:00:00 18.32 C 7.8 g/m*3 18.32 C 0 km/h
1815 01-04-2011 15:00:00 18.68 C 7.48 g/m*3 18.68 C 0 km/h
1816 01-04-2011 16:00:00 18.6 C 7.29 g/m*3 18.6 C 0 km/h
1817 01-04-2011 17:00:00 17.18 C 7.61 g/m*3 17.18 C 0 km/h
1818 01-04-2011 18:00:00 16.54 C 7.69 g/m*3 16.54 C 0 km/h
1819 01-04-2011 19:00:00 15.6 C 7.93 g/m*3 15.6 C 0 km/h
1820 01-04-2011 20:00:00 14.28 C 8.15 g/m*3 14.28 C 0 km/h
1821 01-04-2011 21:00:00 12.2 C 8.16 g/m*3 12.2 C 0 km/h
1822 01-04-2011 22:00:00 10.86 C 8.24 g/m*3 10.86 C 0 km/h
1823 01-04-2011 23:00:00 9.84 C 7.98 g/m*3 9.84 C 0 km/h
1824 02-04-2011 00:00:00 8.82 C 7.7 g/m*3 8.82 C 0 km/h
1825 02-04-2011 01:00:00 8.06 C 7.42 g/m*3 8.06 C 0 km/h
Sensor: Nr:Datum:Temp:Abs-Feuchte:Windchill:Wind:
Aussen-T/F 1826 02-04-2011 02:00:00 7.38 C 7.15 g/m*3 7.38 C 0 km/h
1827 02-04-2011 03:00:00 6.4 C 6.78 g/m*3 6.4 C 0 km/h
1828 02-04-2011 04:00:00 6.38 C 6.8 g/m*3 6.38 C 0 km/h
1829 02-04-2011 05:00:00 6.52 C 6.91 g/m*3 6.52 C 0 km/h
1830 02-04-2011 06:00:00 6.6 C 6.96 g/m*3 6.6 C 0 km/h
1831 02-04-2011 07:00:00 6.3 C 6.84 g/m*3 6.3 C 0 km/h
1832 02-04-2011 08:00:00 6.36 C 6.91 g/m*3 6.36 C 0 km/h
1833 02-04-2011 09:00:00 7.46 C 7.36 g/m*3 7.46 C 0 km/h
1834 02-04-2011 10:00:00 9 C 7.74 g/m*3 9 C 0 km/h
1835 02-04-2011 11:00:00 12.12 C 8.74 g/m*3 12.12 C 0 km/h
1836 02-04-2011 12:00:00 17.68 C 8.53 g/m*3 17.68 C 0 km/h
1837 02-04-2011 13:00:00 22.24 C 7.04 g/m*3 22.24 C 0 km/h
1838 02-04-2011 14:00:00 23.76 C 6.22 g/m*3 23.76 C 0 km/h
1839 02-04-2011 15:00:00 27.42 C 5.64 g/m*3 27.42 C 0 km/h
1840 02-04-2011 16:00:00 29.94 C 6.05 g/m*3 29.94 C 0 km/h
1841 02-04-2011 17:00:00 28.22 C 5.67 g/m*3 28.22 C 0 km/h
1842 02-04-2011 18:00:00 23.66 C 6.87 g/m*3 23.66 C 0 km/h
1843 02-04-2011 19:00:00 19.58 C 7.96 g/m*3 19.58 C 0 km/h
1844 02-04-2011 20:00:00 16.26 C 7.75 g/m*3 16.26 C 0 km/h
1845 02-04-2011 21:00:00 15.18 C 7.73 g/m*3 15.18 C 0 km/h
1846 02-04-2011 22:00:00 13.74 C 7.72 g/m*3 13.74 C 0 km/h
1847 02-04-2011 23:00:00 12.16 C 7.56 g/m*3 12.16 C 0 km/h
1848 03-04-2011 00:00:00 10.3 C 7.36 g/m*3 10.3 C 0 km/h
1849 03-04-2011 01:00:00 9.06 C 7.35 g/m*3 9.06 C 0 km/h
1850 03-04-2011 02:00:00 8.5 C 7.33 g/m*3 8.5 C 0 km/h
Sensor: Nr:Datum:Temp:Abs-Feuchte:Windchill:Wind:
Aussen-T/F 1851 03-04-2011 03:00:00 8.32 C 7.34 g/m*3 8.32 C 0 km/h
1852 03-04-2011 04:00:00 9 C 7.67 g/m*3 9 C 0 km/h
1853 03-04-2011 05:00:00 9.56 C 7.73 g/m*3 9.56 C 0 km/h
1854 03-04-2011 06:00:00 8.86 C 7.29 g/m*3 8.86 C 0 km/h
1855 03-04-2011 07:00:00 8.8 C 7.49 g/m*3 8.8 C 0 km/h
1856 03-04-2011 08:00:00 10.1 C 7.6 g/m*3 10.1 C 0 km/h
1857 03-04-2011 09:00:00 11.56 C 7.4 g/m*3 11.56 C 0 km/h
1858 03-04-2011 10:00:00 13.38 C 7.55 g/m*3 13.38 C 0 km/h
1859 03-04-2011 11:00:00 15.94 C 7.49 g/m*3 15.94 C 0 km/h
1860 03-04-2011 12:00:00 16.82 C 7.47 g/m*3 16.82 C 0 km/h
1861 03-04-2011 13:00:00 19 C 7.5 g/m*3 19 C 0 km/h
1862 03-04-2011 14:00:00 19.18 C 7.41 g/m*3 19.18 C 0 km/h
1863 03-04-2011 15:00:00 15.04 C 7.76 g/m*3 15.04 C 0 km/h
1864 03-04-2011 16:00:00 11.92 C 8.5 g/m*3 11.92 C 0 km/h
1865 03-04-2011 17:00:00 12.12 C 8.95 g/m*3 12.12 C 0 km/h
1866 03-04-2011 18:00:00 12.24 C 8.85 g/m*3 12.24 C 0 km/h
1867 03-04-2011 19:00:00 11.42 C 8.72 g/m*3 11.42 C 0 km/h
1868 03-04-2011 20:00:00 11 C 8.67 g/m*3 11 C 0 km/h
1869 03-04-2011 21:00:00 10.72 C 8.69 g/m*3 10.72 C 0 km/h
1870 03-04-2011 22:00:00 10.6 C 8.69 g/m*3 10.6 C 0 km/h
1871 03-04-2011 23:00:00 10.04 C 8.29 g/m*3 10.04 C 0 km/h
1872 04-04-2011 00:00:00 9.56 C 8.04 g/m*3 9.56 C 0 km/h
1873 04-04-2011 01:00:00 8.8 C 7.56 g/m*3 8.8 C 0 km/h
1874 04-04-2011 02:00:00 8.16 C 7.08 g/m*3 8.16 C 0 km/h
1875 04-04-2011 03:00:00 7.78 C 7.19 g/m*3 7.78 C 0 km/h
Sensor: Nr:Datum:Temp:Abs-Feuchte:Windchill:Wind:
Aussen-T/F 1876 04-04-2011 04:00:00 7.48 C 7.18 g/m*3 7.48 C 0 km/h
1877 04-04-2011 05:00:00 7.14 C 7.12 g/m*3 7.14 C 0 km/h
1878 04-04-2011 06:00:00 7.16 C 7.12 g/m*3 7.16 C 0 km/h
1879 04-04-2011 07:00:00 7.1 C 7.11 g/m*3 7.1 C 0 km/h
1880 04-04-2011 08:00:00 7.94 C 7.43 g/m*3 7.94 C 0 km/h
1881 04-04-2011 09:00:00 9.26 C 7.06 g/m*3 9.26 C 0 km/h
1882 04-04-2011 10:00:00 10.58 C 6.43 g/m*3 10.58 C 0 km/h
1883 04-04-2011 11:00:00 11.34 C 6.01 g/m*3 11.34 C 0 km/h
1884 04-04-2011 12:00:00 13.26 C 5.88 g/m*3 13.26 C 0 km/h
1885 04-04-2011 13:00:00 14.04 C 5.68 g/m*3 14.04 C 0 km/h
1886 04-04-2011 14:00:00 14.88 C 4.86 g/m*3 14.88 C 0 km/h
1887 04-04-2011 15:00:00 15.94 C 4.72 g/m*3 15.94 C 0 km/h
1888 04-04-2011 16:00:00 16.46 C 4.68 g/m*3 16.46 C 0 km/h
1889 04-04-2011 17:00:00 16.72 C 4.27 g/m*3 16.72 C 0 km/h
1890 04-04-2011 18:00:00 13.52 C 4.59 g/m*3 13.52 C 0 km/h
1891 04-04-2011 19:00:00 11.5 C 5.37 g/m*3 11.5 C 0 km/h
1892 04-04-2011 20:00:00 10.66 C 5.78 g/m*3 10.66 C 0 km/h
1893 04-04-2011 21:00:00 9.28 C 6.32 g/m*3 9.28 C 0 km/h
1894 04-04-2011 22:00:00 9.02 C 6.44 g/m*3 9.02 C 0 km/h
1895 04-04-2011 23:00:00 8.82 C 6.59 g/m*3 8.82 C 0 km/h
1896 05-04-2011 00:00:00 8.18 C 6.41 g/m*3 8.18 C 0 km/h
1897 05-04-2011 01:00:00 6.52 C 6.32 g/m*3 6.52 C 0 km/h
1898 05-04-2011 02:00:00 5.44 C 6.06 g/m*3 5.44 C 0 km/h
1899 05-04-2011 03:00:00 4.22 C 5.7 g/m*3 4.22 C 0 km/h
1900 05-04-2011 04:00:00 3.7 C 5.56 g/m*3 3.7 C 0 km/h
Sensor: Nr:Datum:Temp:Abs-Feuchte:Windchill:Wind:
Aussen-T/F 1901 05-04-2011 05:00:00 2.54 C 5.26 g/m*3 2.54 C 0 km/h
1902 05-04-2011 06:00:00 1.52 C 4.95 g/m*3 1.52 C 0 km/h
1903 05-04-2011 07:00:00 2.32 C 5.24 g/m*3 2.32 C 0 km/h
1904 05-04-2011 08:00:00 4.7 C 6.05 g/m*3 4.7 C 0 km/h
1905 05-04-2011 09:00:00 6.94 C 6.11 g/m*3 6.94 C 0 km/h
1906 05-04-2011 10:00:00 10.04 C 5.86 g/m*3 10.04 C 0 km/h
1907 05-04-2011 11:00:00 12.34 C 5.53 g/m*3 12.34 C 0 km/h
1908 05-04-2011 12:00:00 13.64 C 5.17 g/m*3 13.64 C 0 km/h
1909 05-04-2011 13:00:00 14.54 C 5.01 g/m*3 14.54 C 0 km/h
1910 05-04-2011 14:00:00 14.18 C 5.07 g/m*3 14.18 C 0 km/h
1911 05-04-2011 15:00:00 14.6 C 5.06 g/m*3 14.6 C 0 km/h
1912 05-04-2011 16:00:00 14.48 C 5.14 g/m*3 14.48 C 0 km/h
1913 05-04-2011 17:00:00 15.4 C 5.05 g/m*3 15.4 C 0 km/h
1914 05-04-2011 18:00:00 14.9 C 5 g/m*3 14.9 C 0 km/h
1915 05-04-2011 19:00:00 14.3 C 5.18 g/m*3 14.3 C 0 km/h
1916 05-04-2011 20:00:00 11.12 C 6.43 g/m*3 11.12 C 0 km/h
1917 05-04-2011 21:00:00 9.42 C 7.57 g/m*3 9.42 C 0 km/h
1918 05-04-2011 22:00:00 9.2 C 7.79 g/m*3 9.2 C 0 km/h
1919 05-04-2011 23:00:00 9.16 C 7.84 g/m*3 9.16 C 0 km/h
1920 06-04-2011 00:00:00 9.3 C 7.91 g/m*3 9.3 C 0 km/h
1921 06-04-2011 01:00:00 9.5 C 8.01 g/m*3 9.5 C 0 km/h
1922 06-04-2011 02:00:00 9.64 C 7.97 g/m*3 9.64 C 0 km/h
1923 06-04-2011 03:00:00 9.72 C 7.86 g/m*3 9.72 C 0 km/h
1924 06-04-2011 04:00:00 10.04 C 7.63 g/m*3 10.04 C 0 km/h
1925 06-04-2011 05:00:00 10.2 C 7.52 g/m*3 10.2 C 0 km/h
Sensor: Nr:Datum:Temp:Abs-Feuchte:Windchill:Wind:
Aussen-T/F 1926 06-04-2011 06:00:00 10.36 C 7.52 g/m*3 10.36 C 0 km/h
1927 06-04-2011 07:00:00 10.78 C 7.38 g/m*3 10.78 C 0 km/h
1928 06-04-2011 08:00:00 11.82 C 7.25 g/m*3 11.82 C 0 km/h
1929 06-04-2011 09:00:00 12.88 C 7.29 g/m*3 12.88 C 0 km/h
1930 06-04-2011 10:00:00 14.52 C 7.17 g/m*3 14.52 C 0 km/h
1931 06-04-2011 11:00:00 15.56 C 7.32 g/m*3 15.56 C 0 km/h
1932 06-04-2011 12:00:00 17.48 C 7.59 g/m*3 17.48 C 0 km/h
1933 06-04-2011 13:00:00 19.46 C 7.9 g/m*3 19.46 C 0 km/h
1934 06-04-2011 14:00:00 21.18 C 8.14 g/m*3 21.18 C 0 km/h
1935 06-04-2011 15:00:00 24.9 C 7.69 g/m*3 24.9 C 0 km/h
1936 06-04-2011 16:00:00 26.26 C 7.61 g/m*3 26.26 C 0 km/h
1937 06-04-2011 17:00:00 27.08 C 7.34 g/m*3 27.08 C 0 km/h
1938 06-04-2011 18:00:00 25.2 C 7.54 g/m*3 25.2 C 0 km/h
1939 06-04-2011 19:00:00 20.82 C 9.06 g/m*3 20.82 C 0 km/h
1940 06-04-2011 20:00:00 17.3 C 9.52 g/m*3 17.3 C 0 km/h
1941 06-04-2011 21:00:00 15.92 C 9.65 g/m*3 15.92 C 0 km/h
1942 06-04-2011 22:00:00 14.12 C 9.48 g/m*3 14.12 C 0 km/h
1943 06-04-2011 23:00:00 12.56 C 9.16 g/m*3 12.56 C 0 km/h
1944 07-04-2011 00:00:00 11.8 C 9.03 g/m*3 11.8 C 0 km/h
1945 07-04-2011 01:00:00 11.14 C 8.81 g/m*3 11.14 C 0 km/h
1946 07-04-2011 02:00:00 10.275 C 8.41 g/m*3 10.28 C 0 km/h
1947 07-04-2011 03:00:00 10.08 C 8.35 g/m*3 10.08 C 0 km/h
1948 07-04-2011 04:00:00 10.34 C 8.6 g/m*3 10.34 C 0 km/h
1949 07-04-2011 05:00:00 9.56 C 8.3 g/m*3 9.56 C 0 km/h
1950 07-04-2011 06:00:00 9.44 C 8.25 g/m*3 9.44 C 0 km/h
Sensor: Nr:Datum:Temp:Abs-Feuchte:Windchill:Wind:
Aussen-T/F 1951 07-04-2011 07:00:00 9.96 C 8.51 g/m*3 9.96 C 0 km/h
1952 07-04-2011 08:00:00 11.5 C 9.38 g/m*3 11.5 C 0 km/h
1953 07-04-2011 09:00:00 13.5 C 9.83 g/m*3 13.5 C 0 km/h
1954 07-04-2011 10:00:00 16.78 C 9.22 g/m*3 16.78 C 0 km/h
1955 07-04-2011 11:00:00 18.74 C 8.83 g/m*3 18.74 C 0 km/h
1956 07-04-2011 12:00:00 20.04 C 7.59 g/m*3 20.04 C 0 km/h
1957 07-04-2011 13:00:00 21.04 C 6.24 g/m*3 21.04 C 0 km/h
1958 07-04-2011 14:00:00 22.8 C 4.67 g/m*3 22.8 C 0 km/h
1959 07-04-2011 15:00:00 26.08 C 4.89 g/m*3 26.08 C 0 km/h
1960 07-04-2011 16:00:00 26.92 C 5.12 g/m*3 26.92 C 0 km/h
1961 07-04-2011 17:00:00 24.16 C 4.39 g/m*3 24.16 C 0 km/h
1962 07-04-2011 18:00:00 22.9 C 4.78 g/m*3 22.9 C 0 km/h
1963 07-04-2011 19:00:00 20.36 C 6 g/m*3 20.36 C 0 km/h
1964 07-04-2011 20:00:00 17.92 C 7.12 g/m*3 17.92 C 0 km/h
1965 07-04-2011 21:00:00 16.28 C 7.43 g/m*3 16.28 C 0 km/h
1966 07-04-2011 22:00:00 15.34 C 7.46 g/m*3 15.34 C 0 km/h
1967 07-04-2011 23:00:00 14.3 C 7.52 g/m*3 14.3 C 0 km/h
1968 08-04-2011 00:00:00 13.86 C 7.22 g/m*3 13.86 C 0 km/h
1969 08-04-2011 01:00:00 12.38 C 6.87 g/m*3 12.38 C 0 km/h
1970 08-04-2011 02:00:00 10.48 C 6.82 g/m*3 10.48 C 0 km/h
1971 08-04-2011 03:00:00 9.12 C 6.81 g/m*3 9.12 C 0 km/h
1972 08-04-2011 04:00:00 8.04 C 6.61 g/m*3 8.04 C 0 km/h
1973 08-04-2011 05:00:00 9 C 6.59 g/m*3 9 C 0 km/h
1974 08-04-2011 06:00:00 8.5 C 6.47 g/m*3 8.5 C 0 km/h
1975 08-04-2011 07:00:00 7.12 C 6.56 g/m*3 7.12 C 0 km/h
Sensor: Nr:Datum:Temp:Abs-Feuchte:Windchill:Wind:
Aussen-T/F 1976 08-04-2011 08:00:00 8.22 C 6.88 g/m*3 8.22 C 0 km/h
1977 08-04-2011 09:00:00 9.44 C 6.4 g/m*3 9.44 C 0 km/h
1978 08-04-2011 10:00:00 10.82 C 6.02 g/m*3 10.82 C 0 km/h
1979 08-04-2011 11:00:00 12.4 C 5.57 g/m*3 12.4 C 0 km/h
1980 08-04-2011 12:00:00 14.04 C 5.18 g/m*3 14.04 C 0 km/h
1981 08-04-2011 13:00:00 16.04 C 5.11 g/m*3 16.04 C 0 km/h
1982 08-04-2011 14:00:00 17.86 C 4.75 g/m*3 17.86 C 0 km/h
1983 08-04-2011 15:00:00 22.5 C 4.27 g/m*3 22.5 C 0 km/h
1984 08-04-2011 16:00:00 23.34 C 4.28 g/m*3 23.34 C 0 km/h
1985 08-04-2011 17:00:00 21.74 C 5.05 g/m*3 21.74 C 0 km/h
1986 08-04-2011 18:00:00 19.82 C 5.34 g/m*3 19.82 C 0 km/h
1987 08-04-2011 19:00:00 16.9 C 6.04 g/m*3 16.9 C 0 km/h
1988 08-04-2011 20:00:00 14.84 C 6.55 g/m*3 14.84 C 0 km/h
1989 08-04-2011 21:00:00 13.24 C 6.88 g/m*3 13.24 C 0 km/h
1990 08-04-2011 22:00:00 12.44 C 7.03 g/m*3 12.44 C 0 km/h
1991 08-04-2011 23:00:00 11.68 C 7.04 g/m*3 11.68 C 0 km/h
1992 09-04-2011 00:00:00 11.34 C 6.54 g/m*3 11.34 C 0 km/h
1993 09-04-2011 01:00:00 10.72 C 6.16 g/m*3 10.72 C 0 km/h
1994 09-04-2011 02:00:00 9.86 C 5.9 g/m*3 9.86 C 0 km/h
1995 09-04-2011 03:00:00 8.56 C 5.76 g/m*3 8.56 C 0 km/h
1996 09-04-2011 04:00:00 7.54 C 5.99 g/m*3 7.54 C 0 km/h
1997 09-04-2011 05:00:00 8.04 C 6.27 g/m*3 8.04 C 0 km/h
1998 09-04-2011 06:00:00 8.52 C 6.09 g/m*3 8.52 C 0 km/h
1999 09-04-2011 07:00:00 8.34 C 5.97 g/m*3 8.34 C 0 km/h
2000 09-04-2011 08:00:00 9.14 C 5.71 g/m*3 9.14 C 0 km/h
Sensor: Nr:Datum:Temp:Abs-Feuchte:Windchill:Wind:
Aussen-T/F 2001 09-04-2011 09:00:00 9.9 C 5.43 g/m*3 9.9 C 0 km/h
2002 09-04-2011 10:00:00 10.16 C 5.3 g/m*3 10.16 C 0 km/h
2003 09-04-2011 11:00:00 11.14 C 5.11 g/m*3 11.14 C 0 km/h
2004 09-04-2011 12:00:00 12.34 C 4.88 g/m*3 12.34 C 0 km/h
2005 09-04-2011 13:00:00 14.64 C 4.64 g/m*3 14.64 C 0 km/h
2006 09-04-2011 14:00:00 17.08 C 4.22 g/m*3 17.08 C 0 km/h
2007 09-04-2011 15:00:00 20.28 C 3.79 g/m*3 20.28 C 0 km/h
2008 09-04-2011 16:00:00 23.72 C 4.28 g/m*3 23.72 C 0 km/h
2009 09-04-2011 17:00:00 24.14 C 4.39 g/m*3 24.14 C 0 km/h
2010 09-04-2011 18:00:00 22.84 C 4.07 g/m*3 22.84 C 0 km/h
2011 09-04-2011 19:00:00 18.48 C 3.86 g/m*3 18.48 C 0 km/h
2012 09-04-2011 20:00:00 13.8 C 4.55 g/m*3 13.8 C 0 km/h
2013 09-04-2011 21:00:00 12.02 C 4.76 g/m*3 12.02 C 0 km/h
2014 09-04-2011 22:00:00 10.18 C 5.15 g/m*3 10.18 C 0 km/h
2015 09-04-2011 23:00:00 8.48 C 5.22 g/m*3 8.48 C 0 km/h
2016 10-04-2011 00:00:00 6.78 C 5.18 g/m*3 6.78 C 0 km/h
2017 10-04-2011 01:00:00 5.32 C 4.96 g/m*3 5.32 C 0 km/h
2018 10-04-2011 02:00:00 4.54 C 4.96 g/m*3 4.54 C 0 km/h
2019 10-04-2011 03:00:00 4.06 C 5.04 g/m*3 4.06 C 0 km/h
2020 10-04-2011 04:00:00 3.48 C 5.07 g/m*3 3.48 C 0 km/h
2021 10-04-2011 05:00:00 2.9 C 5 g/m*3 2.9 C 0 km/h
2022 10-04-2011 06:00:00 2.52 C 4.98 g/m*3 2.52 C 0 km/h
2023 10-04-2011 07:00:00 2.82 C 5.17 g/m*3 2.82 C 0 km/h
2024 10-04-2011 08:00:00 4.08 C 5.59 g/m*3 4.08 C 0 km/h
2025 10-04-2011 09:00:00 5.8 C 5.99 g/m*3 5.8 C 0 km/h
Sensor: Nr:Datum:Temp:Abs-Feuchte:Windchill:Wind:
Aussen-T/F 2026 10-04-2011 10:00:00 8.98 C 5.95 g/m*3 8.98 C 0 km/h
2027 10-04-2011 11:00:00 12.46 C 5.42 g/m*3 12.46 C 0 km/h
2028 10-04-2011 12:00:00 15.26 C 4.95 g/m*3 15.26 C 0 km/h
2029 10-04-2011 13:00:00 18.54 C 4.54 g/m*3 18.54 C 0 km/h
2030 10-04-2011 14:00:00 21.9 C 4.05 g/m*3 21.9 C 0 km/h
2031 10-04-2011 15:00:00 27.1 C 5.18 g/m*3 27.1 C 0 km/h
2032 10-04-2011 16:00:00 28.18 C 5.49 g/m*3 28.18 C 0 km/h
2033 10-04-2011 17:00:00 26.9 C 5.12 g/m*3 26.9 C 0 km/h
2034 10-04-2011 18:00:00 25.82 C 4.92 g/m*3 25.82 C 0 km/h
2035 10-04-2011 19:00:00 20.38 C 5.05 g/m*3 20.38 C 0 km/h
2036 10-04-2011 20:00:00 14.7 C 5.09 g/m*3 14.7 C 0 km/h
2037 10-04-2011 21:00:00 12.36 C 5.51 g/m*3 12.36 C 0 km/h
2038 10-04-2011 22:00:00 10.68 C 5.59 g/m*3 10.68 C 0 km/h
2039 10-04-2011 23:00:00 9.22 C 5.49 g/m*3 9.22 C 0 km/h
2040 11-04-2011 00:00:00 8.14 C 5.56 g/m*3 8.14 C 0 km/h
2041 11-04-2011 01:00:00 7.28 C 5.65 g/m*3 7.28 C 0 km/h
2042 11-04-2011 02:00:00 6.52 C 5.78 g/m*3 6.52 C 0 km/h
2043 11-04-2011 03:00:00 6.06 C 5.95 g/m*3 6.06 C 0 km/h
2044 11-04-2011 04:00:00 5.24 C 5.8 g/m*3 5.24 C 0 km/h
2045 11-04-2011 05:00:00 4.78 C 5.8 g/m*3 4.78 C 0 km/h
2046 11-04-2011 06:00:00 4.36 C 5.76 g/m*3 4.36 C 0 km/h
2047 11-04-2011 07:00:00 4.58 C 5.88 g/m*3 4.58 C 0 km/h
2048 11-04-2011 08:00:00 5.86 C 6.33 g/m*3 5.86 C 0 km/h
2049 11-04-2011 09:00:00 7.74 C 6.65 g/m*3 7.74 C 0 km/h
2050 11-04-2011 10:00:00 10.68 C 6.59 g/m*3 10.68 C 0 km/h
Sensor: Nr:Datum:Temp:Abs-Feuchte:Windchill:Wind:
Aussen-T/F 2051 11-04-2011 11:00:00 15.64 C 6.16 g/m*3 15.64 C 0 km/h
2052 11-04-2011 12:00:00 19.54 C 5.79 g/m*3 19.54 C 0 km/h
2053 11-04-2011 13:00:00 21.76 C 4.02 g/m*3 21.76 C 0 km/h
2054 11-04-2011 14:00:00 23.64 C 4.26 g/m*3 23.64 C 0 km/h
2055 11-04-2011 15:00:00 27.46 C 5.28 g/m*3 27.46 C 0 km/h
2056 11-04-2011 16:00:00 28.54 C 5.6 g/m*3 28.54 C 0 km/h
2057 11-04-2011 17:00:00 27.16 C 5.19 g/m*3 27.16 C 0 km/h
2058 11-04-2011 18:00:00 25.8 C 5.1 g/m*3 25.8 C 0 km/h
2059 11-04-2011 19:00:00 21.48 C 6.03 g/m*3 21.48 C 0 km/h
2060 11-04-2011 20:00:00 19.8 C 6.11 g/m*3 19.8 C 0 km/h
2061 11-04-2011 21:00:00 18.82 C 6.51 g/m*3 18.82 C 0 km/h
2062 11-04-2011 22:00:00 17.62 C 6.58 g/m*3 17.62 C 0 km/h
2063 11-04-2011 23:00:00 15.82 C 6.25 g/m*3 15.82 C 0 km/h
2064 12-04-2011 00:00:00 15.4 C 6.18 g/m*3 15.4 C 0 km/h
2065 12-04-2011 01:00:00 14.94 C 6.26 g/m*3 14.94 C 0 km/h
2066 12-04-2011 02:00:00 14.34 C 6.68 g/m*3 14.34 C 0 km/h
2067 12-04-2011 03:00:00 13.88 C 6.8 g/m*3 13.88 C 0 km/h
2068 12-04-2011 04:00:00 10.38 C 6.74 g/m*3 10.38 C 0 km/h
2069 12-04-2011 05:00:00 9.4 C 6.44 g/m*3 9.4 C 0 km/h
2070 12-04-2011 06:00:00 9.12 C 6.06 g/m*3 9.12 C 0 km/h
2071 12-04-2011 07:00:00 8.58 C 5.89 g/m*3 8.58 C 0 km/h
2072 12-04-2011 08:00:00 9.58 C 5.76 g/m*3 9.58 C 0 km/h
2073 12-04-2011 09:00:00 10.2 C 5.71 g/m*3 10.2 C 0 km/h
2074 12-04-2011 10:00:00 10.02 C 5.08 g/m*3 10.02 C 0 km/h
2075 12-04-2011 11:00:00 10.54 C 5.02 g/m*3 10.54 C 0 km/h
Sensor: Nr:Datum:Temp:Abs-Feuchte:Windchill:Wind:
Aussen-T/F 2076 12-04-2011 12:00:00 9.52 C 5.16 g/m*3 9.52 C 0 km/h
2077 12-04-2011 13:00:00 9.38 C 5.17 g/m*3 9.38 C 0 km/h
2078 12-04-2011 14:00:00 9.22 C 5.4 g/m*3 9.22 C 0 km/h
2079 12-04-2011 15:00:00 12.3 C 4.58 g/m*3 12.3 C 0 km/h
2080 12-04-2011 16:00:00 11.96 C 5.1 g/m*3 11.96 C 0 km/h
2081 12-04-2011 17:00:00 11.18 C 4.9 g/m*3 11.18 C 0 km/h
2082 12-04-2011 18:00:00 12.48 C 5.58 g/m*3 12.48 C 0 km/h
2083 12-04-2011 19:00:00 9.1 C 5.31 g/m*3 9.1 C 0 km/h
2084 12-04-2011 20:00:00 7.6 C 3.98 g/m*3 7.6 C 0 km/h
2085 12-04-2011 21:00:00 6.8 C 3.98 g/m*3 6.8 C 0 km/h
2086 12-04-2011 22:00:00 5.54 C 4.38 g/m*3 5.54 C 0 km/h
2087 12-04-2011 23:00:00 5.24 C 4.67 g/m*3 5.24 C 0 km/h
2088 13-04-2011 00:00:00 4.6 C 4.45 g/m*3 4.6 C 0 km/h
2089 13-04-2011 01:00:00 4.66 C 4.54 g/m*3 4.66 C 0 km/h
2090 13-04-2011 02:00:00 3.32 C 4.73 g/m*3 3.32 C 0 km/h
2091 13-04-2011 03:00:00 2.48 C 4.72 g/m*3 2.48 C 0 km/h
2092 13-04-2011 04:00:00 1.74 C 4.72 g/m*3 1.74 C 0 km/h
2093 13-04-2011 05:00:00 1.9 C 4.86 g/m*3 1.9 C 0 km/h
2094 13-04-2011 06:00:00 1.74 C 4.8 g/m*3 1.74 C 0 km/h
2095 13-04-2011 07:00:00 2.06 C 4.87 g/m*3 2.06 C 0 km/h
2096 13-04-2011 08:00:00 2.9 C 4.97 g/m*3 2.9 C 0 km/h
2097 13-04-2011 09:00:00 5.86 C 4.83 g/m*3 5.86 C 0 km/h
2098 13-04-2011 10:00:00 9.02 C 4.03 g/m*3 9.02 C 0 km/h
2099 13-04-2011 11:00:00 10.28 C 3.75 g/m*3 10.28 C 0 km/h
2100 13-04-2011 12:00:00 11.32 C 3.37 g/m*3 11.32 C 0 km/h
Sensor: Nr:Datum:Temp:Abs-Feuchte:Windchill:Wind:
Aussen-T/F 2101 13-04-2011 13:00:00 13.2 C 3.08 g/m*3 13.2 C 0 km/h
2102 13-04-2011 14:00:00 13.96 C 2.55 g/m*3 13.96 C 0 km/h
2103 13-04-2011 15:00:00 15.24 C 2.73 g/m*3 15.24 C 0 km/h
2104 13-04-2011 16:00:00 13.22 C 3.01 g/m*3 13.22 C 0 km/h
2105 13-04-2011 17:00:00 13.24 C 3.18 g/m*3 13.24 C 0 km/h
2106 13-04-2011 18:00:00 12.72 C 3.23 g/m*3 12.72 C 0 km/h
2107 13-04-2011 19:00:00 10.66 C 3.9 g/m*3 10.66 C 0 km/h
2108 13-04-2011 20:00:00 8.3 C 4 g/m*3 8.3 C 0 km/h
2109 13-04-2011 21:00:00 7.76 C 3.97 g/m*3 7.76 C 0 km/h
2110 13-04-2011 22:00:00 6.48 C 4.43 g/m*3 6.48 C 0 km/h
2111 13-04-2011 23:00:00 5.76 C 4.6 g/m*3 5.76 C 0 km/h
2112 14-04-2011 00:00:00 4.44 C 4.56 g/m*3 4.44 C 0 km/h
2113 14-04-2011 01:00:00 3.92 C 4.67 g/m*3 3.92 C 0 km/h
2114 14-04-2011 02:00:00 3.12 C 4.65 g/m*3 3.12 C 0 km/h
2115 14-04-2011 03:00:00 2.7 C 4.77 g/m*3 2.7 C 0 km/h
2116 14-04-2011 04:00:00 3.66 C 4.82 g/m*3 3.66 C 0 km/h
2117 14-04-2011 05:00:00 3.76 C 4.71 g/m*3 3.76 C 0 km/h
2118 14-04-2011 06:00:00 3.9 C 4.79 g/m*3 3.9 C 0 km/h
2119 14-04-2011 07:00:00 4.52 C 4.9 g/m*3 4.52 C 0 km/h
2120 14-04-2011 08:00:00 5.46 C 4.92 g/m*3 5.46 C 0 km/h
2121 14-04-2011 09:00:00 7.18 C 4.7 g/m*3 7.18 C 0 km/h
2122 14-04-2011 10:00:00 9.08 C 4.68 g/m*3 9.08 C 0 km/h
2123 14-04-2011 11:00:00 11 C 3.86 g/m*3 11 C 0 km/h
2124 14-04-2011 12:00:00 13.82 C 3.27 g/m*3 13.82 C 0 km/h
2125 14-04-2011 13:00:00 14.28 C 3.02 g/m*3 14.28 C 0 km/h
Sensor: Nr:Datum:Temp:Abs-Feuchte:Windchill:Wind:
Aussen-T/F 2126 14-04-2011 14:00:00 15.04 C 2.91 g/m*3 15.04 C 0 km/h
2127 14-04-2011 15:00:00 14.88 C 2.9 g/m*3 14.88 C 0 km/h
2128 14-04-2011 16:00:00 15.38 C 2.83 g/m*3 15.38 C 0 km/h
2129 14-04-2011 17:00:00 15.04 C 2.6 g/m*3 15.04 C 0 km/h
2130 14-04-2011 18:00:00 14.26 C 2.77 g/m*3 14.26 C 0 km/h
2131 14-04-2011 19:00:00 12.3 C 3.67 g/m*3 12.3 C 0 km/h
2132 14-04-2011 20:00:00 7.56 C 4.26 g/m*3 7.56 C 0 km/h
2133 14-04-2011 21:00:00 6.04 C 4.5 g/m*3 6.04 C 0 km/h
2134 14-04-2011 22:00:00 4.64 C 4.49 g/m*3 4.64 C 0 km/h
2135 14-04-2011 23:00:00 3.28 C 4.5 g/m*3 3.28 C 0 km/h
2136 15-04-2011 00:00:00 2.52 C 4.58 g/m*3 2.52 C 0 km/h
2137 15-04-2011 01:00:00 2.78 C 4.79 g/m*3 2.78 C 0 km/h
2138 15-04-2011 02:00:00 3.22 C 4.75 g/m*3 3.22 C 0 km/h
2139 15-04-2011 03:00:00 1.68 C 4.45 g/m*3 1.68 C 0 km/h
2140 15-04-2011 04:00:00 0.82 C 4.42 g/m*3 0.82 C 0 km/h
2141 15-04-2011 05:00:00 0.76 C 4.49 g/m*3 0.76 C 0 km/h
2142 15-04-2011 06:00:00 -0.1 C 4.25 g/m*3 -0.1 C 0 km/h
2143 15-04-2011 07:00:00 0.18 C 4.39 g/m*3 0.18 C 0 km/h
2144 15-04-2011 08:00:00 1.1 C 4.71 g/m*3 1.1 C 0 km/h
2145 15-04-2011 09:00:00 2.74 C 5.25 g/m*3 2.74 C 0 km/h
2146 15-04-2011 10:00:00 5.96 C 6.1 g/m*3 5.96 C 0 km/h
2147 15-04-2011 11:00:00 10.18 C 4.51 g/m*3 10.18 C 0 km/h
2148 15-04-2011 12:00:00 12.22 C 2.96 g/m*3 12.22 C 0 km/h
2149 15-04-2011 13:00:00 15.04 C 2.57 g/m*3 15.04 C 0 km/h
2150 15-04-2011 14:00:00 17.48 C 2.98 g/m*3 17.48 C 0 km/h
Sensor: Nr:Datum:Temp:Abs-Feuchte:Windchill:Wind:
Aussen-T/F 2151 15-04-2011 15:00:00 17.5 C 2.98 g/m*3 17.5 C 0 km/h
2152 15-04-2011 16:00:00 16.44 C 2.8 g/m*3 16.44 C 0 km/h
2153 15-04-2011 17:00:00 16.1 C 2.74 g/m*3 16.1 C 0 km/h
2154 15-04-2011 18:00:00 17.54 C 2.99 g/m*3 17.54 C 0 km/h
2155 15-04-2011 19:00:00 11.56 C 3.61 g/m*3 11.56 C 0 km/h
2156 15-04-2011 20:00:00 7.7 C 3.97 g/m*3 7.7 C 0 km/h
2157 15-04-2011 21:00:00 6.42 C 4.09 g/m*3 6.42 C 0 km/h
2158 15-04-2011 22:00:00 5.08 C 4.14 g/m*3 5.08 C 0 km/h
2159 15-04-2011 23:00:00 3.54 C 4.32 g/m*3 3.54 C 0 km/h
2160 16-04-2011 00:00:00 2.34 C 4.24 g/m*3 2.34 C 0 km/h
2161 16-04-2011 01:00:00 1.52 C 4.3 g/m*3 1.52 C 0 km/h
2162 16-04-2011 02:00:00 1 C 4.33 g/m*3 1 C 0 km/h
2163 16-04-2011 03:00:00 0.3 C 4.24 g/m*3 0.3 C 0 km/h
2164 16-04-2011 04:00:00 -0.12 C 4.18 g/m*3 -0.12 C 0 km/h
2165 16-04-2011 05:00:00 0.72 C 4.54 g/m*3 0.72 C 0 km/h
2166 16-04-2011 06:00:00 1.94 C 4.83 g/m*3 1.94 C 0 km/h
2167 16-04-2011 07:00:00 2.62 C 4.69 g/m*3 2.62 C 0 km/h
2168 16-04-2011 08:00:00 3.94 C 4.6 g/m*3 3.94 C 0 km/h
2169 16-04-2011 09:00:00 6.02 C 4.46 g/m*3 6.02 C 0 km/h
2170 16-04-2011 10:00:00 7.92 C 4.31 g/m*3 7.92 C 0 km/h
2171 16-04-2011 11:00:00 10.8 C 4.67 g/m*3 10.8 C 0 km/h
2172 16-04-2011 12:00:00 15.08 C 3.58 g/m*3 15.08 C 0 km/h
2173 16-04-2011 13:00:00 16.12 C 2.74 g/m*3 16.12 C 0 km/h
2174 16-04-2011 14:00:00 16.8 C 2.86 g/m*3 16.8 C 0 km/h
2175 16-04-2011 15:00:00 15.1 C 2.63 g/m*3 15.1 C 0 km/h
Sensor: Nr:Datum:Temp:Abs-Feuchte:Windchill:Wind:
Aussen-T/F 2176 16-04-2011 16:00:00 15.7 C 2.81 g/m*3 15.7 C 0 km/h
2177 16-04-2011 17:00:00 15.28 C 3.21 g/m*3 15.28 C 0 km/h
2178 16-04-2011 18:00:00 12.9 C 4.33 g/m*3 12.9 C 0 km/h
2179 16-04-2011 19:00:00 11.66 C 4.49 g/m*3 11.66 C 0 km/h
2180 16-04-2011 20:00:00 10.28 C 4.28 g/m*3 10.28 C 0 km/h
2181 16-04-2011 21:00:00 9.76 C 4.61 g/m*3 9.76 C 0 km/h
2182 16-04-2011 22:00:00 9.12 C 4.55 g/m*3 9.12 C 0 km/h
2183 16-04-2011 23:00:00 8.72 C 4.78 g/m*3 8.72 C 0 km/h
2184 17-04-2011 00:00:00 8.32 C 4.78 g/m*3 8.32 C 0 km/h
2185 17-04-2011 01:00:00 7.62 C 4.86 g/m*3 7.62 C 0 km/h
2186 17-04-2011 02:00:00 7.36 C 4.79 g/m*3 7.36 C 0 km/h
2187 17-04-2011 03:00:00 7.16 C 4.96 g/m*3 7.16 C 0 km/h
2188 17-04-2011 04:00:00 6.96 C 5.18 g/m*3 6.96 C 0 km/h
2189 17-04-2011 05:00:00 6.86 C 5.34 g/m*3 6.86 C 0 km/h
2190 17-04-2011 06:00:00 6.68 C 5.37 g/m*3 6.68 C 0 km/h
2191 17-04-2011 07:00:00 7.04 C 5.61 g/m*3 7.04 C 0 km/h
2192 17-04-2011 08:00:00 8.1 C 5.67 g/m*3 8.1 C 0 km/h
2193 17-04-2011 09:00:00 9.44 C 5.57 g/m*3 9.44 C 0 km/h
2194 17-04-2011 10:00:00 11.66 C 5.13 g/m*3 11.66 C 0 km/h
2195 17-04-2011 11:00:00 14.5 C 4.6 g/m*3 14.5 C 0 km/h
2196 17-04-2011 12:00:00 16.56 C 3.64 g/m*3 16.56 C 0 km/h
2197 17-04-2011 13:00:00 18.9 C 3.24 g/m*3 18.9 C 0 km/h
2198 17-04-2011 14:00:00 21.06 C 3.68 g/m*3 21.06 C 0 km/h
2199 17-04-2011 15:00:00 18.48 C 3.16 g/m*3 18.48 C 0 km/h
2200 17-04-2011 16:00:00 18.98 C 3.26 g/m*3 18.98 C 0 km/h
Sensor: Nr:Datum:Temp:Abs-Feuchte:Windchill:Wind:
Aussen-T/F 2201 17-04-2011 17:00:00 18.64 C 3.19 g/m*3 18.64 C 0 km/h
2202 17-04-2011 18:00:00 16.54 C 2.93 g/m*3 16.54 C 0 km/h
2203 17-04-2011 19:00:00 14.24 C 3.89 g/m*3 14.24 C 0 km/h
2204 17-04-2011 20:00:00 11.64 C 3.9 g/m*3 11.64 C 0 km/h
2205 17-04-2011 21:00:00 9.18 C 3.96 g/m*3 9.18 C 0 km/h
2206 17-04-2011 22:00:00 7.22 C 4.28 g/m*3 7.22 C 0 km/h
2207 17-04-2011 23:00:00 5.72 C 4.32 g/m*3 5.72 C 0 km/h
2208 18-04-2011 00:00:00 4.86 C 4.48 g/m*3 4.86 C 0 km/h
2209 18-04-2011 01:00:00 3.76 C 4.44 g/m*3 3.76 C 0 km/h
2210 18-04-2011 02:00:00 2.68 C 4.49 g/m*3 2.68 C 0 km/h
2211 18-04-2011 03:00:00 2.06 C 4.56 g/m*3 2.06 C 0 km/h
2212 18-04-2011 04:00:00 1.42 C 4.5 g/m*3 1.42 C 0 km/h
2213 18-04-2011 05:00:00 0.98 C 4.47 g/m*3 0.98 C 0 km/h
2214 18-04-2011 06:00:00 0.72 C 4.48 g/m*3 0.72 C 0 km/h
2215 18-04-2011 07:00:00 1.3 C 4.7 g/m*3 1.3 C 0 km/h
2216 18-04-2011 08:00:00 2.7 C 5.14 g/m*3 2.7 C 0 km/h
2217 18-04-2011 09:00:00 4.56 C 5.68 g/m*3 4.56 C 0 km/h
2218 18-04-2011 10:00:00 8.08 C 6.03 g/m*3 8.08 C 0 km/h
2219 18-04-2011 11:00:00 12.02 C 5.34 g/m*3 12.02 C 0 km/h
2220 18-04-2011 12:00:00 15.86 C 3.86 g/m*3 15.86 C 0 km/h
2221 18-04-2011 13:00:00 19.24 C 3.64 g/m*3 19.24 C 0 km/h
2222 18-04-2011 14:00:00 23.64 C 4.26 g/m*3 23.64 C 0 km/h
2223 18-04-2011 15:00:00 24.52 C 4.48 g/m*3 24.52 C 0 km/h
2224 18-04-2011 16:00:00 26.1 C 4.9 g/m*3 26.1 C 0 km/h
2225 18-04-2011 17:00:00 25.44 C 4.72 g/m*3 25.44 C 0 km/h
Sensor: Nr:Datum:Temp:Abs-Feuchte:Windchill:Wind:
Aussen-T/F 2226 18-04-2011 18:00:00 23.54 C 4.24 g/m*3 23.54 C 0 km/h
2227 18-04-2011 19:00:00 18.26 C 4.46 g/m*3 18.26 C 0 km/h
2228 18-04-2011 20:00:00 12.92 C 4.63 g/m*3 12.92 C 0 km/h
2229 18-04-2011 21:00:00 10.72 C 4.76 g/m*3 10.72 C 0 km/h
2230 18-04-2011 22:00:00 9.275 C 5 g/m*3 9.28 C 0 km/h
2231 18-04-2011 23:00:00 7.86 C 5.03 g/m*3 7.86 C 0 km/h
2232 19-04-2011 00:00:00 6.42 C 5.07 g/m*3 6.42 C 0 km/h
2233 19-04-2011 01:00:00 5.3 C 5.03 g/m*3 5.3 C 0 km/h
2234 19-04-2011 02:00:00 4.46 C 5.01 g/m*3 4.46 C 0 km/h
2235 19-04-2011 03:00:00 3.74 C 5 g/m*3 3.74 C 0 km/h
2236 19-04-2011 04:00:00 3.16 C 5.01 g/m*3 3.16 C 0 km/h
2237 19-04-2011 05:00:00 2.5 C 4.91 g/m*3 2.5 C 0 km/h
2238 19-04-2011 06:00:00 2.22 C 4.93 g/m*3 2.22 C 0 km/h
2239 19-04-2011 07:00:00 2.64 C 5.14 g/m*3 2.64 C 0 km/h
2240 19-04-2011 08:00:00 3.76 C 5.54 g/m*3 3.76 C 0 km/h
2241 19-04-2011 09:00:00 5.42 C 6.15 g/m*3 5.42 C 0 km/h
2242 19-04-2011 10:00:00 8.58 C 6.8 g/m*3 8.58 C 0 km/h
2243 19-04-2011 11:00:00 12.76 C 6.26 g/m*3 12.76 C 0 km/h
2244 19-04-2011 12:00:00 17.58 C 4.7 g/m*3 17.58 C 0 km/h
2245 19-04-2011 13:00:00 20.42 C 4.18 g/m*3 20.42 C 0 km/h
2246 19-04-2011 14:00:00 26.44 C 4.99 g/m*3 26.44 C 0 km/h
2247 19-04-2011 15:00:00 28.6 C 5.62 g/m*3 28.6 C 0 km/h
2248 19-04-2011 16:00:00 28.78 C 5.68 g/m*3 28.78 C 0 km/h
2249 19-04-2011 17:00:00 28.68 C 5.65 g/m*3 28.68 C 0 km/h
2250 19-04-2011 18:00:00 27.58 C 5.31 g/m*3 27.58 C 0 km/h
Sensor: Nr:Datum:Temp:Abs-Feuchte:Windchill:Wind:
Aussen-T/F 2251 19-04-2011 19:00:00 22.26 C 4.65 g/m*3 22.26 C 0 km/h
2252 19-04-2011 20:00:00 15.18 C 4.62 g/m*3 15.18 C 0 km/h
2253 19-04-2011 21:00:00 12.64 C 4.88 g/m*3 12.64 C 0 km/h
2254 19-04-2011 22:00:00 10.86 C 5.24 g/m*3 10.86 C 0 km/h
2255 19-04-2011 23:00:00 9.04 C 5.16 g/m*3 9.04 C 0 km/h
2256 20-04-2011 00:00:00 7.48 C 5.29 g/m*3 7.48 C 0 km/h
2257 20-04-2011 01:00:00 6.52 C 5.29 g/m*3 6.52 C 0 km/h
2258 20-04-2011 02:00:00 5.74 C 5.28 g/m*3 5.74 C 0 km/h
2259 20-04-2011 03:00:00 4.7 C 5.33 g/m*3 4.7 C 0 km/h
2260 20-04-2011 04:00:00 4.02 C 5.32 g/m*3 4.02 C 0 km/h
2261 20-04-2011 05:00:00 3.48 C 5.32 g/m*3 3.48 C 0 km/h
2262 20-04-2011 06:00:00 3.06 C 5.23 g/m*3 3.06 C 0 km/h
2263 20-04-2011 07:00:00 3.38 C 5.4 g/m*3 3.38 C 0 km/h
2264 20-04-2011 08:00:00 4.5 C 5.84 g/m*3 4.5 C 0 km/h
2265 20-04-2011 09:00:00 6.08 C 6.36 g/m*3 6.08 C 0 km/h
2266 20-04-2011 10:00:00 8.94 C 7.03 g/m*3 8.94 C 0 km/h
2267 20-04-2011 11:00:00 12.54 C 6.99 g/m*3 12.54 C 0 km/h
2268 20-04-2011 12:00:00 17.52 C 5.97 g/m*3 17.52 C 0 km/h
2269 20-04-2011 13:00:00 21.7 C 3.85 g/m*3 21.7 C 0 km/h
2270 20-04-2011 14:00:00 26.94 C 5.13 g/m*3 26.94 C 0 km/h
2271 20-04-2011 15:00:00 28.82 C 5.69 g/m*3 28.82 C 0 km/h
2272 20-04-2011 16:00:00 29.3 C 5.84 g/m*3 29.3 C 0 km/h
2273 20-04-2011 17:00:00 30.08 C 6.09 g/m*3 30.08 C 0 km/h
2274 20-04-2011 18:00:00 27.62 C 5.33 g/m*3 27.62 C 0 km/h
2275 20-04-2011 19:00:00 22.44 C 5.22 g/m*3 22.44 C 0 km/h
Sensor: Nr:Datum:Temp:Abs-Feuchte:Windchill:Wind:
Aussen-T/F 2276 20-04-2011 20:00:00 15.9 C 4.98 g/m*3 15.9 C 0 km/h
2277 20-04-2011 21:00:00 13.3 C 5.04 g/m*3 13.3 C 0 km/h
2278 20-04-2011 22:00:00 11.48 C 5.1 g/m*3 11.48 C 0 km/h
2279 20-04-2011 23:00:00 9.64 C 5.22 g/m*3 9.64 C 0 km/h
2280 21-04-2011 00:00:00 8.66 C 5.26 g/m*3 8.66 C 0 km/h
2281 21-04-2011 01:00:00 8.08 C 5.45 g/m*3 8.08 C 0 km/h
2282 21-04-2011 02:00:00 7.02 C 5.48 g/m*3 7.02 C 0 km/h
2283 21-04-2011 03:00:00 6.42 C 5.63 g/m*3 6.42 C 0 km/h
2284 21-04-2011 04:00:00 5.62 C 5.65 g/m*3 5.62 C 0 km/h
2285 21-04-2011 05:00:00 4.86 C 5.57 g/m*3 4.86 C 0 km/h
2286 21-04-2011 06:00:00 4.68 C 5.67 g/m*3 4.68 C 0 km/h
2287 21-04-2011 07:00:00 5.18 C 5.94 g/m*3 5.18 C 0 km/h
2288 21-04-2011 08:00:00 6.24 C 6.37 g/m*3 6.24 C 0 km/h
2289 21-04-2011 09:00:00 8.56 C 6.98 g/m*3 8.56 C 0 km/h
2290 21-04-2011 10:00:00 11.76 C 6.7 g/m*3 11.76 C 0 km/h
2291 21-04-2011 11:00:00 15.18 C 6.46 g/m*3 15.18 C 0 km/h
2292 21-04-2011 12:00:00 17.8 C 6.74 g/m*3 17.8 C 0 km/h
2293 21-04-2011 13:00:00 20.9 C 6.16 g/m*3 20.9 C 0 km/h
2294 21-04-2011 14:00:00 29.96 C 6.05 g/m*3 29.96 C 0 km/h
2295 21-04-2011 15:00:00 31.4 C 6.54 g/m*3 31.4 C 0 km/h
2296 21-04-2011 16:00:00 30.8 C 6.33 g/m*3 30.8 C 0 km/h
2297 21-04-2011 17:00:00 31.1 C 6.43 g/m*3 31.1 C 0 km/h
2298 21-04-2011 18:00:00 23.04 C 5.56 g/m*3 23.04 C 0 km/h
2299 21-04-2011 19:00:00 18.72 C 5.64 g/m*3 18.72 C 0 km/h
2300 21-04-2011 20:00:00 15.6 C 5.82 g/m*3 15.6 C 0 km/h
Sensor: Nr:Datum:Temp:Abs-Feuchte:Windchill:Wind:
Aussen-T/F 2301 21-04-2011 21:00:00 13.46 C 5.9 g/m*3 13.46 C 0 km/h
2302 21-04-2011 22:00:00 12.12 C 5.88 g/m*3 12.12 C 0 km/h
2303 21-04-2011 23:00:00 10.68 C 6.08 g/m*3 10.68 C 0 km/h
2304 22-04-2011 00:00:00 9.58 C 6.15 g/m*3 9.58 C 0 km/h
2305 22-04-2011 01:00:00 9 C 6.31 g/m*3 9 C 0 km/h
2306 22-04-2011 02:00:00 8.3 C 6.44 g/m*3 8.3 C 0 km/h
2307 22-04-2011 03:00:00 7.44 C 6.46 g/m*3 7.44 C 0 km/h
2308 22-04-2011 04:00:00 6.84 C 6.49 g/m*3 6.84 C 0 km/h
2309 22-04-2011 05:00:00 6.34 C 6.43 g/m*3 6.34 C 0 km/h
2310 22-04-2011 06:00:00 5.98 C 6.36 g/m*3 5.98 C 0 km/h
2311 22-04-2011 07:00:00 6.52 C 6.67 g/m*3 6.52 C 0 km/h
2312 22-04-2011 08:00:00 7.62 C 7.08 g/m*3 7.62 C 0 km/h
2313 22-04-2011 09:00:00 9.56 C 7.84 g/m*3 9.56 C 0 km/h
2314 22-04-2011 10:00:00 12.44 C 8.65 g/m*3 12.44 C 0 km/h
2315 22-04-2011 11:00:00 15.8 C 8.21 g/m*3 15.8 C 0 km/h
2316 22-04-2011 12:00:00 19.26 C 7.74 g/m*3 19.26 C 0 km/h
2317 22-04-2011 13:00:00 23.48 C 5.24 g/m*3 23.48 C 0 km/h
2318 22-04-2011 14:00:00 29.48 C 5.9 g/m*3 29.48 C 0 km/h
2319 22-04-2011 15:00:00 31.16 C 6.46 g/m*3 31.16 C 0 km/h
2320 22-04-2011 16:00:00 30.32 C 6.17 g/m*3 30.32 C 0 km/h
2321 22-04-2011 17:00:00 29 C 5.74 g/m*3 29 C 0 km/h
2322 22-04-2011 18:00:00 29.72 C 5.97 g/m*3 29.72 C 0 km/h
2323 22-04-2011 19:00:00 25.08 C 6.01 g/m*3 25.08 C 0 km/h
2324 22-04-2011 20:00:00 19.14 C 6.24 g/m*3 19.14 C 0 km/h
2325 22-04-2011 21:00:00 17.26 C 6.11 g/m*3 17.26 C 0 km/h
Sensor: Nr:Datum:Temp:Abs-Feuchte:Windchill:Wind:
Aussen-T/F 2326 22-04-2011 22:00:00 16.48 C 5.97 g/m*3 16.48 C 0 km/h
2327 22-04-2011 23:00:00 16.62 C 6.39 g/m*3 16.62 C 0 km/h
2328 23-04-2011 00:00:00 13.46 C 9.73 g/m*3 13.46 C 0 km/h
2329 23-04-2011 01:00:00 12.34 C 9.49 g/m*3 12.34 C 0 km/h
2330 23-04-2011 02:00:00 11.32 C 8.99 g/m*3 11.32 C 0 km/h
2331 23-04-2011 03:00:00 10.38 C 8.53 g/m*3 10.38 C 0 km/h
2332 23-04-2011 04:00:00 10.84 C 8.88 g/m*3 10.84 C 0 km/h
2333 23-04-2011 05:00:00 11.3 C 9.16 g/m*3 11.3 C 0 km/h
2334 23-04-2011 06:00:00 10.96 C 8.99 g/m*3 10.96 C 0 km/h
2335 23-04-2011 07:00:00 11.16 C 9.12 g/m*3 11.16 C 0 km/h
2336 23-04-2011 08:00:00 13 C 10.18 g/m*3 13 C 0 km/h
2337 23-04-2011 09:00:00 14.38 C 10.72 g/m*3 14.38 C 0 km/h
2338 23-04-2011 10:00:00 15.06 C 10.94 g/m*3 15.06 C 0 km/h
2339 23-04-2011 11:00:00 17.2 C 10.43 g/m*3 17.2 C 0 km/h
2340 23-04-2011 12:00:00 19.96 C 7.24 g/m*3 19.96 C 0 km/h
2341 23-04-2011 13:00:00 23.94 C 5.25 g/m*3 23.94 C 0 km/h
2342 23-04-2011 14:00:00 30.62 C 6.27 g/m*3 30.62 C 0 km/h
2343 23-04-2011 15:00:00 31.56 C 6.6 g/m*3 31.56 C 0 km/h
2344 23-04-2011 16:00:00 31.88 C 6.71 g/m*3 31.88 C 0 km/h
2345 23-04-2011 17:00:00 30.98 C 6.39 g/m*3 30.98 C 0 km/h
2346 23-04-2011 18:00:00 30.12 C 6.1 g/m*3 30.12 C 0 km/h
2347 23-04-2011 19:00:00 24.44 C 6.42 g/m*3 24.44 C 0 km/h
2348 23-04-2011 20:00:00 18.26 C 5.96 g/m*3 18.26 C 0 km/h
2349 23-04-2011 21:00:00 15.72 C 5.92 g/m*3 15.72 C 0 km/h
2350 23-04-2011 22:00:00 14.88 C 6.59 g/m*3 14.88 C 0 km/h
Sensor: Nr:Datum:Temp:Abs-Feuchte:Windchill:Wind:
Aussen-T/F 2351 23-04-2011 23:00:00 14.5 C 6.84 g/m*3 14.5 C 0 km/h
2352 24-04-2011 00:00:00 13.14 C 7.05 g/m*3 13.14 C 0 km/h
2353 24-04-2011 01:00:00 11.28 C 6.89 g/m*3 11.28 C 0 km/h
2354 24-04-2011 02:00:00 10.22 C 6.9 g/m*3 10.22 C 0 km/h
2355 24-04-2011 03:00:00 9.42 C 6.94 g/m*3 9.42 C 0 km/h
2356 24-04-2011 04:00:00 8.86 C 7.06 g/m*3 8.86 C 0 km/h
2357 24-04-2011 05:00:00 8.16 C 6.95 g/m*3 8.16 C 0 km/h
2358 24-04-2011 06:00:00 7.4 C 6.82 g/m*3 7.4 C 0 km/h
2359 24-04-2011 07:00:00 7.96 C 7.16 g/m*3 7.96 C 0 km/h
2360 24-04-2011 08:00:00 9.44 C 7.65 g/m*3 9.44 C 0 km/h
2361 24-04-2011 09:00:00 10.94 C 8.06 g/m*3 10.94 C 0 km/h
2362 24-04-2011 10:00:00 13.42 C 8.68 g/m*3 13.42 C 0 km/h
2363 24-04-2011 11:00:00 16.12 C 8.1 g/m*3 16.12 C 0 km/h
2364 24-04-2011 12:00:00 19.04 C 6.96 g/m*3 19.04 C 0 km/h
2365 24-04-2011 13:00:00 22.96 C 5.82 g/m*3 22.96 C 0 km/h
2366 24-04-2011 14:00:00 29.4 C 5.87 g/m*3 29.4 C 0 km/h
2367 24-04-2011 15:00:00 30.46 C 6.22 g/m*3 30.46 C 0 km/h
2368 24-04-2011 16:00:00 31.08 C 6.43 g/m*3 31.08 C 0 km/h
2369 24-04-2011 17:00:00 28.58 C 6.63 g/m*3 28.58 C 0 km/h
2370 24-04-2011 18:00:00 25.34 C 7.32 g/m*3 25.34 C 0 km/h
2371 24-04-2011 19:00:00 22.02 C 7.69 g/m*3 22.02 C 0 km/h
2372 24-04-2011 20:00:00 17.72 C 6.95 g/m*3 17.72 C 0 km/h
2373 24-04-2011 21:00:00 16.14 C 6.27 g/m*3 16.14 C 0 km/h
2374 24-04-2011 22:00:00 16.5 C 5.14 g/m*3 16.5 C 0 km/h
2375 24-04-2011 23:00:00 16.24 C 4.42 g/m*3 16.24 C 0 km/h
Sensor: Nr:Datum:Temp:Abs-Feuchte:Windchill:Wind:
Aussen-T/F 2376 25-04-2011 00:00:00 14.78 C 4.45 g/m*3 14.78 C 0 km/h
2377 25-04-2011 01:00:00 12.76 C 4.94 g/m*3 12.76 C 0 km/h
2378 25-04-2011 02:00:00 11.24 C 5 g/m*3 11.24 C 0 km/h
2379 25-04-2011 03:00:00 9.94 C 5.15 g/m*3 9.94 C 0 km/h
2380 25-04-2011 04:00:00 8.12 C 5.35 g/m*3 8.12 C 0 km/h
2381 25-04-2011 05:00:00 6.94 C 5.53 g/m*3 6.94 C 0 km/h
2382 25-04-2011 06:00:00 6.26 C 5.67 g/m*3 6.26 C 0 km/h
2383 25-04-2011 07:00:00 6.2 C 5.96 g/m*3 6.2 C 0 km/h
2384 25-04-2011 08:00:00 7.32 C 6.55 g/m*3 7.32 C 0 km/h
2385 25-04-2011 09:00:00 9.34 C 7.15 g/m*3 9.34 C 0 km/h
2386 25-04-2011 10:00:00 12.78 C 7.2 g/m*3 12.78 C 0 km/h
2387 25-04-2011 11:00:00 16.32 C 5.58 g/m*3 16.32 C 0 km/h
2388 25-04-2011 12:00:00 18.84 C 3.81 g/m*3 18.84 C 0 km/h
2389 25-04-2011 13:00:00 21.56 C 3.78 g/m*3 21.56 C 0 km/h
2390 25-04-2011 14:00:00 27.66 C 5.34 g/m*3 27.66 C 0 km/h
2391 25-04-2011 15:00:00 29.44 C 5.88 g/m*3 29.44 C 0 km/h
2392 25-04-2011 16:00:00 29.42 C 5.88 g/m*3 29.42 C 0 km/h
2393 25-04-2011 17:00:00 29.12 C 5.78 g/m*3 29.12 C 0 km/h
2394 25-04-2011 18:00:00 27.62 C 5.33 g/m*3 27.62 C 0 km/h
2395 25-04-2011 19:00:00 22.72 C 4.53 g/m*3 22.72 C 0 km/h
2396 25-04-2011 20:00:00 15.98 C 5.39 g/m*3 15.98 C 0 km/h
2397 25-04-2011 21:00:00 14.06 C 5.06 g/m*3 14.06 C 0 km/h
2398 25-04-2011 22:00:00 13 C 5.24 g/m*3 13 C 0 km/h
2399 25-04-2011 23:00:00 11.98 C 5.28 g/m*3 11.98 C 0 km/h
2400 26-04-2011 00:00:00 11.32 C 5.54 g/m*3 11.32 C 0 km/h
Sensor: Nr:Datum:Temp:Abs-Feuchte:Windchill:Wind:
Aussen-T/F 2401 26-04-2011 01:00:00 9.38 C 5.58 g/m*3 9.38 C 0 km/h
2402 26-04-2011 02:00:00 8.1 C 5.66 g/m*3 8.1 C 0 km/h
2403 26-04-2011 03:00:00 7.04 C 5.8 g/m*3 7.04 C 0 km/h
2404 26-04-2011 04:00:00 6.2 C 5.81 g/m*3 6.2 C 0 km/h
2405 26-04-2011 05:00:00 5.62 C 5.89 g/m*3 5.62 C 0 km/h
2406 26-04-2011 06:00:00 5.22 C 5.93 g/m*3 5.22 C 0 km/h
2407 26-04-2011 07:00:00 5.88 C 6.25 g/m*3 5.88 C 0 km/h
2408 26-04-2011 08:00:00 7.08 C 6.73 g/m*3 7.08 C 0 km/h
2409 26-04-2011 09:00:00 8.9 C 7.2 g/m*3 8.9 C 0 km/h
2410 26-04-2011 10:00:00 12.1 C 7.27 g/m*3 12.1 C 0 km/h
2411 26-04-2011 11:00:00 15.92 C 6.24 g/m*3 15.92 C 0 km/h
2412 26-04-2011 12:00:00 19.24 C 5.75 g/m*3 19.24 C 0 km/h
2413 26-04-2011 13:00:00 19.66 C 5.79 g/m*3 19.66 C 0 km/h
2414 26-04-2011 14:00:00 22.08 C 5.26 g/m*3 22.08 C 0 km/h
2415 26-04-2011 15:00:00 20.74 C 5.23 g/m*3 20.74 C 0 km/h
2416 26-04-2011 16:00:00 23.94 C 4.6 g/m*3 23.94 C 0 km/h
2417 26-04-2011 17:00:00 20.08 C 4.93 g/m*3 20.08 C 0 km/h
2418 26-04-2011 18:00:00 14.54 C 7.76 g/m*3 14.54 C 0 km/h
2419 26-04-2011 19:00:00 14.04 C 8.25 g/m*3 14.04 C 0 km/h
2420 26-04-2011 20:00:00 13.28 C 7.82 g/m*3 13.28 C 0 km/h
2421 26-04-2011 21:00:00 12.02 C 7.49 g/m*3 12.02 C 0 km/h
2422 26-04-2011 22:00:00 13.12 C 7.68 g/m*3 13.12 C 0 km/h
2423 26-04-2011 23:00:00 12.36 C 7.74 g/m*3 12.36 C 0 km/h
2424 27-04-2011 00:00:00 11.4 C 7.55 g/m*3 11.4 C 0 km/h
2425 27-04-2011 01:00:00 11.58 C 8.16 g/m*3 11.58 C 0 km/h
Sensor: Nr:Datum:Temp:Abs-Feuchte:Windchill:Wind:
Aussen-T/F 2426 27-04-2011 02:00:00 11.42 C 8.59 g/m*3 11.42 C 0 km/h
2427 27-04-2011 03:00:00 11.26 C 8.71 g/m*3 11.26 C 0 km/h
2428 27-04-2011 04:00:00 11.42 C 8.82 g/m*3 11.42 C 0 km/h
2429 27-04-2011 05:00:00 11.48 C 8.25 g/m*3 11.48 C 0 km/h
2430 27-04-2011 06:00:00 11.04 C 6.98 g/m*3 11.04 C 0 km/h
2431 27-04-2011 07:00:00 9.98 C 6.79 g/m*3 9.98 C 0 km/h
2432 27-04-2011 08:00:00 9.94 C 7.15 g/m*3 9.94 C 0 km/h
2433 27-04-2011 09:00:00 11.24 C 7.11 g/m*3 11.24 C 0 km/h
2434 27-04-2011 10:00:00 11.8 C 7.07 g/m*3 11.8 C 0 km/h
2435 27-04-2011 11:00:00 11.62 C 7.06 g/m*3 11.62 C 0 km/h
2436 27-04-2011 12:00:00 12.14 C 7.1 g/m*3 12.14 C 0 km/h
2437 27-04-2011 13:00:00 11.18 C 7.53 g/m*3 11.18 C 0 km/h
2438 27-04-2011 14:00:00 11.42 C 7.85 g/m*3 11.42 C 0 km/h
2439 27-04-2011 15:00:00 12.92 C 7.99 g/m*3 12.92 C 0 km/h
2440 27-04-2011 16:00:00 12.68 C 7.74 g/m*3 12.68 C 0 km/h
2441 27-04-2011 17:00:00 12.26 C 7.73 g/m*3 12.26 C 0 km/h
2442 27-04-2011 18:00:00 12.08 C 7.86 g/m*3 12.08 C 0 km/h
2443 27-04-2011 19:00:00 10.74 C 8.21 g/m*3 10.74 C 0 km/h
2444 27-04-2011 20:00:00 10.7 C 8.39 g/m*3 10.7 C 0 km/h
2445 27-04-2011 21:00:00 10.14 C 8.25 g/m*3 10.14 C 0 km/h
2446 27-04-2011 22:00:00 10.12 C 8.41 g/m*3 10.12 C 0 km/h
2447 27-04-2011 23:00:00 9.96 C 8.42 g/m*3 9.96 C 0 km/h
2448 28-04-2011 00:00:00 9.92 C 8.45 g/m*3 9.92 C 0 km/h
2449 28-04-2011 01:00:00 9.78 C 8.43 g/m*3 9.78 C 0 km/h
2450 28-04-2011 02:00:00 9.54 C 8.3 g/m*3 9.54 C 0 km/h
Sensor: Nr:Datum:Temp:Abs-Feuchte:Windchill:Wind:
Aussen-T/F 2451 28-04-2011 03:00:00 9.26 C 8.18 g/m*3 9.26 C 0 km/h
2452 28-04-2011 04:00:00 8.78 C 7.98 g/m*3 8.78 C 0 km/h
2453 28-04-2011 05:00:00 9.08 C 8.15 g/m*3 9.08 C 0 km/h
2454 28-04-2011 06:00:00 9.44 C 8.34 g/m*3 9.44 C 0 km/h
2455 28-04-2011 07:00:00 9.84 C 8.54 g/m*3 9.84 C 0 km/h
2456 28-04-2011 08:00:00 10.7 C 9.02 g/m*3 10.7 C 0 km/h
2457 28-04-2011 09:00:00 11.82 C 9.57 g/m*3 11.82 C 0 km/h
2458 28-04-2011 10:00:00 12.84 C 8.98 g/m*3 12.84 C 0 km/h
2459 28-04-2011 11:00:00 15.22 C 8.34 g/m*3 15.22 C 0 km/h
2460 28-04-2011 12:00:00 16.12 C 7.9 g/m*3 16.12 C 0 km/h
2461 28-04-2011 13:00:00 17.64 C 7.73 g/m*3 17.64 C 0 km/h
2462 28-04-2011 14:00:00 20.54 C 7.28 g/m*3 20.54 C 0 km/h
2463 28-04-2011 15:00:00 22.04 C 6.85 g/m*3 22.04 C 0 km/h
2464 28-04-2011 16:00:00 21 C 8.43 g/m*3 21 C 0 km/h
2465 28-04-2011 17:00:00 24.02 C 6.01 g/m*3 24.02 C 0 km/h
2466 28-04-2011 18:00:00 19.88 C 7.93 g/m*3 19.88 C 0 km/h
2467 28-04-2011 19:00:00 19.92 C 7.98 g/m*3 19.92 C 0 km/h
2468 28-04-2011 20:00:00 14.16 C 8.55 g/m*3 14.16 C 0 km/h
2469 28-04-2011 21:00:00 12.42 C 8.45 g/m*3 12.42 C 0 km/h
2470 28-04-2011 22:00:00 11.44 C 8.5 g/m*3 11.44 C 0 km/h
2471 28-04-2011 23:00:00 10.36 C 8.21 g/m*3 10.36 C 0 km/h
2472 29-04-2011 00:00:00 10.74 C 8.65 g/m*3 10.74 C 0 km/h
2473 29-04-2011 01:00:00 10 C 8.29 g/m*3 10 C 0 km/h
2474 29-04-2011 02:00:00 10.56 C 8.66 g/m*3 10.56 C 0 km/h
2475 29-04-2011 03:00:00 9.42 C 8.13 g/m*3 9.42 C 0 km/h
Sensor: Nr:Datum:Temp:Abs-Feuchte:Windchill:Wind:
Aussen-T/F 2476 29-04-2011 04:00:00 9.24 C 8.06 g/m*3 9.24 C 0 km/h
2477 29-04-2011 05:00:00 9.36 C 8.16 g/m*3 9.36 C 0 km/h
2478 29-04-2011 06:00:00 9.76 C 8.38 g/m*3 9.76 C 0 km/h
2479 29-04-2011 07:00:00 11 C 8.99 g/m*3 11 C 0 km/h
2480 29-04-2011 08:00:00 13.46 C 9.19 g/m*3 13.46 C 0 km/h
2481 29-04-2011 09:00:00 15.92 C 7.81 g/m*3 15.92 C 0 km/h
2482 29-04-2011 10:00:00 17.2 C 7.67 g/m*3 17.2 C 0 km/h
2483 29-04-2011 11:00:00 18.84 C 6.91 g/m*3 18.84 C 0 km/h
2484 29-04-2011 12:00:00 20.4 C 6.33 g/m*3 20.4 C 0 km/h
2485 29-04-2011 13:00:00 22.56 C 5.53 g/m*3 22.56 C 0 km/h
2486 29-04-2011 14:00:00 27.38 C 5.26 g/m*3 27.38 C 0 km/h
2487 29-04-2011 15:00:00 25.74 C 5.28 g/m*3 25.74 C 0 km/h
2488 29-04-2011 16:00:00 19.14 C 8.81 g/m*3 19.14 C 0 km/h
2489 29-04-2011 17:00:00 17.44 C 10.16 g/m*3 17.44 C 0 km/h
2490 29-04-2011 18:00:00 16.32 C 9.72 g/m*3 16.32 C 0 km/h
2491 29-04-2011 19:00:00 15.64 C 8.27 g/m*3 15.64 C 0 km/h
2492 29-04-2011 20:00:00 14.72 C 7.46 g/m*3 14.72 C 0 km/h
2493 29-04-2011 21:00:00 12.76 C 7.89 g/m*3 12.76 C 0 km/h
2494 29-04-2011 22:00:00 12.22 C 7.97 g/m*3 12.22 C 0 km/h
2495 29-04-2011 23:00:00 12.18 C 7.63 g/m*3 12.18 C 0 km/h
2496 30-04-2011 00:00:00 11.82 C 7.78 g/m*3 11.82 C 0 km/h
2497 30-04-2011 01:00:00 11.48 C 7.74 g/m*3 11.48 C 0 km/h
2498 30-04-2011 02:00:00 11.1 C 7.68 g/m*3 11.1 C 0 km/h
2499 30-04-2011 03:00:00 10.54 C 7.53 g/m*3 10.54 C 0 km/h
2500 30-04-2011 04:00:00 9.98 C 7.49 g/m*3 9.98 C 0 km/h
Sensor: Nr:Datum:Temp:Abs-Feuchte:Windchill:Wind:
Aussen-T/F 2501 30-04-2011 05:00:00 9.64 C 7.49 g/m*3 9.64 C 0 km/h
2502 30-04-2011 06:00:00 10.22 C 7.22 g/m*3 10.22 C 0 km/h
2503 30-04-2011 07:00:00 11.78 C 7.32 g/m*3 11.78 C 0 km/h
2504 30-04-2011 08:00:00 12.68 C 7.69 g/m*3 12.68 C 0 km/h
2505 30-04-2011 09:00:00 14.58 C 7.35 g/m*3 14.58 C 0 km/h
2506 30-04-2011 10:00:00 16.56 C 6.76 g/m*3 16.56 C 0 km/h
2507 30-04-2011 11:00:00 17.96 C 6.53 g/m*3 17.96 C 0 km/h
2508 30-04-2011 12:00:00 19.36 C 6.19 g/m*3 19.36 C 0 km/h
2509 30-04-2011 13:00:00 22.04 C 5.8 g/m*3 22.04 C 0 km/h
2510 30-04-2011 14:00:00 24.26 C 5.56 g/m*3 24.26 C 0 km/h
2511 30-04-2011 15:00:00 25.14 C 6.26 g/m*3 25.14 C 0 km/h
2512 30-04-2011 16:00:00 25.06 C 5.08 g/m*3 25.06 C 0 km/h
2513 30-04-2011 17:00:00 20 C 7.02 g/m*3 20 C 0 km/h
2514 30-04-2011 18:00:00 16.44 C 9.23 g/m*3 16.44 C 0 km/h
2515 30-04-2011 19:00:00 14.8 C 8.79 g/m*3 14.8 C 0 km/h
2516 30-04-2011 20:00:00 14.4 C 7.54 g/m*3 14.4 C 0 km/h
2517 30-04-2011 21:00:00 15.04 C 6.02 g/m*3 15.04 C 0 km/h
2518 30-04-2011 22:00:00 13.06 C 5.85 g/m*3 13.06 C 0 km/h
2519 30-04-2011 23:00:00 12.14 C 5.7 g/m*3 12.14 C 0 km/h
2520 01-05-2011 00:00:00 12.05 C 5.51 g/m*3 12.05 C 0 km/h
2521 01-05-2011 01:00:00 12.84 C 5.1 g/m*3 12.84 C 0 km/h
2522 01-05-2011 02:00:00 12.32 C 4.81 g/m*3 12.32 C 0 km/h
2523 01-05-2011 03:00:00 11.24 C 4.84 g/m*3 11.24 C 0 km/h
2524 01-05-2011 04:00:00 9.64 C 4.89 g/m*3 9.64 C 0 km/h
2525 01-05-2011 05:00:00 9.92 C 4.56 g/m*3 9.92 C 0 km/h
Sensor: Nr:Datum:Temp:Abs-Feuchte:Windchill:Wind:
Aussen-T/F 2526 01-05-2011 06:00:00 9.3 C 4.57 g/m*3 9.3 C 0 km/h
2527 01-05-2011 07:00:00 9.2 C 4.59 g/m*3 9.2 C 0 km/h
2528 01-05-2011 08:00:00 9.68 C 4.9 g/m*3 9.68 C 0 km/h
2529 01-05-2011 09:00:00 11.22 C 4.93 g/m*3 11.22 C 0 km/h
2530 01-05-2011 10:00:00 13.48 C 4.63 g/m*3 13.48 C 0 km/h
2531 01-05-2011 11:00:00 14.98 C 5.02 g/m*3 14.98 C 0 km/h
2532 01-05-2011 12:00:00 16.74 C 5.19 g/m*3 16.74 C 0 km/h
2533 01-05-2011 13:00:00 18.86 C 4.69 g/m*3 18.86 C 0 km/h
2534 01-05-2011 14:00:00 24.24 C 4.41 g/m*3 24.24 C 0 km/h
2535 01-05-2011 15:00:00 25.4 C 4.71 g/m*3 25.4 C 0 km/h
2536 01-05-2011 16:00:00 25.52 C 4.74 g/m*3 25.52 C 0 km/h
2537 01-05-2011 17:00:00 24.6 C 4.5 g/m*3 24.6 C 0 km/h
2538 01-05-2011 18:00:00 23.38 C 4.2 g/m*3 23.38 C 0 km/h
2539 01-05-2011 19:00:00 20.54 C 3.75 g/m*3 20.54 C 0 km/h
2540 01-05-2011 20:00:00 15.24 C 3.62 g/m*3 15.24 C 0 km/h
2541 01-05-2011 21:00:00 11 C 4.02 g/m*3 11 C 0 km/h
2542 01-05-2011 22:00:00 9.88 C 4.01 g/m*3 9.88 C 0 km/h
2543 01-05-2011 23:00:00 10.36 C 4.1 g/m*3 10.36 C 0 km/h
2544 02-05-2011 00:00:00 11.56 C 3.71 g/m*3 11.56 C 0 km/h
2545 02-05-2011 01:00:00 9.52 C 3.79 g/m*3 9.52 C 0 km/h
2546 02-05-2011 02:00:00 7.82 C 4.07 g/m*3 7.82 C 0 km/h
2547 02-05-2011 03:00:00 6.16 C 4.33 g/m*3 6.16 C 0 km/h
2548 02-05-2011 04:00:00 5.32 C 4.44 g/m*3 5.32 C 0 km/h
2549 02-05-2011 05:00:00 4.76 C 4.49 g/m*3 4.76 C 0 km/h
2550 02-05-2011 06:00:00 4.2 C 4.54 g/m*3 4.2 C 0 km/h
Sensor: Nr:Datum:Temp:Abs-Feuchte:Windchill:Wind:
Aussen-T/F 2551 02-05-2011 07:00:00 4.4 C 4.77 g/m*3 4.4 C 0 km/h
2552 02-05-2011 08:00:00 5.26 C 5.17 g/m*3 5.26 C 0 km/h
2553 02-05-2011 09:00:00 7.2 C 5.23 g/m*3 7.2 C 0 km/h
2554 02-05-2011 10:00:00 10.76 C 4.79 g/m*3 10.76 C 0 km/h
2555 02-05-2011 11:00:00 13.12 C 4.2 g/m*3 13.12 C 0 km/h
2556 02-05-2011 12:00:00 14.54 C 3.77 g/m*3 14.54 C 0 km/h
2557 02-05-2011 13:00:00 16.78 C 3.6 g/m*3 16.78 C 0 km/h
2558 02-05-2011 14:00:00 22.72 C 4.05 g/m*3 22.72 C 0 km/h
2559 02-05-2011 15:00:00 22.12 C 3.91 g/m*3 22.12 C 0 km/h
2560 02-05-2011 16:00:00 21.2 C 3.74 g/m*3 21.2 C 0 km/h
2561 02-05-2011 17:00:00 21.04 C 3.67 g/m*3 21.04 C 0 km/h
2562 02-05-2011 18:00:00 18.58 C 3.37 g/m*3 18.58 C 0 km/h
2563 02-05-2011 19:00:00 17.22 C 3.4 g/m*3 17.22 C 0 km/h
2564 02-05-2011 20:00:00 12.46 C 4.1 g/m*3 12.46 C 0 km/h
2565 02-05-2011 21:00:00 9.9 C 4.52 g/m*3 9.9 C 0 km/h
2566 02-05-2011 22:00:00 8.36 C 4.79 g/m*3 8.36 C 0 km/h
2567 02-05-2011 23:00:00 9 C 4.73 g/m*3 9 C 0 km/h
2568 03-05-2011 00:00:00 8.3 C 4.74 g/m*3 8.3 C 0 km/h
2569 03-05-2011 01:00:00 8.02 C 4.74 g/m*3 8.02 C 0 km/h
2570 03-05-2011 02:00:00 8.2 C 4.71 g/m*3 8.2 C 0 km/h
2571 03-05-2011 03:00:00 8.02 C 4.54 g/m*3 8.02 C 0 km/h
2572 03-05-2011 04:00:00 7.72 C 4.42 g/m*3 7.72 C 0 km/h
2573 03-05-2011 05:00:00 7.7 C 4.27 g/m*3 7.7 C 0 km/h
2574 03-05-2011 06:00:00 7.52 C 4.3 g/m*3 7.52 C 0 km/h
2575 03-05-2011 07:00:00 7.76 C 4.12 g/m*3 7.76 C 0 km/h
Sensor: Nr:Datum:Temp:Abs-Feuchte:Windchill:Wind:
Aussen-T/F 2576 03-05-2011 08:00:00 7.12 C 4.05 g/m*3 7.12 C 0 km/h
2577 03-05-2011 09:00:00 7.74 C 4.18 g/m*3 7.74 C 0 km/h
2578 03-05-2011 10:00:00 9.78 C 4.02 g/m*3 9.78 C 0 km/h
2579 03-05-2011 11:00:00 11.94 C 3.67 g/m*3 11.94 C 0 km/h
2580 03-05-2011 12:00:00 12.2 C 3.43 g/m*3 12.2 C 0 km/h
2581 03-05-2011 13:00:00 13.14 C 3.25 g/m*3 13.14 C 0 km/h
2582 03-05-2011 14:00:00 17.38 C 3.08 g/m*3 17.38 C 0 km/h
2583 03-05-2011 15:00:00 19.14 C 3.29 g/m*3 19.14 C 0 km/h
2584 03-05-2011 16:00:00 21.46 C 3.76 g/m*3 21.46 C 0 km/h
2585 03-05-2011 17:00:00 19.28 C 3.31 g/m*3 19.28 C 0 km/h
2586 03-05-2011 18:00:00 19.6 C 3.38 g/m*3 19.6 C 0 km/h
2587 03-05-2011 19:00:00 16.12 C 2.88 g/m*3 16.12 C 0 km/h
2588 03-05-2011 20:00:00 9.08 C 3.76 g/m*3 9.08 C 0 km/h
2589 03-05-2011 21:00:00 6.58 C 3.66 g/m*3 6.58 C 0 km/h
2590 03-05-2011 22:00:00 4.78 C 3.67 g/m*3 4.78 C 0 km/h
2591 03-05-2011 23:00:00 3.78 C 3.77 g/m*3 3.78 C 0 km/h
2592 04-05-2011 00:00:00 3.48 C 4.03 g/m*3 3.48 C 0 km/h
2593 04-05-2011 01:00:00 2.24 C 3.99 g/m*3 2.24 C 0 km/h
2594 04-05-2011 02:00:00 1.26 C 4 g/m*3 1.26 C 0 km/h
2595 04-05-2011 03:00:00 0.6 C 4.1 g/m*3 0.6 C 0 km/h
2596 04-05-2011 04:00:00 0.1 C 4.09 g/m*3 0.1 C 0 km/h
2597 04-05-2011 05:00:00 -0.5 C 4.03 g/m*3 -0.5 C 0 km/h
2598 04-05-2011 06:00:00 -0.5 C 4.09 g/m*3 -0.5 C 0 km/h
2599 04-05-2011 07:00:00 0.22 C 4.33 g/m*3 0.22 C 0 km/h
2600 04-05-2011 08:00:00 2.2 C 4.9 g/m*3 2.2 C 0 km/h
Sensor: Nr:Datum:Temp:Abs-Feuchte:Windchill:Wind:
Aussen-T/F 2601 04-05-2011 09:00:00 4.08 C 5.1 g/m*3 4.08 C 0 km/h
2602 04-05-2011 10:00:00 7.14 C 4.88 g/m*3 7.14 C 0 km/h
2603 04-05-2011 11:00:00 9.78 C 4.11 g/m*3 9.78 C 0 km/h
2604 04-05-2011 12:00:00 11.56 C 3.32 g/m*3 11.56 C 0 km/h
2605 04-05-2011 13:00:00 15.4 C 2.81 g/m*3 15.4 C 0 km/h
2606 04-05-2011 14:00:00 17.96 C 3.06 g/m*3 17.96 C 0 km/h
2607 04-05-2011 15:00:00 19.16 C 3.29 g/m*3 19.16 C 0 km/h
2608 04-05-2011 16:00:00 19.32 C 3.32 g/m*3 19.32 C 0 km/h
2609 04-05-2011 17:00:00 19.76 C 3.41 g/m*3 19.76 C 0 km/h
2610 04-05-2011 18:00:00 18.44 C 3.15 g/m*3 18.44 C 0 km/h
2611 04-05-2011 19:00:00 16.32 C 3 g/m*3 16.32 C 0 km/h
2612 04-05-2011 20:00:00 11.2 C 3.75 g/m*3 11.2 C 0 km/h
2613 04-05-2011 21:00:00 7.86 C 4.16 g/m*3 7.86 C 0 km/h
2614 04-05-2011 22:00:00 6.84 C 4.17 g/m*3 6.84 C 0 km/h
2615 04-05-2011 23:00:00 4.8 C 4.37 g/m*3 4.8 C 0 km/h
2616 05-05-2011 00:00:00 3.46 C 4.38 g/m*3 3.46 C 0 km/h
2617 05-05-2011 01:00:00 2.64 C 4.42 g/m*3 2.64 C 0 km/h
2618 05-05-2011 02:00:00 2.02 C 4.51 g/m*3 2.02 C 0 km/h
2619 05-05-2011 03:00:00 1.58 C 4.59 g/m*3 1.58 C 0 km/h
2620 05-05-2011 04:00:00 1.1 C 4.56 g/m*3 1.1 C 0 km/h
2621 05-05-2011 05:00:00 0.5 C 4.45 g/m*3 0.5 C 0 km/h
2622 05-05-2011 06:00:00 0.44 C 4.47 g/m*3 0.44 C 0 km/h
2623 05-05-2011 07:00:00 1.28 C 4.76 g/m*3 1.28 C 0 km/h
2624 05-05-2011 08:00:00 2.66 C 5.17 g/m*3 2.66 C 0 km/h
2625 05-05-2011 09:00:00 5.2 C 5.94 g/m*3 5.2 C 0 km/h
Sensor: Nr:Datum:Temp:Abs-Feuchte:Windchill:Wind:
Aussen-T/F 2626 05-05-2011 10:00:00 8.94 C 6.48 g/m*3 8.94 C 0 km/h
2627 05-05-2011 11:00:00 12.78 C 4.65 g/m*3 12.78 C 0 km/h
2628 05-05-2011 12:00:00 14.56 C 3.55 g/m*3 14.56 C 0 km/h
2629 05-05-2011 13:00:00 18.24 C 3.65 g/m*3 18.24 C 0 km/h
2630 05-05-2011 14:00:00 23.46 C 4.22 g/m*3 23.46 C 0 km/h
2631 05-05-2011 15:00:00 24.12 C 4.38 g/m*3 24.12 C 0 km/h
2632 05-05-2011 16:00:00 23.18 C 4.15 g/m*3 23.18 C 0 km/h
2633 05-05-2011 17:00:00 22.56 C 4.01 g/m*3 22.56 C 0 km/h
2634 05-05-2011 18:00:00 20.86 C 3.63 g/m*3 20.86 C 0 km/h
2635 05-05-2011 19:00:00 17.1 C 4.92 g/m*3 17.1 C 0 km/h
2636 05-05-2011 20:00:00 13.18 C 4.68 g/m*3 13.18 C 0 km/h
2637 05-05-2011 21:00:00 10.9 C 4.16 g/m*3 10.9 C 0 km/h
2638 05-05-2011 22:00:00 9.06 C 4.67 g/m*3 9.06 C 0 km/h
2639 05-05-2011 23:00:00 7.94 C 4.83 g/m*3 7.94 C 0 km/h
2640 06-05-2011 00:00:00 6.78 C 4.74 g/m*3 6.78 C 0 km/h
2641 06-05-2011 01:00:00 5.6 C 4.78 g/m*3 5.6 C 0 km/h
2642 06-05-2011 02:00:00 4.36 C 4.87 g/m*3 4.36 C 0 km/h
2643 06-05-2011 03:00:00 3.56 C 4.96 g/m*3 3.56 C 0 km/h
2644 06-05-2011 04:00:00 2.88 C 4.93 g/m*3 2.88 C 0 km/h
2645 06-05-2011 05:00:00 2.18 C 4.86 g/m*3 2.18 C 0 km/h
2646 06-05-2011 06:00:00 2.3 C 5.01 g/m*3 2.3 C 0 km/h
2647 06-05-2011 07:00:00 3.46 C 5.41 g/m*3 3.46 C 0 km/h
2648 06-05-2011 08:00:00 5.2 C 6 g/m*3 5.2 C 0 km/h
2649 06-05-2011 09:00:00 8.38 C 6.78 g/m*3 8.38 C 0 km/h
2650 06-05-2011 10:00:00 11.9 C 6.69 g/m*3 11.9 C 0 km/h
Sensor: Nr:Datum:Temp:Abs-Feuchte:Windchill:Wind:
Aussen-T/F 2651 06-05-2011 11:00:00 16.36 C 5.63 g/m*3 16.36 C 0 km/h
2652 06-05-2011 12:00:00 20.48 C 4.59 g/m*3 20.48 C 0 km/h
2653 06-05-2011 13:00:00 23.68 C 4.27 g/m*3 23.68 C 0 km/h
2654 06-05-2011 14:00:00 26.28 C 4.95 g/m*3 26.28 C 0 km/h
2655 06-05-2011 15:00:00 26.08 C 4.89 g/m*3 26.08 C 0 km/h
2656 06-05-2011 16:00:00 26.24 C 4.93 g/m*3 26.24 C 0 km/h
2657 06-05-2011 17:00:00 26.68 C 5.06 g/m*3 26.68 C 0 km/h
2658 06-05-2011 18:00:00 24.76 C 5.68 g/m*3 24.76 C 0 km/h
2659 06-05-2011 19:00:00 20.22 C 6.48 g/m*3 20.22 C 0 km/h
2660 06-05-2011 20:00:00 17.06 C 5.92 g/m*3 17.06 C 0 km/h
2661 06-05-2011 21:00:00 14.88 C 5.37 g/m*3 14.88 C 0 km/h
2662 06-05-2011 22:00:00 13.12 C 5.64 g/m*3 13.12 C 0 km/h
2663 06-05-2011 23:00:00 12.26 C 5.63 g/m*3 12.26 C 0 km/h
2664 07-05-2011 00:00:00 11.46 C 5.73 g/m*3 11.46 C 0 km/h
2665 07-05-2011 01:00:00 10.04 C 5.86 g/m*3 10.04 C 0 km/h
2666 07-05-2011 02:00:00 8.76 C 5.94 g/m*3 8.76 C 0 km/h
2667 07-05-2011 03:00:00 7.92 C 6.17 g/m*3 7.92 C 0 km/h
2668 07-05-2011 04:00:00 7.3 C 6.19 g/m*3 7.3 C 0 km/h
2669 07-05-2011 05:00:00 7.22 C 6.38 g/m*3 7.22 C 0 km/h
2670 07-05-2011 06:00:00 7.06 C 6.44 g/m*3 7.06 C 0 km/h
2671 07-05-2011 07:00:00 7.58 C 6.74 g/m*3 7.58 C 0 km/h
2672 07-05-2011 08:00:00 9.2 C 7.18 g/m*3 9.2 C 0 km/h
2673 07-05-2011 09:00:00 11.84 C 7.53 g/m*3 11.84 C 0 km/h
2674 07-05-2011 10:00:00 16.16 C 7.92 g/m*3 16.16 C 0 km/h
2675 07-05-2011 11:00:00 19.38 C 7.37 g/m*3 19.38 C 0 km/h
Sensor: Nr:Datum:Temp:Abs-Feuchte:Windchill:Wind:
Aussen-T/F 2676 07-05-2011 12:00:00 21.74 C 6.39 g/m*3 21.74 C 0 km/h
2677 07-05-2011 13:00:00 27.32 C 5.76 g/m*3 27.32 C 0 km/h
2678 07-05-2011 14:00:00 31.2 C 6.47 g/m*3 31.2 C 0 km/h
2679 07-05-2011 15:00:00 31.54 C 6.59 g/m*3 31.54 C 0 km/h
2680 07-05-2011 16:00:00 31.26 C 6.49 g/m*3 31.26 C 0 km/h
2681 07-05-2011 17:00:00 31.44 C 6.55 g/m*3 31.44 C 0 km/h
2682 07-05-2011 18:00:00 29.66 C 6.01 g/m*3 29.66 C 0 km/h
2683 07-05-2011 19:00:00 25.08 C 6.84 g/m*3 25.08 C 0 km/h
2684 07-05-2011 20:00:00 20.12 C 6.89 g/m*3 20.12 C 0 km/h
2685 07-05-2011 21:00:00 17.6 C 6 g/m*3 17.6 C 0 km/h
2686 07-05-2011 22:00:00 16.22 C 5.8 g/m*3 16.22 C 0 km/h
2687 07-05-2011 23:00:00 15.6 C 5.56 g/m*3 15.6 C 0 km/h
2688 08-05-2011 00:00:00 15.16 C 5.33 g/m*3 15.16 C 0 km/h
2689 08-05-2011 01:00:00 14.12 C 5.15 g/m*3 14.12 C 0 km/h
2690 08-05-2011 02:00:00 12.98 C 5.32 g/m*3 12.98 C 0 km/h
2691 08-05-2011 03:00:00 11.64 C 5.19 g/m*3 11.64 C 0 km/h
2692 08-05-2011 04:00:00 10.5 C 5.3 g/m*3 10.5 C 0 km/h
2693 08-05-2011 05:00:00 9.8 C 5.27 g/m*3 9.8 C 0 km/h
2694 08-05-2011 06:00:00 9.04 C 5.34 g/m*3 9.04 C 0 km/h
2695 08-05-2011 07:00:00 9.68 C 5.82 g/m*3 9.68 C 0 km/h
2696 08-05-2011 08:00:00 11.54 C 6.48 g/m*3 11.54 C 0 km/h
2697 08-05-2011 09:00:00 14 C 6.59 g/m*3 14 C 0 km/h
2698 08-05-2011 10:00:00 17.74 C 6.53 g/m*3 17.74 C 0 km/h
2699 08-05-2011 11:00:00 21 C 5.94 g/m*3 21 C 0 km/h
2700 08-05-2011 12:00:00 23.46 C 4.39 g/m*3 23.46 C 0 km/h
Sensor: Nr:Datum:Temp:Abs-Feuchte:Windchill:Wind:
Aussen-T/F 2701 08-05-2011 13:00:00 27.4 C 5.26 g/m*3 27.4 C 0 km/h
2702 08-05-2011 14:00:00 30.88 C 6.36 g/m*3 30.88 C 0 km/h
2703 08-05-2011 15:00:00 29.98 C 6.06 g/m*3 29.98 C 0 km/h
2704 08-05-2011 16:00:00 32.02 C 6.76 g/m*3 32.02 C 0 km/h
2705 08-05-2011 17:00:00 31.72 C 6.65 g/m*3 31.72 C 0 km/h
2706 08-05-2011 18:00:00 30.56 C 6.25 g/m*3 30.56 C 0 km/h
2707 08-05-2011 19:00:00 23.5 C 5.58 g/m*3 23.5 C 0 km/h
2708 08-05-2011 20:00:00 20.22 C 5.32 g/m*3 20.22 C 0 km/h
2709 08-05-2011 21:00:00 18.72 C 4.55 g/m*3 18.72 C 0 km/h
2710 08-05-2011 22:00:00 17 C 4.4 g/m*3 17 C 0 km/h
2711 08-05-2011 23:00:00 15.06 C 4.76 g/m*3 15.06 C 0 km/h
2712 09-05-2011 00:00:00 14.06 C 5.01 g/m*3 14.06 C 0 km/h
2713 09-05-2011 01:00:00 12.54 C 5.29 g/m*3 12.54 C 0 km/h
2714 09-05-2011 02:00:00 11.58 C 5.52 g/m*3 11.58 C 0 km/h
2715 09-05-2011 03:00:00 10.76 C 5.76 g/m*3 10.76 C 0 km/h
2716 09-05-2011 04:00:00 10.56 C 6.15 g/m*3 10.56 C 0 km/h
2717 09-05-2011 05:00:00 10.44 C 6.47 g/m*3 10.44 C 0 km/h
2718 09-05-2011 06:00:00 10.64 C 6.67 g/m*3 10.64 C 0 km/h
2719 09-05-2011 07:00:00 11.08 C 6.92 g/m*3 11.08 C 0 km/h
2720 09-05-2011 08:00:00 12.32 C 7.02 g/m*3 12.32 C 0 km/h
2721 09-05-2011 09:00:00 15.92 C 5.91 g/m*3 15.92 C 0 km/h
2722 09-05-2011 10:00:00 18.9 C 4.5 g/m*3 18.9 C 0 km/h
2723 09-05-2011 11:00:00 20.26 C 4.04 g/m*3 20.26 C 0 km/h
2724 09-05-2011 12:00:00 22.06 C 3.9 g/m*3 22.06 C 0 km/h
2725 09-05-2011 13:00:00 26.06 C 4.89 g/m*3 26.06 C 0 km/h
Sensor: Nr:Datum:Temp:Abs-Feuchte:Windchill:Wind:
Aussen-T/F 2726 09-05-2011 14:00:00 28.5 C 5.59 g/m*3 28.5 C 0 km/h
2727 09-05-2011 15:00:00 30.1 C 6.1 g/m*3 30.1 C 0 km/h
2728 09-05-2011 16:00:00 26.48 C 5.9 g/m*3 26.48 C 0 km/h
2729 09-05-2011 17:00:00 30.82 C 6.34 g/m*3 30.82 C 0 km/h
2730 09-05-2011 18:00:00 30.6 C 6.26 g/m*3 30.6 C 0 km/h
2731 09-05-2011 19:00:00 26.58 C 5.58 g/m*3 26.58 C 0 km/h
2732 09-05-2011 20:00:00 19.56 C 5.05 g/m*3 19.56 C 0 km/h
2733 09-05-2011 21:00:00 16.44 C 4.65 g/m*3 16.44 C 0 km/h
2734 09-05-2011 22:00:00 13.64 C 4.81 g/m*3 13.64 C 0 km/h
2735 09-05-2011 23:00:00 11.72 C 4.9 g/m*3 11.72 C 0 km/h
2736 10-05-2011 00:00:00 10.3 C 5.15 g/m*3 10.3 C 0 km/h
2737 10-05-2011 01:00:00 9.36 C 5.43 g/m*3 9.36 C 0 km/h
2738 10-05-2011 02:00:00 9.06 C 5.72 g/m*3 9.06 C 0 km/h
2739 10-05-2011 03:00:00 8.64 C 5.89 g/m*3 8.64 C 0 km/h
2740 10-05-2011 04:00:00 7.82 C 5.97 g/m*3 7.82 C 0 km/h
2741 10-05-2011 05:00:00 7.62 C 6.23 g/m*3 7.62 C 0 km/h
2742 10-05-2011 06:00:00 8.62 C 6.47 g/m*3 8.62 C 0 km/h
2743 10-05-2011 07:00:00 10.96 C 6.47 g/m*3 10.96 C 0 km/h
2744 10-05-2011 08:00:00 12.94 C 6.26 g/m*3 12.94 C 0 km/h
2745 10-05-2011 09:00:00 16 C 6.16 g/m*3 16 C 0 km/h
2746 10-05-2011 10:00:00 18.44 C 6.65 g/m*3 18.44 C 0 km/h
2747 10-05-2011 11:00:00 20.92 C 6.86 g/m*3 20.92 C 0 km/h
2748 10-05-2011 12:00:00 22.52 C 6.6 g/m*3 22.52 C 0 km/h
2749 10-05-2011 13:00:00 27.48 C 6.13 g/m*3 27.48 C 0 km/h
2750 10-05-2011 14:00:00 32.22 C 6.83 g/m*3 32.22 C 0 km/h
Sensor: Nr:Datum:Temp:Abs-Feuchte:Windchill:Wind:
Aussen-T/F 2751 10-05-2011 15:00:00 32.2 C 6.82 g/m*3 32.2 C 0 km/h
2752 10-05-2011 16:00:00 30.58 C 6.51 g/m*3 30.58 C 0 km/h
2753 10-05-2011 17:00:00 30.72 C 6.43 g/m*3 30.72 C 0 km/h
2754 10-05-2011 18:00:00 26.82 C 7.29 g/m*3 26.82 C 0 km/h
2755 10-05-2011 19:00:00 21.86 C 7.51 g/m*3 21.86 C 0 km/h
2756 10-05-2011 20:00:00 20.16 C 7.75 g/m*3 20.16 C 0 km/h
2757 10-05-2011 21:00:00 16.34 C 9.79 g/m*3 16.34 C 0 km/h
2758 10-05-2011 22:00:00 14.42 C 10.45 g/m*3 14.42 C 0 km/h
2759 10-05-2011 23:00:00 15 C 10.67 g/m*3 15 C 0 km/h
2760 11-05-2011 00:00:00 14.78 C 10.83 g/m*3 14.78 C 0 km/h
2761 11-05-2011 01:00:00 14.34 C 10.79 g/m*3 14.34 C 0 km/h
2762 11-05-2011 02:00:00 14.4 C 10.68 g/m*3 14.4 C 0 km/h
2763 11-05-2011 03:00:00 13.98 C 10.46 g/m*3 13.98 C 0 km/h
2764 11-05-2011 04:00:00 13.06 C 9.97 g/m*3 13.06 C 0 km/h
2765 11-05-2011 05:00:00 12.18 C 9.61 g/m*3 12.18 C 0 km/h
2766 11-05-2011 06:00:00 12.22 C 9.72 g/m*3 12.22 C 0 km/h
2767 11-05-2011 07:00:00 13.96 C 10.81 g/m*3 13.96 C 0 km/h
2768 11-05-2011 08:00:00 15.72 C 11.76 g/m*3 15.72 C 0 km/h
2769 11-05-2011 09:00:00 17.46 C 10.38 g/m*3 17.46 C 0 km/h
2770 11-05-2011 10:00:00 17.88 C 9.15 g/m*3 17.88 C 0 km/h
2771 11-05-2011 11:00:00 19.82 C 8.58 g/m*3 19.82 C 0 km/h
2772 11-05-2011 12:00:00 21.28 C 7.48 g/m*3 21.28 C 0 km/h
2773 11-05-2011 13:00:00 24.76 C 6.5 g/m*3 24.76 C 0 km/h
2774 11-05-2011 14:00:00 27.06 C 5.99 g/m*3 27.06 C 0 km/h
2775 11-05-2011 15:00:00 26.62 C 6.3 g/m*3 26.62 C 0 km/h
Sensor: Nr:Datum:Temp:Abs-Feuchte:Windchill:Wind:
Aussen-T/F 2776 11-05-2011 16:00:00 27.44 C 5.91 g/m*3 27.44 C 0 km/h
2777 11-05-2011 17:00:00 25.18 C 6.42 g/m*3 25.18 C 0 km/h
2778 11-05-2011 18:00:00 24.1 C 6.35 g/m*3 24.1 C 0 km/h
2779 11-05-2011 19:00:00 21.76 C 8.12 g/m*3 21.76 C 0 km/h
2780 11-05-2011 20:00:00 18.42 C 8.35 g/m*3 18.42 C 0 km/h
2781 11-05-2011 21:00:00 16.42 C 7.88 g/m*3 16.42 C 0 km/h
2782 11-05-2011 22:00:00 15.04 C 8.18 g/m*3 15.04 C 0 km/h
2783 11-05-2011 23:00:00 13.88 C 8.31 g/m*3 13.88 C 0 km/h
2784 12-05-2011 00:00:00 12.38 C 7.86 g/m*3 12.38 C 0 km/h
2785 12-05-2011 01:00:00 11.6 C 7.96 g/m*3 11.6 C 0 km/h
2786 12-05-2011 02:00:00 11.46 C 8.18 g/m*3 11.46 C 0 km/h
2787 12-05-2011 03:00:00 10.88 C 8.01 g/m*3 10.88 C 0 km/h
2788 12-05-2011 04:00:00 10.86 C 8.18 g/m*3 10.86 C 0 km/h
2789 12-05-2011 05:00:00 11.36 C 8.11 g/m*3 11.36 C 0 km/h
2790 12-05-2011 06:00:00 11.66 C 8.22 g/m*3 11.66 C 0 km/h
2791 12-05-2011 07:00:00 12.72 C 8.23 g/m*3 12.72 C 0 km/h
2792 12-05-2011 08:00:00 13.86 C 7.96 g/m*3 13.86 C 0 km/h
2793 12-05-2011 09:00:00 15.3 C 7.6 g/m*3 15.3 C 0 km/h
2794 12-05-2011 10:00:00 16.48 C 7.26 g/m*3 16.48 C 0 km/h
2795 12-05-2011 11:00:00 17.12 C 6.97 g/m*3 17.12 C 0 km/h
2796 12-05-2011 12:00:00 19.56 C 6.43 g/m*3 19.56 C 0 km/h
2797 12-05-2011 13:00:00 21.22 C 6.31 g/m*3 21.22 C 0 km/h
2798 12-05-2011 14:00:00 23.72 C 5.65 g/m*3 23.72 C 0 km/h
2799 12-05-2011 15:00:00 21.94 C 5.96 g/m*3 21.94 C 0 km/h
2800 12-05-2011 16:00:00 22.14 C 5.75 g/m*3 22.14 C 0 km/h
Sensor: Nr:Datum:Temp:Abs-Feuchte:Windchill:Wind:
Aussen-T/F 2801 12-05-2011 17:00:00 21.56 C 5.03 g/m*3 21.56 C 0 km/h
2802 12-05-2011 18:00:00 21.92 C 4.37 g/m*3 21.92 C 0 km/h
2803 12-05-2011 19:00:00 18.84 C 4.97 g/m*3 18.84 C 0 km/h
2804 12-05-2011 20:00:00 15.98 C 5.2 g/m*3 15.98 C 0 km/h
2805 12-05-2011 21:00:00 13.56 C 5.73 g/m*3 13.56 C 0 km/h
2806 12-05-2011 22:00:00 11.84 C 5.82 g/m*3 11.84 C 0 km/h
2807 12-05-2011 23:00:00 10.72 C 5.47 g/m*3 10.72 C 0 km/h
2808 13-05-2011 00:00:00 9.98 C 5.31 g/m*3 9.98 C 0 km/h
2809 13-05-2011 01:00:00 8.48 C 5.53 g/m*3 8.48 C 0 km/h
2810 13-05-2011 02:00:00 6.98 C 5.6 g/m*3 6.98 C 0 km/h
2811 13-05-2011 03:00:00 6.64 C 5.71 g/m*3 6.64 C 0 km/h
2812 13-05-2011 04:00:00 5.86 C 5.71 g/m*3 5.86 C 0 km/h
2813 13-05-2011 05:00:00 5.04 C 5.75 g/m*3 5.04 C 0 km/h
2814 13-05-2011 06:00:00 5 C 5.86 g/m*3 5 C 0 km/h
2815 13-05-2011 07:00:00 5.32 C 6 g/m*3 5.32 C 0 km/h
2816 13-05-2011 08:00:00 6.86 C 6.6 g/m*3 6.86 C 0 km/h
2817 13-05-2011 09:00:00 10.34 C 6.84 g/m*3 10.34 C 0 km/h
2818 13-05-2011 10:00:00 13.18 C 6.44 g/m*3 13.18 C 0 km/h
2819 13-05-2011 11:00:00 15.88 C 5.25 g/m*3 15.88 C 0 km/h
2820 13-05-2011 12:00:00 17.6 C 5.19 g/m*3 17.6 C 0 km/h
2821 13-05-2011 13:00:00 20.16 C 4.88 g/m*3 20.16 C 0 km/h
2822 13-05-2011 14:00:00 24.7 C 4.53 g/m*3 24.7 C 0 km/h
2823 13-05-2011 15:00:00 21 C 5.09 g/m*3 21 C 0 km/h
2824 13-05-2011 16:00:00 24.86 C 4.57 g/m*3 24.86 C 0 km/h
2825 13-05-2011 17:00:00 25.08 C 4.9 g/m*3 25.08 C 0 km/h
Sensor: Nr:Datum:Temp:Abs-Feuchte:Windchill:Wind:
Aussen-T/F 2826 13-05-2011 18:00:00 21.96 C 5.85 g/m*3 21.96 C 0 km/h
2827 13-05-2011 19:00:00 21.1 C 5.64 g/m*3 21.1 C 0 km/h
2828 13-05-2011 20:00:00 15.34 C 6 g/m*3 15.34 C 0 km/h
2829 13-05-2011 21:00:00 12.9 C 5.46 g/m*3 12.9 C 0 km/h
2830 13-05-2011 22:00:00 12.15 C 5.32 g/m*3 12.15 C 0 km/h
2831 13-05-2011 23:00:00 11.7 C 5.5 g/m*3 11.7 C 0 km/h
2832 14-05-2011 00:00:00 10.06 C 5.55 g/m*3 10.06 C 0 km/h
2833 14-05-2011 01:00:00 8.68 C 5.63 g/m*3 8.68 C 0 km/h
2834 14-05-2011 02:00:00 7.86 C 5.96 g/m*3 7.86 C 0 km/h
2835 14-05-2011 03:00:00 7.04 C 5.94 g/m*3 7.04 C 0 km/h
2836 14-05-2011 04:00:00 6.64 C 6.16 g/m*3 6.64 C 0 km/h
2837 14-05-2011 05:00:00 5.98 C 6.02 g/m*3 5.98 C 0 km/h
2838 14-05-2011 06:00:00 5.48 C 6.02 g/m*3 5.48 C 0 km/h
2839 14-05-2011 07:00:00 6.8 C 6.49 g/m*3 6.8 C 0 km/h
2840 14-05-2011 08:00:00 9.58 C 6.26 g/m*3 9.58 C 0 km/h
2841 14-05-2011 09:00:00 12.36 C 6.26 g/m*3 12.36 C 0 km/h
2842 14-05-2011 10:00:00 15.8 C 6.25 g/m*3 15.8 C 0 km/h
2843 14-05-2011 11:00:00 18.56 C 5.11 g/m*3 18.56 C 0 km/h
2844 14-05-2011 12:00:00 20.34 C 4.44 g/m*3 20.34 C 0 km/h
2845 14-05-2011 13:00:00 19.1 C 5.21 g/m*3 19.1 C 0 km/h
2846 14-05-2011 14:00:00 15.46 C 7.04 g/m*3 15.46 C 0 km/h
2847 14-05-2011 15:00:00 15.6 C 6.38 g/m*3 15.6 C 0 km/h
2848 14-05-2011 16:00:00 14.6 C 7.33 g/m*3 14.6 C 0 km/h
2849 14-05-2011 17:00:00 16.82 C 6.04 g/m*3 16.82 C 0 km/h
2850 14-05-2011 18:00:00 19.82 C 4.89 g/m*3 19.82 C 0 km/h
Sensor: Nr:Datum:Temp:Abs-Feuchte:Windchill:Wind:
Aussen-T/F 2851 14-05-2011 19:00:00 18.14 C 3.78 g/m*3 18.14 C 0 km/h
2852 14-05-2011 20:00:00 15.08 C 3.45 g/m*3 15.08 C 0 km/h
2853 14-05-2011 21:00:00 12.52 C 3.74 g/m*3 12.52 C 0 km/h
2854 14-05-2011 22:00:00 10.6 C 4 g/m*3 10.6 C 0 km/h
2855 14-05-2011 23:00:00 9.46 C 4.21 g/m*3 9.46 C 0 km/h
2856 15-05-2011 00:00:00 8.02 C 4.57 g/m*3 8.02 C 0 km/h
2857 15-05-2011 01:00:00 6.82 C 5.07 g/m*3 6.82 C 0 km/h
2858 15-05-2011 02:00:00 6.1 C 5.26 g/m*3 6.1 C 0 km/h
2859 15-05-2011 03:00:00 5.56 C 5.34 g/m*3 5.56 C 0 km/h
2860 15-05-2011 04:00:00 6.46 C 5.34 g/m*3 6.46 C 0 km/h
2861 15-05-2011 05:00:00 4.76 C 5.26 g/m*3 4.76 C 0 km/h
2862 15-05-2011 06:00:00 5.66 C 5.49 g/m*3 5.66 C 0 km/h
2863 15-05-2011 07:00:00 7 C 5.52 g/m*3 7 C 0 km/h
2864 15-05-2011 08:00:00 9.2 C 5.61 g/m*3 9.2 C 0 km/h
2865 15-05-2011 09:00:00 10.88 C 6.02 g/m*3 10.88 C 0 km/h
2866 15-05-2011 10:00:00 9.36 C 7.09 g/m*3 9.36 C 0 km/h
2867 15-05-2011 11:00:00 11.6 C 7.13 g/m*3 11.6 C 0 km/h
2868 15-05-2011 12:00:00 12 C 6.63 g/m*3 12 C 0 km/h
2869 15-05-2011 13:00:00 15.02 C 5.78 g/m*3 15.02 C 0 km/h
2870 15-05-2011 14:00:00 16.3 C 5.33 g/m*3 16.3 C 0 km/h
2871 15-05-2011 15:00:00 14.66 C 5.8 g/m*3 14.66 C 0 km/h
2872 15-05-2011 16:00:00 17.12 C 4.63 g/m*3 17.12 C 0 km/h
2873 15-05-2011 17:00:00 18.34 C 4.67 g/m*3 18.34 C 0 km/h
2874 15-05-2011 18:00:00 14.04 C 6.92 g/m*3 14.04 C 0 km/h
2875 15-05-2011 19:00:00 11.02 C 6.98 g/m*3 11.02 C 0 km/h
Sensor: Nr:Datum:Temp:Abs-Feuchte:Windchill:Wind:
Aussen-T/F 2876 15-05-2011 20:00:00 9.96 C 7.33 g/m*3 9.96 C 0 km/h
2877 15-05-2011 21:00:00 9.4 C 7.16 g/m*3 9.4 C 0 km/h
2878 15-05-2011 22:00:00 9.84 C 6.98 g/m*3 9.84 C 0 km/h
2879 15-05-2011 23:00:00 9.12 C 7.09 g/m*3 9.12 C 0 km/h
2880 16-05-2011 00:00:00 8.22 C 6.74 g/m*3 8.22 C 0 km/h
2881 16-05-2011 01:00:00 7.44 C 6.76 g/m*3 7.44 C 0 km/h
2882 16-05-2011 02:00:00 7.9 C 6.78 g/m*3 7.9 C 0 km/h
2883 16-05-2011 03:00:00 8.4 C 6.65 g/m*3 8.4 C 0 km/h
2884 16-05-2011 04:00:00 8.88 C 6.39 g/m*3 8.88 C 0 km/h
2885 16-05-2011 05:00:00 9.16 C 6.13 g/m*3 9.16 C 0 km/h
2886 16-05-2011 06:00:00 9.5 C 5.95 g/m*3 9.5 C 0 km/h
2887 16-05-2011 07:00:00 9.96 C 5.81 g/m*3 9.96 C 0 km/h
2888 16-05-2011 08:00:00 10.86 C 5.83 g/m*3 10.86 C 0 km/h
2889 16-05-2011 09:00:00 12.38 C 5.78 g/m*3 12.38 C 0 km/h
2890 16-05-2011 10:00:00 14.16 C 5.63 g/m*3 14.16 C 0 km/h
2891 16-05-2011 11:00:00 16.36 C 5.51 g/m*3 16.36 C 0 km/h
2892 16-05-2011 12:00:00 16.48 C 5.5 g/m*3 16.48 C 0 km/h
2893 16-05-2011 13:00:00 15.24 C 6.4 g/m*3 15.24 C 0 km/h
2894 16-05-2011 14:00:00 14.96 C 6.7 g/m*3 14.96 C 0 km/h
2895 16-05-2011 15:00:00 14.6 C 7.23 g/m*3 14.6 C 0 km/h
2896 16-05-2011 16:00:00 15.4 C 6.62 g/m*3 15.4 C 0 km/h
2897 16-05-2011 17:00:00 16 C 6.73 g/m*3 16 C 0 km/h
2898 16-05-2011 18:00:00 15.42 C 6.76 g/m*3 15.42 C 0 km/h
2899 16-05-2011 19:00:00 15.26 C 6.93 g/m*3 15.26 C 0 km/h
2900 16-05-2011 20:00:00 14.6 C 7.28 g/m*3 14.6 C 0 km/h
Sensor: Nr:Datum:Temp:Abs-Feuchte:Windchill:Wind:
Aussen-T/F 2901 16-05-2011 21:00:00 13.94 C 7.64 g/m*3 13.94 C 0 km/h
2902 16-05-2011 22:00:00 13.6 C 7.67 g/m*3 13.6 C 0 km/h
2903 16-05-2011 23:00:00 13.36 C 7.7 g/m*3 13.36 C 0 km/h
2904 17-05-2011 00:00:00 12.94 C 7.8 g/m*3 12.94 C 0 km/h
2905 17-05-2011 01:00:00 12.74 C 7.83 g/m*3 12.74 C 0 km/h
2906 17-05-2011 02:00:00 12.7 C 8.04 g/m*3 12.7 C 0 km/h
2907 17-05-2011 03:00:00 12.9 C 7.91 g/m*3 12.9 C 0 km/h
2908 17-05-2011 04:00:00 12.74 C 8.06 g/m*3 12.74 C 0 km/h
2909 17-05-2011 05:00:00 12.68 C 7.96 g/m*3 12.68 C 0 km/h
2910 17-05-2011 06:00:00 13.1 C 7.76 g/m*3 13.1 C 0 km/h
2911 17-05-2011 07:00:00 13.58 C 7.64 g/m*3 13.58 C 0 km/h
2912 17-05-2011 08:00:00 13.1 C 7.94 g/m*3 13.1 C 0 km/h
2913 17-05-2011 09:00:00 14.14 C 7.84 g/m*3 14.14 C 0 km/h
2914 17-05-2011 10:00:00 15.08 C 7.78 g/m*3 15.08 C 0 km/h
2915 17-05-2011 11:00:00 16.22 C 7.54 g/m*3 16.22 C 0 km/h
2916 17-05-2011 12:00:00 18.18 C 7.08 g/m*3 18.18 C 0 km/h
2917 17-05-2011 13:00:00 20.4 C 6.83 g/m*3 20.4 C 0 km/h
2918 17-05-2011 14:00:00 23.16 C 6.14 g/m*3 23.16 C 0 km/h
2919 17-05-2011 15:00:00 24.08 C 6.12 g/m*3 24.08 C 0 km/h
2920 17-05-2011 16:00:00 26.8 C 5.09 g/m*3 26.8 C 0 km/h
2921 17-05-2011 17:00:00 27.36 C 5.25 g/m*3 27.36 C 0 km/h
2922 17-05-2011 18:00:00 24.84 C 4.75 g/m*3 24.84 C 0 km/h
2923 17-05-2011 19:00:00 22.6 C 4.9 g/m*3 22.6 C 0 km/h
2924 17-05-2011 20:00:00 19.56 C 6.06 g/m*3 19.56 C 0 km/h
2925 17-05-2011 21:00:00 15.08 C 6.52 g/m*3 15.08 C 0 km/h
Sensor: Nr:Datum:Temp:Abs-Feuchte:Windchill:Wind:
Aussen-T/F 2926 17-05-2011 22:00:00 13.36 C 6.52 g/m*3 13.36 C 0 km/h
2927 17-05-2011 23:00:00 11.64 C 6.79 g/m*3 11.64 C 0 km/h
2928 18-05-2011 00:00:00 10.24 C 6.81 g/m*3 10.24 C 0 km/h
2929 18-05-2011 01:00:00 9.48 C 6.89 g/m*3 9.48 C 0 km/h
2930 18-05-2011 02:00:00 8.54 C 6.93 g/m*3 8.54 C 0 km/h
2931 18-05-2011 03:00:00 7.76 C 6.9 g/m*3 7.76 C 0 km/h
2932 18-05-2011 04:00:00 7.06 C 6.75 g/m*3 7.06 C 0 km/h
2933 18-05-2011 05:00:00 6.62 C 6.7 g/m*3 6.62 C 0 km/h
2934 18-05-2011 06:00:00 6.74 C 6.78 g/m*3 6.74 C 0 km/h
2935 18-05-2011 07:00:00 7.92 C 7.24 g/m*3 7.92 C 0 km/h
2936 18-05-2011 08:00:00 9.66 C 7.71 g/m*3 9.66 C 0 km/h
2937 18-05-2011 09:00:00 12.92 C 7.85 g/m*3 12.92 C 0 km/h
2938 18-05-2011 10:00:00 17.16 C 6.57 g/m*3 17.16 C 0 km/h
2939 18-05-2011 11:00:00 19.14 C 6.15 g/m*3 19.14 C 0 km/h
2940 18-05-2011 12:00:00 20.62 C 6.38 g/m*3 20.62 C 0 km/h
2941 18-05-2011 13:00:00 24.28 C 6.28 g/m*3 24.28 C 0 km/h
2942 18-05-2011 14:00:00 27.98 C 5.65 g/m*3 27.98 C 0 km/h
2943 18-05-2011 15:00:00 28.98 C 5.74 g/m*3 28.98 C 0 km/h
2944 18-05-2011 16:00:00 28.88 C 5.71 g/m*3 28.88 C 0 km/h
2945 18-05-2011 17:00:00 27.7 C 5.35 g/m*3 27.7 C 0 km/h
2946 18-05-2011 18:00:00 26.82 C 6.17 g/m*3 26.82 C 0 km/h
2947 18-05-2011 19:00:00 23.66 C 7.17 g/m*3 23.66 C 0 km/h
2948 18-05-2011 20:00:00 19.86 C 7.95 g/m*3 19.86 C 0 km/h
2949 18-05-2011 21:00:00 17.48 C 7.33 g/m*3 17.48 C 0 km/h
2950 18-05-2011 22:00:00 15.5 C 7.75 g/m*3 15.5 C 0 km/h
Sensor: Nr:Datum:Temp:Abs-Feuchte:Windchill:Wind:
Aussen-T/F 2951 18-05-2011 23:00:00 13.54 C 7.65 g/m*3 13.54 C 0 km/h
2952 19-05-2011 00:00:00 12.14 C 7.59 g/m*3 12.14 C 0 km/h
2953 19-05-2011 01:00:00 11.7 C 7.8 g/m*3 11.7 C 0 km/h
2954 19-05-2011 02:00:00 10.76 C 7.79 g/m*3 10.76 C 0 km/h
2955 19-05-2011 03:00:00 10.16 C 7.84 g/m*3 10.16 C 0 km/h
2956 19-05-2011 04:00:00 10.4 C 8.06 g/m*3 10.4 C 0 km/h
2957 19-05-2011 05:00:00 10.42 C 8.01 g/m*3 10.42 C 0 km/h
2958 19-05-2011 06:00:00 11.12 C 8.23 g/m*3 11.12 C 0 km/h
2959 19-05-2011 07:00:00 12.88 C 8.04 g/m*3 12.88 C 0 km/h
2960 19-05-2011 08:00:00 15.1 C 7.92 g/m*3 15.1 C 0 km/h
2961 19-05-2011 09:00:00 17.66 C 8.13 g/m*3 17.66 C 0 km/h
2962 19-05-2011 10:00:00 20.06 C 7.98 g/m*3 20.06 C 0 km/h
2963 19-05-2011 11:00:00 22.12 C 7.82 g/m*3 22.12 C 0 km/h
2964 19-05-2011 12:00:00 23.46 C 7.68 g/m*3 23.46 C 0 km/h
2965 19-05-2011 13:00:00 26.3 C 6.78 g/m*3 26.3 C 0 km/h
2966 19-05-2011 14:00:00 27.16 C 6.39 g/m*3 27.16 C 0 km/h
2967 19-05-2011 15:00:00 25.76 C 6.73 g/m*3 25.76 C 0 km/h
2968 19-05-2011 16:00:00 26.92 C 6.41 g/m*3 26.92 C 0 km/h
2969 19-05-2011 17:00:00 24.7 C 7.51 g/m*3 24.7 C 0 km/h
2970 19-05-2011 18:00:00 19.46 C 9.01 g/m*3 19.46 C 0 km/h
2971 19-05-2011 19:00:00 16.12 C 11.36 g/m*3 16.12 C 0 km/h
2972 19-05-2011 20:00:00 15.4 C 11.14 g/m*3 15.4 C 0 km/h
2973 19-05-2011 21:00:00 14.26 C 10.76 g/m*3 14.26 C 0 km/h
2974 19-05-2011 22:00:00 13.48 C 10.4 g/m*3 13.48 C 0 km/h
2975 19-05-2011 23:00:00 13.06 C 10.2 g/m*3 13.06 C 0 km/h
Sensor: Nr:Datum:Temp:Abs-Feuchte:Windchill:Wind:
Aussen-T/F 2976 20-05-2011 00:00:00 12.66 C 10.06 g/m*3 12.66 C 0 km/h
2977 20-05-2011 01:00:00 11.96 C 9.63 g/m*3 11.96 C 0 km/h
2978 20-05-2011 02:00:00 11.78 C 9.57 g/m*3 11.78 C 0 km/h
2979 20-05-2011 03:00:00 11.02 C 9.16 g/m*3 11.02 C 0 km/h
2980 20-05-2011 04:00:00 10.7 C 9.02 g/m*3 10.7 C 0 km/h
2981 20-05-2011 05:00:00 10.84 C 9.12 g/m*3 10.84 C 0 km/h
2982 20-05-2011 06:00:00 11.12 C 9.28 g/m*3 11.12 C 0 km/h
2983 20-05-2011 07:00:00 11.46 C 9.48 g/m*3 11.46 C 0 km/h
2984 20-05-2011 08:00:00 12.24 C 9.87 g/m*3 12.24 C 0 km/h
2985 20-05-2011 09:00:00 13.72 C 10.22 g/m*3 13.72 C 0 km/h
2986 20-05-2011 10:00:00 14.84 C 9.96 g/m*3 14.84 C 0 km/h
2987 20-05-2011 11:00:00 17.52 C 10.6 g/m*3 17.52 C 0 km/h
2988 20-05-2011 12:00:00 20.46 C 9.37 g/m*3 20.46 C 0 km/h
2989 20-05-2011 13:00:00 25.48 C 8.09 g/m*3 25.48 C 0 km/h
2990 20-05-2011 14:00:00 28.32 C 7.36 g/m*3 28.32 C 0 km/h
2991 20-05-2011 15:00:00 24.12 C 8.37 g/m*3 24.12 C 0 km/h
2992 20-05-2011 16:00:00 25.26 C 7.57 g/m*3 25.26 C 0 km/h
2993 20-05-2011 17:00:00 24.52 C 7.53 g/m*3 24.52 C 0 km/h
2994 20-05-2011 18:00:00 22.98 C 8.54 g/m*3 22.98 C 0 km/h
2995 20-05-2011 19:00:00 18.3 C 10.26 g/m*3 18.3 C 0 km/h
2996 20-05-2011 20:00:00 15.36 C 11.14 g/m*3 15.36 C 0 km/h
2997 20-05-2011 21:00:00 14.46 C 10.89 g/m*3 14.46 C 0 km/h
2998 20-05-2011 22:00:00 13.94 C 10.67 g/m*3 13.94 C 0 km/h
2999 20-05-2011 23:00:00 13.66 C 10.63 g/m*3 13.66 C 0 km/h
3000 21-05-2011 00:00:00 13.5 C 10.57 g/m*3 13.5 C 0 km/h
Sensor: Nr:Datum:Temp:Abs-Feuchte:Windchill:Wind:
Aussen-T/F 3001 21-05-2011 01:00:00 13.24 C 10.47 g/m*3 13.24 C 0 km/h
3002 21-05-2011 02:00:00 12.56 C 10.04 g/m*3 12.56 C 0 km/h
3003 21-05-2011 03:00:00 11.82 C 9.63 g/m*3 11.82 C 0 km/h
3004 21-05-2011 04:00:00 11.6 C 9.56 g/m*3 11.6 C 0 km/h
3005 21-05-2011 05:00:00 11.46 C 9.48 g/m*3 11.46 C 0 km/h
3006 21-05-2011 06:00:00 11.6 C 9.56 g/m*3 11.6 C 0 km/h
3007 21-05-2011 07:00:00 12.36 C 9.81 g/m*3 12.36 C 0 km/h
3008 21-05-2011 08:00:00 12.92 C 9.01 g/m*3 12.92 C 0 km/h
3009 21-05-2011 09:00:00 14.34 C 9.16 g/m*3 14.34 C 0 km/h
3010 21-05-2011 10:00:00 16.12 C 8.45 g/m*3 16.12 C 0 km/h
3011 21-05-2011 11:00:00 17.86 C 8.29 g/m*3 17.86 C 0 km/h
3012 21-05-2011 12:00:00 19.46 C 8.57 g/m*3 19.46 C 0 km/h
3013 21-05-2011 13:00:00 25.1 C 8.38 g/m*3 25.1 C 0 km/h
3014 21-05-2011 14:00:00 29.48 C 7.02 g/m*3 29.48 C 0 km/h
3015 21-05-2011 15:00:00 30.12 C 6.47 g/m*3 30.12 C 0 km/h
3016 21-05-2011 16:00:00 30.1 C 6.22 g/m*3 30.1 C 0 km/h
3017 21-05-2011 17:00:00 31.36 C 6.59 g/m*3 31.36 C 0 km/h
3018 21-05-2011 18:00:00 30.7 C 6.42 g/m*3 30.7 C 0 km/h
3019 21-05-2011 19:00:00 26.31 C 9.04 g/m*3 26.31 C 0 km/h
3020 21-05-2011 20:00:00 20.52727 C 9.43 g/m*3 20.53 C 0 km/h
3021 21-05-2011 21:00:00 17.56 C 9.34 g/m*3 17.56 C 0 km/h
3022 21-05-2011 22:00:00 15.525 C 9.27 g/m*3 15.53 C 0 km/h
3023 21-05-2011 23:00:00 14.72 C 9.5 g/m*3 14.72 C 0 km/h
3024 22-05-2011 00:00:00 13.32 C 8.86 g/m*3 13.32 C 0 km/h
3025 22-05-2011 01:00:00 12.2 C 8.57 g/m*3 12.2 C 0 km/h
Sensor: Nr:Datum:Temp:Abs-Feuchte:Windchill:Wind:
Aussen-T/F 3026 22-05-2011 02:00:00 11.24 C 8.41 g/m*3 11.24 C 0 km/h
3027 22-05-2011 03:00:00 10.42 C 8.2 g/m*3 10.42 C 0 km/h
3028 22-05-2011 04:00:00 9.8 C 8.05 g/m*3 9.8 C 0 km/h
3029 22-05-2011 05:00:00 9.32 C 7.92 g/m*3 9.32 C 0 km/h
3030 22-05-2011 06:00:00 9.42 C 8.06 g/m*3 9.42 C 0 km/h
3031 22-05-2011 07:00:00 10 C 8.34 g/m*3 10 C 0 km/h
3032 22-05-2011 08:00:00 12.8 C 9.01 g/m*3 12.8 C 0 km/h
3033 22-05-2011 09:00:00 15 C 9.03 g/m*3 15 C 0 km/h
3034 22-05-2011 10:00:00 20.2 C 8.74 g/m*3 20.2 C 0 km/h
3035 22-05-2011 11:00:00 20.42 C 8.08 g/m*3 20.42 C 0 km/h
3036 22-05-2011 12:00:00 22.54 C 8.05 g/m*3 22.54 C 0 km/h
3037 22-05-2011 13:00:00 24.94286 C 7.51 g/m*3 24.94 C 0 km/h
3038 22-05-2011 14:00:00 27.26667 C 7.18 g/m*3 27.27 C 0 km/h
3039 22-05-2011 15:00:00 27.24 C 7.09 g/m*3 27.24 C 0 km/h
3040 22-05-2011 16:00:00 21.14 C 10.23 g/m*3 21.14 C 0 km/h
3041 22-05-2011 17:00:00 19.64 C 12.15 g/m*3 19.64 C 0 km/h
3042 22-05-2011 18:00:00 20.42 C 12.19 g/m*3 20.42 C 0 km/h
3043 22-05-2011 19:00:00 22.48 C 10.06 g/m*3 22.48 C 0 km/h
3044 22-05-2011 20:00:00 18.28 C 8.75 g/m*3 18.28 C 0 km/h
3045 22-05-2011 21:00:00 15.32 C 7.45 g/m*3 15.32 C 0 km/h
3046 22-05-2011 22:00:00 12.94 C 6.12 g/m*3 12.94 C 0 km/h
3047 22-05-2011 23:00:00 11.4 C 6.06 g/m*3 11.4 C 0 km/h
3048 23-05-2011 00:00:00 11.02 C 5.83 g/m*3 11.02 C 0 km/h
3049 23-05-2011 01:00:00 9.96 C 6.15 g/m*3 9.96 C 0 km/h
3050 23-05-2011 02:00:00 8.9 C 6.13 g/m*3 8.9 C 0 km/h
Sensor: Nr:Datum:Temp:Abs-Feuchte:Windchill:Wind:
Aussen-T/F 3051 23-05-2011 03:00:00 6.94 C 6.1 g/m*3 6.94 C 0 km/h
3052 23-05-2011 04:00:00 7.1 C 6.15 g/m*3 7.1 C 0 km/h
3053 23-05-2011 05:00:00 6.02 C 6.05 g/m*3 6.02 C 0 km/h
3054 23-05-2011 06:00:00 6.44 C 6.35 g/m*3 6.44 C 0 km/h
3055 23-05-2011 07:00:00 7.52 C 6.59 g/m*3 7.52 C 0 km/h
3056 23-05-2011 08:00:00 9.36 C 6.95 g/m*3 9.36 C 0 km/h
3057 23-05-2011 09:00:00 13.18 C 5.8 g/m*3 13.18 C 0 km/h
3058 23-05-2011 10:00:00 15.14 C 5.28 g/m*3 15.14 C 0 km/h
3059 23-05-2011 11:00:00 16.96 C 4.45 g/m*3 16.96 C 0 km/h
3060 23-05-2011 12:00:00 18.34 C 3.51 g/m*3 18.34 C 0 km/h
3061 23-05-2011 13:00:00 22.08 C 3.9 g/m*3 22.08 C 0 km/h
3062 23-05-2011 14:00:00 26.2 C 4.92 g/m*3 26.2 C 0 km/h
3063 23-05-2011 15:00:00 26.84 C 5.1 g/m*3 26.84 C 0 km/h
3064 23-05-2011 16:00:00 27.8 C 5.38 g/m*3 27.8 C 0 km/h
3065 23-05-2011 17:00:00 29.16 C 5.79 g/m*3 29.16 C 0 km/h
3066 23-05-2011 18:00:00 28.22 C 5.5 g/m*3 28.22 C 0 km/h
3067 23-05-2011 19:00:00 25.86 C 5.8 g/m*3 25.86 C 0 km/h
3068 23-05-2011 20:00:00 19.1 C 7.54 g/m*3 19.1 C 0 km/h
3069 23-05-2011 21:00:00 16.28 C 7.15 g/m*3 16.28 C 0 km/h
3070 23-05-2011 22:00:00 13.78 C 7.09 g/m*3 13.78 C 0 km/h
3071 23-05-2011 23:00:00 11.84 C 7.13 g/m*3 11.84 C 0 km/h
3072 24-05-2011 00:00:00 10.84 C 7.27 g/m*3 10.84 C 0 km/h
3073 24-05-2011 01:00:00 10.24 C 7.16 g/m*3 10.24 C 0 km/h
3074 24-05-2011 02:00:00 9.52 C 7.18 g/m*3 9.52 C 0 km/h
3075 24-05-2011 03:00:00 9.1 C 7.29 g/m*3 9.1 C 0 km/h
Sensor: Nr:Datum:Temp:Abs-Feuchte:Windchill:Wind:
Aussen-T/F 3076 24-05-2011 04:00:00 8.64 C 7.2 g/m*3 8.64 C 0 km/h
3077 24-05-2011 05:00:00 9.62 C 7.59 g/m*3 9.62 C 0 km/h
3078 24-05-2011 06:00:00 10.74 C 7.74 g/m*3 10.74 C 0 km/h
3079 24-05-2011 07:00:00 13.04 C 7.34 g/m*3 13.04 C 0 km/h
3080 24-05-2011 08:00:00 13.84 C 7.76 g/m*3 13.84 C 0 km/h
3081 24-05-2011 09:00:00 16.02 C 7.31 g/m*3 16.02 C 0 km/h
3082 24-05-2011 10:00:00 18.12 C 6.99 g/m*3 18.12 C 0 km/h
3083 24-05-2011 11:00:00 18.86 C 6.92 g/m*3 18.86 C 0 km/h
3084 24-05-2011 12:00:00 18.74 C 6.16 g/m*3 18.74 C 0 km/h
3085 24-05-2011 13:00:00 21.8 C 5.07 g/m*3 21.8 C 0 km/h
3086 24-05-2011 14:00:00 24.76 C 4.54 g/m*3 24.76 C 0 km/h
3087 24-05-2011 15:00:00 24.38 C 4.45 g/m*3 24.38 C 0 km/h
3088 24-05-2011 16:00:00 24.42 C 4.46 g/m*3 24.42 C 0 km/h
3089 24-05-2011 17:00:00 22.5 C 3.99 g/m*3 22.5 C 0 km/h
3090 24-05-2011 18:00:00 22.5 C 3.99 g/m*3 22.5 C 0 km/h
3091 24-05-2011 19:00:00 20.32 C 3.56 g/m*3 20.32 C 0 km/h
3092 24-05-2011 20:00:00 16.96 C 3.29 g/m*3 16.96 C 0 km/h
3093 24-05-2011 21:00:00 13.98 C 3.98 g/m*3 13.98 C 0 km/h
3094 24-05-2011 22:00:00 11.62 C 4.47 g/m*3 11.62 C 0 km/h
3095 24-05-2011 23:00:00 11.18 C 4.56 g/m*3 11.18 C 0 km/h
3096 25-05-2011 00:00:00 9.78 C 4.69 g/m*3 9.78 C 0 km/h
3097 25-05-2011 01:00:00 8.72 C 4.75 g/m*3 8.72 C 0 km/h
3098 25-05-2011 02:00:00 7.34 C 4.78 g/m*3 7.34 C 0 km/h
3099 25-05-2011 03:00:00 5.64 C 4.85 g/m*3 5.64 C 0 km/h
3100 25-05-2011 04:00:00 4.58 C 4.96 g/m*3 4.58 C 0 km/h
Sensor: Nr:Datum:Temp:Abs-Feuchte:Windchill:Wind:
Aussen-T/F 3101 25-05-2011 05:00:00 3.74 C 5 g/m*3 3.74 C 0 km/h
3102 25-05-2011 06:00:00 3.84 C 5.27 g/m*3 3.84 C 0 km/h
3103 25-05-2011 07:00:00 4.46 C 5.53 g/m*3 4.46 C 0 km/h
3104 25-05-2011 08:00:00 6.22 C 6.13 g/m*3 6.22 C 0 km/h
3105 25-05-2011 09:00:00 9.26 C 6.51 g/m*3 9.26 C 0 km/h
3106 25-05-2011 10:00:00 13.84 C 5.11 g/m*3 13.84 C 0 km/h
3107 25-05-2011 11:00:00 16.58 C 3.22 g/m*3 16.58 C 0 km/h
3108 25-05-2011 12:00:00 17.66 C 3.04 g/m*3 17.66 C 0 km/h
3109 25-05-2011 13:00:00 23.72 C 4.28 g/m*3 23.72 C 0 km/h
3110 25-05-2011 14:00:00 29.26 C 5.83 g/m*3 29.26 C 0 km/h
3111 25-05-2011 15:00:00 30.62 C 6.27 g/m*3 30.62 C 0 km/h
3112 25-05-2011 16:00:00 30.7 C 6.3 g/m*3 30.7 C 0 km/h
3113 25-05-2011 17:00:00 29.68 C 5.96 g/m*3 29.68 C 0 km/h
3114 25-05-2011 18:00:00 29.4 C 5.87 g/m*3 29.4 C 0 km/h
3115 25-05-2011 19:00:00 26.38 C 4.97 g/m*3 26.38 C 0 km/h
3116 25-05-2011 20:00:00 18.3 C 4.13 g/m*3 18.3 C 0 km/h
3117 25-05-2011 21:00:00 15.02 C 3.54 g/m*3 15.02 C 0 km/h
3118 25-05-2011 22:00:00 12.18 C 3.9 g/m*3 12.18 C 0 km/h
3119 25-05-2011 23:00:00 10.12 C 4.09 g/m*3 10.12 C 0 km/h
3120 26-05-2011 00:00:00 8.88 C 4.48 g/m*3 8.88 C 0 km/h
3121 26-05-2011 01:00:00 7.82 C 4.69 g/m*3 7.82 C 0 km/h
3122 26-05-2011 02:00:00 7.22 C 4.89 g/m*3 7.22 C 0 km/h
3123 26-05-2011 03:00:00 6.8 C 5.12 g/m*3 6.8 C 0 km/h
3124 26-05-2011 04:00:00 6.14 C 5.2 g/m*3 6.14 C 0 km/h
3125 26-05-2011 05:00:00 5.8 C 5.27 g/m*3 5.8 C 0 km/h
Sensor: Nr:Datum:Temp:Abs-Feuchte:Windchill:Wind:
Aussen-T/F 3126 26-05-2011 06:00:00 6.1 C 5.42 g/m*3 6.1 C 0 km/h
3127 26-05-2011 07:00:00 7.32 C 5.93 g/m*3 7.32 C 0 km/h
3128 26-05-2011 08:00:00 11.56 C 6.57 g/m*3 11.56 C 0 km/h
3129 26-05-2011 09:00:00 15.58 C 6.93 g/m*3 15.58 C 0 km/h
3130 26-05-2011 10:00:00 19.36 C 6.92 g/m*3 19.36 C 0 km/h
3131 26-05-2011 11:00:00 21.08 C 7.95 g/m*3 21.08 C 0 km/h
3132 26-05-2011 12:00:00 24 C 5.7 g/m*3 24 C 0 km/h
3133 26-05-2011 13:00:00 25.16 C 5.34 g/m*3 25.16 C 0 km/h
3134 26-05-2011 14:00:00 26.52 C 5.36 g/m*3 26.52 C 0 km/h
3135 26-05-2011 15:00:00 24.44 C 5.35 g/m*3 24.44 C 0 km/h
3136 26-05-2011 16:00:00 24.84 C 4.56 g/m*3 24.84 C 0 km/h
3137 26-05-2011 17:00:00 24.84 C 4.56 g/m*3 24.84 C 0 km/h
3138 26-05-2011 18:00:00 22.24 C 4.21 g/m*3 22.24 C 0 km/h
3139 26-05-2011 19:00:00 20.84 C 4.28 g/m*3 20.84 C 0 km/h
3140 26-05-2011 20:00:00 19.22 C 4.46 g/m*3 19.22 C 0 km/h
3141 26-05-2011 21:00:00 17.46 C 4.28 g/m*3 17.46 C 0 km/h
3142 26-05-2011 22:00:00 16.08 C 4.3 g/m*3 16.08 C 0 km/h
3143 26-05-2011 23:00:00 15.86 C 4.54 g/m*3 15.86 C 0 km/h
3144 27-05-2011 00:00:00 15.66 C 4.62 g/m*3 15.66 C 0 km/h
3145 27-05-2011 01:00:00 15.32 C 4.76 g/m*3 15.32 C 0 km/h
3146 27-05-2011 02:00:00 13.66 C 5.1 g/m*3 13.66 C 0 km/h
3147 27-05-2011 03:00:00 12.96 C 5.41 g/m*3 12.96 C 0 km/h
3148 27-05-2011 04:00:00 12.34 C 5.55 g/m*3 12.34 C 0 km/h
3149 27-05-2011 05:00:00 11.9 C 5.7 g/m*3 11.9 C 0 km/h
3150 27-05-2011 06:00:00 12.76 C 5.83 g/m*3 12.76 C 0 km/h
Sensor: Nr:Datum:Temp:Abs-Feuchte:Windchill:Wind:
Aussen-T/F 3151 27-05-2011 07:00:00 13.36 C 5.87 g/m*3 13.36 C 0 km/h
3152 27-05-2011 08:00:00 14.44 C 5.95 g/m*3 14.44 C 0 km/h
3153 27-05-2011 09:00:00 14.54 C 5.81 g/m*3 14.54 C 0 km/h
3154 27-05-2011 10:00:00 13.82 C 5.61 g/m*3 13.82 C 0 km/h
3155 27-05-2011 11:00:00 15 C 5.64 g/m*3 15 C 0 km/h
3156 27-05-2011 12:00:00 15.32 C 5.73 g/m*3 15.32 C 0 km/h
3157 27-05-2011 13:00:00 16.34 C 5.06 g/m*3 16.34 C 0 km/h
3158 27-05-2011 14:00:00 18.5 C 4.78 g/m*3 18.5 C 0 km/h
3159 27-05-2011 15:00:00 16.98 C 5.38 g/m*3 16.98 C 0 km/h
3160 27-05-2011 16:00:00 16.16 C 5.28 g/m*3 16.16 C 0 km/h
3161 27-05-2011 17:00:00 15.98 C 5.5 g/m*3 15.98 C 0 km/h
3162 27-05-2011 18:00:00 16.96 C 5.49 g/m*3 16.96 C 0 km/h
3163 27-05-2011 19:00:00 17.74 C 5.17 g/m*3 17.74 C 0 km/h
3164 27-05-2011 20:00:00 14.7 C 5.72 g/m*3 14.7 C 0 km/h
3165 27-05-2011 21:00:00 12.08 C 6.32 g/m*3 12.08 C 0 km/h
3166 27-05-2011 22:00:00 12.42 C 6.19 g/m*3 12.42 C 0 km/h
3167 27-05-2011 23:00:00 11.7 C 6.23 g/m*3 11.7 C 0 km/h
3168 28-05-2011 00:00:00 9.24 C 6.2 g/m*3 9.24 C 0 km/h
3169 28-05-2011 01:00:00 7.94 C 6.31 g/m*3 7.94 C 0 km/h
3170 28-05-2011 02:00:00 6.9 C 6.33 g/m*3 6.9 C 0 km/h
3171 28-05-2011 03:00:00 6.18 C 6.29 g/m*3 6.18 C 0 km/h
3172 28-05-2011 04:00:00 7.72 C 6.79 g/m*3 7.72 C 0 km/h
3173 28-05-2011 05:00:00 7.98 C 6.46 g/m*3 7.98 C 0 km/h
3174 28-05-2011 06:00:00 8.52 C 6.57 g/m*3 8.52 C 0 km/h
3175 28-05-2011 07:00:00 9.48 C 6.42 g/m*3 9.48 C 0 km/h
Sensor: Nr:Datum:Temp:Abs-Feuchte:Windchill:Wind:
Aussen-T/F 3176 28-05-2011 08:00:00 9.94 C 6.93 g/m*3 9.94 C 0 km/h
3177 28-05-2011 09:00:00 13.7 C 6.37 g/m*3 13.7 C 0 km/h
3178 28-05-2011 10:00:00 15.7 C 5.41 g/m*3 15.7 C 0 km/h
3179 28-05-2011 11:00:00 17.56 C 5.3 g/m*3 17.56 C 0 km/h
3180 28-05-2011 12:00:00 19.08 C 5.21 g/m*3 19.08 C 0 km/h
3181 28-05-2011 13:00:00 21.72 C 4.7 g/m*3 21.72 C 0 km/h
3182 28-05-2011 14:00:00 24.42 C 4.5 g/m*3 24.42 C 0 km/h
3183 28-05-2011 15:00:00 23.18 C 4.19 g/m*3 23.18 C 0 km/h
3184 28-05-2011 16:00:00 24.72 C 4.53 g/m*3 24.72 C 0 km/h
3185 28-05-2011 17:00:00 24.48 C 4.47 g/m*3 24.48 C 0 km/h
3186 28-05-2011 18:00:00 22.7 C 4.24 g/m*3 22.7 C 0 km/h
3187 28-05-2011 19:00:00 21.04 C 4.48 g/m*3 21.04 C 0 km/h
3188 28-05-2011 20:00:00 18.78 C 4.73 g/m*3 18.78 C 0 km/h
3189 28-05-2011 21:00:00 17.06 C 5.05 g/m*3 17.06 C 0 km/h
3190 28-05-2011 22:00:00 14.72 C 5.7 g/m*3 14.72 C 0 km/h
3191 28-05-2011 23:00:00 14.14 C 5.89 g/m*3 14.14 C 0 km/h
3192 29-05-2011 00:00:00 13.16 C 6.09 g/m*3 13.16 C 0 km/h
3193 29-05-2011 01:00:00 12.88 C 6.21 g/m*3 12.88 C 0 km/h
3194 29-05-2011 02:00:00 13.16 C 6.3 g/m*3 13.16 C 0 km/h
3195 29-05-2011 03:00:00 12.92 C 6.25 g/m*3 12.92 C 0 km/h
3196 29-05-2011 04:00:00 13.24 C 6.03 g/m*3 13.24 C 0 km/h
3197 29-05-2011 05:00:00 12 C 6.33 g/m*3 12 C 0 km/h
3198 29-05-2011 06:00:00 12.08 C 6.62 g/m*3 12.08 C 0 km/h
3199 29-05-2011 07:00:00 12.8 C 7.01 g/m*3 12.8 C 0 km/h
3200 29-05-2011 08:00:00 14.78 C 6.25 g/m*3 14.78 C 0 km/h
Sensor: Nr:Datum:Temp:Abs-Feuchte:Windchill:Wind:
Aussen-T/F 3201 29-05-2011 09:00:00 16.02 C 6.27 g/m*3 16.02 C 0 km/h
3202 29-05-2011 10:00:00 17.44 C 6.33 g/m*3 17.44 C 0 km/h
3203 29-05-2011 11:00:00 20.06 C 6.35 g/m*3 20.06 C 0 km/h
3204 29-05-2011 12:00:00 20.96 C 6.21 g/m*3 20.96 C 0 km/h
3205 29-05-2011 13:00:00 25.16 C 5.34 g/m*3 25.16 C 0 km/h
3206 29-05-2011 14:00:00 28.24 C 5.51 g/m*3 28.24 C 0 km/h
3207 29-05-2011 15:00:00 28.98 C 5.74 g/m*3 28.98 C 0 km/h
3208 29-05-2011 16:00:00 29.66 C 5.95 g/m*3 29.66 C 0 km/h
3209 29-05-2011 17:00:00 29.6 C 5.94 g/m*3 29.6 C 0 km/h
3210 29-05-2011 18:00:00 29 C 5.74 g/m*3 29 C